<?xml version='1.0' encoding='UTF-8'?><gpx version="1.1" creator="JPX - https://github.com/jenetics/jpx" xmlns="http://www.topografix.com/GPX/1/1"><trk><trkseg><trkpt lat="43.7089016" lon="12.3898865"><ele>510.0</ele><time>2026-04-25T12:52:13.479Z</time></trkpt><trkpt lat="43.7089341" lon="12.3899627"><ele>510.0</ele><time>2026-04-25T12:52:14.556Z</time></trkpt><trkpt lat="43.7089679" lon="12.3900463"><ele>510.0</ele><time>2026-04-25T12:52:16.016Z</time></trkpt><trkpt lat="43.7090303" lon="12.3901572"><ele>510.0</ele><time>2026-04-25T12:52:18.246Z</time></trkpt><trkpt lat="43.7091033" lon="12.3902724"><ele>510.0</ele><time>2026-04-25T12:52:20.442Z</time></trkpt><trkpt lat="43.7091651" lon="12.3903902"><ele>510.0</ele><time>2026-04-25T12:52:22.472Z</time></trkpt><trkpt lat="43.709228" lon="12.3905263"><ele>510.0</ele><time>2026-04-25T12:52:24.412Z</time></trkpt><trkpt lat="43.7092544" lon="12.3906184"><ele>510.0</ele><time>2026-04-25T12:52:25.442Z</time></trkpt><trkpt lat="43.7092786" lon="12.3907082"><ele>510.0</ele><time>2026-04-25T12:52:26.432Z</time></trkpt><trkpt lat="43.7093006" lon="12.3908049"><ele>510.0</ele><time>2026-04-25T12:52:27.488Z</time></trkpt><trkpt lat="43.709323" lon="12.3908984"><ele>510.0</ele><time>2026-04-25T12:52:28.465Z</time></trkpt><trkpt lat="43.7093495" lon="12.3910047"><ele>510.0</ele><time>2026-04-25T12:52:29.474Z</time></trkpt><trkpt lat="43.7093637" lon="12.391105"><ele>510.0</ele><time>2026-04-25T12:52:30.446Z</time></trkpt><trkpt lat="43.7093767" lon="12.3912139"><ele>510.0</ele><time>2026-04-25T12:52:31.449Z</time></trkpt><trkpt lat="43.7093866" lon="12.3913312"><ele>510.0</ele><time>2026-04-25T12:52:32.425Z</time></trkpt><trkpt lat="43.7093921" lon="12.3914495"><ele>510.0</ele><time>2026-04-25T12:52:33.498Z</time></trkpt><trkpt lat="43.7093917" lon="12.3915629"><ele>510.0</ele><time>2026-04-25T12:52:34.467Z</time></trkpt><trkpt lat="43.7093853" lon="12.3916655"><ele>510.0</ele><time>2026-04-25T12:52:35.461Z</time></trkpt><trkpt lat="43.7093751" lon="12.3917692"><ele>510.0</ele><time>2026-04-25T12:52:36.566Z</time></trkpt><trkpt lat="43.7093441" lon="12.391926"><ele>510.0</ele><time>2026-04-25T12:52:38.478Z</time></trkpt><trkpt lat="43.70929" lon="12.3920496"><ele>510.0</ele><time>2026-04-25T12:52:40.493Z</time></trkpt><trkpt lat="43.7092148" lon="12.3921339"><ele>510.0</ele><time>2026-04-25T12:52:42.513Z</time></trkpt><trkpt lat="43.709139" lon="12.3922149"><ele>508.6</ele><time>2026-04-25T12:52:44.507Z</time></trkpt><trkpt lat="43.7090921" lon="12.3922743"><ele>507.2</ele><time>2026-04-25T12:52:46.451Z</time></trkpt><trkpt lat="43.7090108" lon="12.3923109"><ele>505.79999999999995</ele><time>2026-04-25T12:52:50.645Z</time></trkpt><trkpt lat="43.7089006" lon="12.3923301"><ele>504.4</ele><time>2026-04-25T12:52:53.495Z</time></trkpt><trkpt lat="43.7087875" lon="12.3923803"><ele>503.0</ele><time>2026-04-25T12:52:55.63Z</time></trkpt><trkpt lat="43.708708" lon="12.3924211"><ele>502.99999999999994</ele><time>2026-04-25T12:52:57.457Z</time></trkpt><trkpt lat="43.7086316" lon="12.3924736"><ele>503.0</ele><time>2026-04-25T12:52:59.427Z</time></trkpt><trkpt lat="43.7085664" lon="12.3925162"><ele>503.0</ele><time>2026-04-25T12:53:01.485Z</time></trkpt><trkpt lat="43.7085143" lon="12.3925717"><ele>503.0</ele><time>2026-04-25T12:53:05.568Z</time></trkpt><trkpt lat="43.7086077" lon="12.3925083"><ele>502.99999999999994</ele><time>2026-04-25T12:53:10.454Z</time></trkpt><trkpt lat="43.7086729" lon="12.3924558"><ele>503.0</ele><time>2026-04-25T12:53:11.579Z</time></trkpt><trkpt lat="43.708826" lon="12.3923539"><ele>502.99999999999994</ele><time>2026-04-25T12:53:13.493Z</time></trkpt><trkpt lat="43.7089062" lon="12.3923177"><ele>503.0</ele><time>2026-04-25T12:53:14.512Z</time></trkpt><trkpt lat="43.7089987" lon="12.3922762"><ele>503.0</ele><time>2026-04-25T12:53:15.495Z</time></trkpt><trkpt lat="43.709077" lon="12.3922358"><ele>503.0</ele><time>2026-04-25T12:53:16.421Z</time></trkpt><trkpt lat="43.7091524" lon="12.3921896"><ele>502.99999999999994</ele><time>2026-04-25T12:53:17.455Z</time></trkpt><trkpt lat="43.7092189" lon="12.3921285"><ele>503.0</ele><time>2026-04-25T12:53:18.486Z</time></trkpt><trkpt lat="43.7092791" lon="12.3920498"><ele>504.4</ele><time>2026-04-25T12:53:19.47Z</time></trkpt><trkpt lat="43.7093285" lon="12.391953"><ele>505.79999999999995</ele><time>2026-04-25T12:53:20.504Z</time></trkpt><trkpt lat="43.7093634" lon="12.3918447"><ele>507.2</ele><time>2026-04-25T12:53:21.445Z</time></trkpt><trkpt lat="43.7093869" lon="12.3917062"><ele>508.6</ele><time>2026-04-25T12:53:22.473Z</time></trkpt><trkpt lat="43.7093941" lon="12.391565"><ele>510.0</ele><time>2026-04-25T12:53:23.486Z</time></trkpt><trkpt lat="43.7093915" lon="12.3914298"><ele>510.0</ele><time>2026-04-25T12:53:24.461Z</time></trkpt><trkpt lat="43.7093769" lon="12.3913094"><ele>510.0</ele><time>2026-04-25T12:53:25.451Z</time></trkpt><trkpt lat="43.7093679" lon="12.3912081"><ele>510.0</ele><time>2026-04-25T12:53:26.442Z</time></trkpt><trkpt lat="43.7093415" lon="12.3910866"><ele>510.0</ele><time>2026-04-25T12:53:27.518Z</time></trkpt><trkpt lat="43.709324" lon="12.3909891"><ele>510.0</ele><time>2026-04-25T12:53:28.438Z</time></trkpt><trkpt lat="43.7093026" lon="12.3909008"><ele>510.0</ele><time>2026-04-25T12:53:29.466Z</time></trkpt><trkpt lat="43.7092715" lon="12.3907536"><ele>510.0</ele><time>2026-04-25T12:53:31.479Z</time></trkpt><trkpt lat="43.7092447" lon="12.3906546"><ele>510.0</ele><time>2026-04-25T12:53:33.451Z</time></trkpt><trkpt lat="43.7092421" lon="12.3905672"><ele>510.0</ele><time>2026-04-25T12:53:37.46Z</time></trkpt><trkpt lat="43.7093149" lon="12.390618"><ele>510.0</ele><time>2026-04-25T12:53:55.467Z</time></trkpt><trkpt lat="43.7093857" lon="12.3907194"><ele>510.0</ele><time>2026-04-25T12:53:57.455Z</time></trkpt><trkpt lat="43.7094831" lon="12.390853"><ele>510.6</ele><time>2026-04-25T12:53:59.506Z</time></trkpt><trkpt lat="43.7095271" lon="12.3909168"><ele>511.2</ele><time>2026-04-25T12:54:00.461Z</time></trkpt><trkpt lat="43.7096158" lon="12.3910505"><ele>511.79999999999995</ele><time>2026-04-25T12:54:02.465Z</time></trkpt><trkpt lat="43.7096563" lon="12.391126"><ele>512.4</ele><time>2026-04-25T12:54:03.474Z</time></trkpt><trkpt lat="43.7096952" lon="12.3912082"><ele>513.0</ele><time>2026-04-25T12:54:04.528Z</time></trkpt><trkpt lat="43.7097644" lon="12.3913708"><ele>515.0</ele><time>2026-04-25T12:54:06.62Z</time></trkpt><trkpt lat="43.7098345" lon="12.3915051"><ele>517.0</ele><time>2026-04-25T12:54:08.476Z</time></trkpt><trkpt lat="43.7098738" lon="12.3915773"><ele>519.0</ele><time>2026-04-25T12:54:09.479Z</time></trkpt><trkpt lat="43.7099442" lon="12.3917173"><ele>521.0</ele><time>2026-04-25T12:54:11.478Z</time></trkpt><trkpt lat="43.7099794" lon="12.3917897"><ele>523.0</ele><time>2026-04-25T12:54:12.463Z</time></trkpt><trkpt lat="43.7100441" lon="12.3919268"><ele>523.0</ele><time>2026-04-25T12:54:14.473Z</time></trkpt><trkpt lat="43.7100955" lon="12.3920564"><ele>523.0</ele><time>2026-04-25T12:54:16.46Z</time></trkpt><trkpt lat="43.7101469" lon="12.3922092"><ele>523.0</ele><time>2026-04-25T12:54:18.483Z</time></trkpt><trkpt lat="43.7101762" lon="12.3923646"><ele>523.0</ele><time>2026-04-25T12:54:20.494Z</time></trkpt><trkpt lat="43.7101913" lon="12.3924564"><ele>523.0</ele><time>2026-04-25T12:54:21.535Z</time></trkpt><trkpt lat="43.7102192" lon="12.3925678"><ele>523.4</ele><time>2026-04-25T12:54:22.654Z</time></trkpt><trkpt lat="43.7102648" lon="12.3927104"><ele>523.8</ele><time>2026-04-25T12:54:24.616Z</time></trkpt><trkpt lat="43.7102947" lon="12.3928355"><ele>524.2</ele><time>2026-04-25T12:54:26.35Z</time></trkpt><trkpt lat="43.710356" lon="12.3929484"><ele>524.6</ele><time>2026-04-25T12:54:27.35Z</time></trkpt><trkpt lat="43.7104017" lon="12.3930126"><ele>525.0</ele><time>2026-04-25T12:54:28.33Z</time></trkpt><trkpt lat="43.7104399" lon="12.3931804"><ele>525.0</ele><time>2026-04-25T12:54:30.394Z</time></trkpt><trkpt lat="43.7104971" lon="12.3932685"><ele>525.0</ele><time>2026-04-25T12:54:32.386Z</time></trkpt><trkpt lat="43.7105414" lon="12.3933381"><ele>525.0</ele><time>2026-04-25T12:54:34.507Z</time></trkpt><trkpt lat="43.7106349" lon="12.3934385"><ele>525.0</ele><time>2026-04-25T12:54:36.441Z</time></trkpt><trkpt lat="43.7107182" lon="12.3935588"><ele>525.0</ele><time>2026-04-25T12:54:38.449Z</time></trkpt><trkpt lat="43.7107944" lon="12.3936745"><ele>525.0</ele><time>2026-04-25T12:54:40.427Z</time></trkpt><trkpt lat="43.7108778" lon="12.3938016"><ele>525.0</ele><time>2026-04-25T12:54:42.438Z</time></trkpt><trkpt lat="43.7109407" lon="12.3939038"><ele>525.0</ele><time>2026-04-25T12:54:44.57Z</time></trkpt><trkpt lat="43.7110044" lon="12.393982"><ele>525.0</ele><time>2026-04-25T12:54:46.464Z</time></trkpt><trkpt lat="43.7110828" lon="12.3940916"><ele>525.0</ele><time>2026-04-25T12:54:48.423Z</time></trkpt><trkpt lat="43.7111667" lon="12.3942105"><ele>523.75</ele><time>2026-04-25T12:54:50.444Z</time></trkpt><trkpt lat="43.7112391" lon="12.3943317"><ele>522.5</ele><time>2026-04-25T12:54:52.584Z</time></trkpt><trkpt lat="43.7112775" lon="12.3944512"><ele>521.25</ele><time>2026-04-25T12:54:54.498Z</time></trkpt><trkpt lat="43.7113341" lon="12.3946148"><ele>520.0</ele><time>2026-04-25T12:54:56.468Z</time></trkpt><trkpt lat="43.7113819" lon="12.3947547"><ele>519.6666666666667</ele><time>2026-04-25T12:54:58.447Z</time></trkpt><trkpt lat="43.7114293" lon="12.3948867"><ele>519.3333333333334</ele><time>2026-04-25T12:55:00.396Z</time></trkpt><trkpt lat="43.7114491" lon="12.3949735"><ele>519.0</ele><time>2026-04-25T12:55:01.43Z</time></trkpt><trkpt lat="43.7114637" lon="12.3950645"><ele>518.6666666666666</ele><time>2026-04-25T12:55:02.404Z</time></trkpt><trkpt lat="43.7114769" lon="12.3951617"><ele>518.3333333333333</ele><time>2026-04-25T12:55:03.449Z</time></trkpt><trkpt lat="43.7114909" lon="12.3953376"><ele>518.0</ele><time>2026-04-25T12:55:05.474Z</time></trkpt><trkpt lat="43.7115067" lon="12.395499"><ele>517.8</ele><time>2026-04-25T12:55:07.413Z</time></trkpt><trkpt lat="43.7115386" lon="12.3956504"><ele>517.5999999999999</ele><time>2026-04-25T12:55:09.531Z</time></trkpt><trkpt lat="43.711548" lon="12.3957743"><ele>517.4000000000001</ele><time>2026-04-25T12:55:11.421Z</time></trkpt><trkpt lat="43.7115369" lon="12.395883"><ele>517.2</ele><time>2026-04-25T12:55:13.407Z</time></trkpt><trkpt lat="43.7115193" lon="12.3960071"><ele>517.0</ele><time>2026-04-25T12:55:15.48Z</time></trkpt><trkpt lat="43.7114701" lon="12.3961372"><ele>517.0</ele><time>2026-04-25T12:55:17.407Z</time></trkpt><trkpt lat="43.7114259" lon="12.3962376"><ele>517.0</ele><time>2026-04-25T12:55:19.459Z</time></trkpt><trkpt lat="43.7113628" lon="12.3963382"><ele>517.0</ele><time>2026-04-25T12:55:21.456Z</time></trkpt><trkpt lat="43.7113053" lon="12.3964447"><ele>517.0</ele><time>2026-04-25T12:55:23.495Z</time></trkpt><trkpt lat="43.711261" lon="12.3965892"><ele>517.0</ele><time>2026-04-25T12:55:25.432Z</time></trkpt><trkpt lat="43.7112231" lon="12.3967457"><ele>517.1666666666667</ele><time>2026-04-25T12:55:27.463Z</time></trkpt><trkpt lat="43.7112129" lon="12.3968665"><ele>517.3333333333334</ele><time>2026-04-25T12:55:29.456Z</time></trkpt><trkpt lat="43.7112212" lon="12.3969802"><ele>517.5</ele><time>2026-04-25T12:55:31.45Z</time></trkpt><trkpt lat="43.7112257" lon="12.3971139"><ele>517.6666666666666</ele><time>2026-04-25T12:55:33.519Z</time></trkpt><trkpt lat="43.7112191" lon="12.3972315"><ele>517.8333333333333</ele><time>2026-04-25T12:55:35.423Z</time></trkpt><trkpt lat="43.7112012" lon="12.3973307"><ele>518.0</ele><time>2026-04-25T12:55:37.454Z</time></trkpt><trkpt lat="43.7111825" lon="12.3974202"><ele>516.7142857142857</ele><time>2026-04-25T12:55:39.482Z</time></trkpt><trkpt lat="43.7111379" lon="12.3975255"><ele>515.4285714285714</ele><time>2026-04-25T12:55:41.458Z</time></trkpt><trkpt lat="43.7110912" lon="12.3975964"><ele>514.1428571428571</ele><time>2026-04-25T12:55:43.425Z</time></trkpt><trkpt lat="43.7110698" lon="12.3976835"><ele>512.8571428571429</ele><time>2026-04-25T12:55:45.426Z</time></trkpt><trkpt lat="43.7111005" lon="12.3977641"><ele>511.57142857142856</ele><time>2026-04-25T12:55:48.513Z</time></trkpt><trkpt lat="43.7111406" lon="12.3978479"><ele>510.2857142857142</ele><time>2026-04-25T12:56:01.474Z</time></trkpt><trkpt lat="43.7111837" lon="12.3979282"><ele>508.99999999999994</ele><time>2026-04-25T12:56:03.422Z</time></trkpt><trkpt lat="43.7112643" lon="12.3978982"><ele>508.99999999999994</ele><time>2026-04-25T12:56:06.397Z</time></trkpt><trkpt lat="43.7113295" lon="12.3979097"><ele>509.0</ele><time>2026-04-25T12:56:11.407Z</time></trkpt><trkpt lat="43.7114146" lon="12.3978855"><ele>509.0</ele><time>2026-04-25T12:57:41.415Z</time></trkpt><trkpt lat="43.7114827" lon="12.397905"><ele>509.0</ele><time>2026-04-25T12:57:43.459Z</time></trkpt><trkpt lat="43.711558" lon="12.3979438"><ele>508.99999999999994</ele><time>2026-04-25T12:57:45.451Z</time></trkpt><trkpt lat="43.7116473" lon="12.3980013"><ele>509.0</ele><time>2026-04-25T12:57:47.443Z</time></trkpt><trkpt lat="43.7117183" lon="12.3980583"><ele>504.99999999999994</ele><time>2026-04-25T12:57:49.456Z</time></trkpt><trkpt lat="43.711781" lon="12.3980952"><ele>501.0</ele><time>2026-04-25T12:57:51.559Z</time></trkpt><trkpt lat="43.7118664" lon="12.398196"><ele>497.0</ele><time>2026-04-25T12:57:54.49Z</time></trkpt><trkpt lat="43.7119104" lon="12.3982933"><ele>493.0</ele><time>2026-04-25T12:57:56.395Z</time></trkpt><trkpt lat="43.7119661" lon="12.3983775"><ele>488.99999999999994</ele><time>2026-04-25T12:57:58.407Z</time></trkpt><trkpt lat="43.7120346" lon="12.3984603"><ele>485.0</ele><time>2026-04-25T12:58:00.4Z</time></trkpt><trkpt lat="43.712095" lon="12.3985433"><ele>484.0</ele><time>2026-04-25T12:58:02.405Z</time></trkpt><trkpt lat="43.7121613" lon="12.3985903"><ele>483.0</ele><time>2026-04-25T12:58:04.395Z</time></trkpt><trkpt lat="43.7122592" lon="12.3986376"><ele>482.0</ele><time>2026-04-25T12:58:06.487Z</time></trkpt><trkpt lat="43.7123595" lon="12.3986639"><ele>481.0</ele><time>2026-04-25T12:58:08.393Z</time></trkpt><trkpt lat="43.7124668" lon="12.3987311"><ele>480.0</ele><time>2026-04-25T12:58:10.449Z</time></trkpt><trkpt lat="43.7125343" lon="12.398766"><ele>480.0</ele><time>2026-04-25T12:58:11.627Z</time></trkpt><trkpt lat="43.7126096" lon="12.3988259"><ele>480.0</ele><time>2026-04-25T12:58:13.417Z</time></trkpt><trkpt lat="43.7126562" lon="12.398913"><ele>480.0</ele><time>2026-04-25T12:58:15.526Z</time></trkpt><trkpt lat="43.7126894" lon="12.3990309"><ele>480.0</ele><time>2026-04-25T12:58:17.512Z</time></trkpt><trkpt lat="43.7127292" lon="12.3991401"><ele>480.0</ele><time>2026-04-25T12:58:19.493Z</time></trkpt><trkpt lat="43.7127883" lon="12.3992149"><ele>480.0</ele><time>2026-04-25T12:58:21.415Z</time></trkpt><trkpt lat="43.7128795" lon="12.3992858"><ele>473.25</ele><time>2026-04-25T12:58:23.486Z</time></trkpt><trkpt lat="43.7129804" lon="12.3993126"><ele>466.5</ele><time>2026-04-25T12:58:25.435Z</time></trkpt><trkpt lat="43.7131016" lon="12.3992884"><ele>459.75</ele><time>2026-04-25T12:58:27.485Z</time></trkpt><trkpt lat="43.7132287" lon="12.39928"><ele>453.0</ele><time>2026-04-25T12:58:29.464Z</time></trkpt><trkpt lat="43.7133467" lon="12.3993102"><ele>453.0</ele><time>2026-04-25T12:58:31.495Z</time></trkpt><trkpt lat="43.7134296" lon="12.3993639"><ele>452.99999999999994</ele><time>2026-04-25T12:58:33.436Z</time></trkpt><trkpt lat="43.7135162" lon="12.3994305"><ele>452.99999999999994</ele><time>2026-04-25T12:58:36.512Z</time></trkpt><trkpt lat="43.7135938" lon="12.3995015"><ele>453.0</ele><time>2026-04-25T12:58:38.487Z</time></trkpt><trkpt lat="43.7136539" lon="12.3995532"><ele>453.0</ele><time>2026-04-25T12:58:39.472Z</time></trkpt><trkpt lat="43.7137467" lon="12.3996256"><ele>450.5</ele><time>2026-04-25T12:58:41.476Z</time></trkpt><trkpt lat="43.7138183" lon="12.3996782"><ele>448.0</ele><time>2026-04-25T12:58:43.454Z</time></trkpt><trkpt lat="43.7138889" lon="12.3997327"><ele>445.5</ele><time>2026-04-25T12:58:45.506Z</time></trkpt><trkpt lat="43.7139659" lon="12.3997906"><ele>443.0</ele><time>2026-04-25T12:58:47.555Z</time></trkpt><trkpt lat="43.7140305" lon="12.3998726"><ele>440.5</ele><time>2026-04-25T12:58:49.468Z</time></trkpt><trkpt lat="43.7140788" lon="12.3999467"><ele>438.0</ele><time>2026-04-25T12:58:50.548Z</time></trkpt><trkpt lat="43.7141615" lon="12.4000694"><ele>438.0</ele><time>2026-04-25T12:58:52.463Z</time></trkpt><trkpt lat="43.7142019" lon="12.4001378"><ele>438.0</ele><time>2026-04-25T12:58:53.476Z</time></trkpt><trkpt lat="43.7142418" lon="12.4002146"><ele>438.0</ele><time>2026-04-25T12:58:54.485Z</time></trkpt><trkpt lat="43.7142844" lon="12.4002934"><ele>438.0</ele><time>2026-04-25T12:58:55.543Z</time></trkpt><trkpt lat="43.7143646" lon="12.4004194"><ele>438.0</ele><time>2026-04-25T12:58:57.492Z</time></trkpt><trkpt lat="43.7144177" lon="12.4004802"><ele>438.0</ele><time>2026-04-25T12:58:58.472Z</time></trkpt><trkpt lat="43.7144787" lon="12.4005509"><ele>437.6666666666667</ele><time>2026-04-25T12:58:59.493Z</time></trkpt><trkpt lat="43.7145426" lon="12.4006156"><ele>437.33333333333337</ele><time>2026-04-25T12:59:00.481Z</time></trkpt><trkpt lat="43.714602" lon="12.4006756"><ele>437.0</ele><time>2026-04-25T12:59:01.469Z</time></trkpt><trkpt lat="43.7146671" lon="12.4007469"><ele>436.6666666666667</ele><time>2026-04-25T12:59:02.473Z</time></trkpt><trkpt lat="43.7147387" lon="12.4008241"><ele>436.33333333333337</ele><time>2026-04-25T12:59:03.522Z</time></trkpt><trkpt lat="43.7148077" lon="12.400896"><ele>436.0</ele><time>2026-04-25T12:59:04.531Z</time></trkpt><trkpt lat="43.7148659" lon="12.4009604"><ele>436.00000000000006</ele><time>2026-04-25T12:59:05.458Z</time></trkpt><trkpt lat="43.7149277" lon="12.4010359"><ele>436.0</ele><time>2026-04-25T12:59:06.535Z</time></trkpt><trkpt lat="43.7150158" lon="12.4011303"><ele>436.0</ele><time>2026-04-25T12:59:08.471Z</time></trkpt><trkpt lat="43.7150765" lon="12.4011898"><ele>436.0</ele><time>2026-04-25T12:59:10.481Z</time></trkpt><trkpt lat="43.7150999" lon="12.4012715"><ele>436.00000000000006</ele><time>2026-04-25T12:59:20.484Z</time></trkpt><trkpt lat="43.7151255" lon="12.4013635"><ele>436.0</ele><time>2026-04-25T12:59:22.5Z</time></trkpt><trkpt lat="43.715152" lon="12.4014935"><ele>436.20000000000005</ele><time>2026-04-25T12:59:24.458Z</time></trkpt><trkpt lat="43.7151697" lon="12.4015831"><ele>436.40000000000003</ele><time>2026-04-25T12:59:25.533Z</time></trkpt><trkpt lat="43.7152052" lon="12.4017417"><ele>436.6</ele><time>2026-04-25T12:59:27.437Z</time></trkpt><trkpt lat="43.7152443" lon="12.4018701"><ele>436.8</ele><time>2026-04-25T12:59:29.555Z</time></trkpt><trkpt lat="43.7152973" lon="12.4020319"><ele>437.0</ele><time>2026-04-25T12:59:31.449Z</time></trkpt><trkpt lat="43.7153296" lon="12.4021147"><ele>438.6</ele><time>2026-04-25T12:59:32.451Z</time></trkpt><trkpt lat="43.7153614" lon="12.4021912"><ele>440.20000000000005</ele><time>2026-04-25T12:59:33.588Z</time></trkpt><trkpt lat="43.7154234" lon="12.402256"><ele>441.8</ele><time>2026-04-25T12:59:35.418Z</time></trkpt><trkpt lat="43.7155013" lon="12.4023468"><ele>443.4</ele><time>2026-04-25T12:59:37.491Z</time></trkpt><trkpt lat="43.7155636" lon="12.4024687"><ele>445.0</ele><time>2026-04-25T12:59:39.519Z</time></trkpt><trkpt lat="43.7156256" lon="12.4026298"><ele>445.00000000000006</ele><time>2026-04-25T12:59:41.447Z</time></trkpt><trkpt lat="43.7156622" lon="12.4027328"><ele>445.0</ele><time>2026-04-25T12:59:42.536Z</time></trkpt><trkpt lat="43.7156985" lon="12.4029035"><ele>445.0</ele><time>2026-04-25T12:59:44.461Z</time></trkpt><trkpt lat="43.7157068" lon="12.4030072"><ele>445.0</ele><time>2026-04-25T12:59:45.49Z</time></trkpt><trkpt lat="43.7157123" lon="12.4031131"><ele>445.00000000000006</ele><time>2026-04-25T12:59:46.504Z</time></trkpt><trkpt lat="43.7157139" lon="12.403212"><ele>445.0</ele><time>2026-04-25T12:59:47.436Z</time></trkpt><trkpt lat="43.7157175" lon="12.4033314"><ele>445.6666666666667</ele><time>2026-04-25T12:59:48.513Z</time></trkpt><trkpt lat="43.7157192" lon="12.4034395"><ele>446.33333333333337</ele><time>2026-04-25T12:59:49.51Z</time></trkpt><trkpt lat="43.7157289" lon="12.4035389"><ele>447.0</ele><time>2026-04-25T12:59:50.451Z</time></trkpt><trkpt lat="43.7157411" lon="12.4036563"><ele>447.66666666666663</ele><time>2026-04-25T12:59:51.474Z</time></trkpt><trkpt lat="43.7157447" lon="12.4037748"><ele>448.3333333333333</ele><time>2026-04-25T12:59:52.551Z</time></trkpt><trkpt lat="43.7157557" lon="12.4038714"><ele>449.0</ele><time>2026-04-25T12:59:53.534Z</time></trkpt><trkpt lat="43.7157628" lon="12.4039633"><ele>449.49999999999994</ele><time>2026-04-25T12:59:54.44Z</time></trkpt><trkpt lat="43.715776" lon="12.4040753"><ele>450.0</ele><time>2026-04-25T12:59:55.441Z</time></trkpt><trkpt lat="43.7158108" lon="12.4041891"><ele>450.5</ele><time>2026-04-25T12:59:56.501Z</time></trkpt><trkpt lat="43.7158555" lon="12.4043019"><ele>451.0</ele><time>2026-04-25T12:59:57.478Z</time></trkpt><trkpt lat="43.7159062" lon="12.4044222"><ele>451.49999999999994</ele><time>2026-04-25T12:59:58.545Z</time></trkpt><trkpt lat="43.7159438" lon="12.4045245"><ele>452.0</ele><time>2026-04-25T12:59:59.547Z</time></trkpt><trkpt lat="43.7159753" lon="12.4046201"><ele>451.8</ele><time>2026-04-25T13:00:00.543Z</time></trkpt><trkpt lat="43.7159979" lon="12.4047842"><ele>451.6</ele><time>2026-04-25T13:00:02.539Z</time></trkpt><trkpt lat="43.7160492" lon="12.4049247"><ele>451.40000000000003</ele><time>2026-04-25T13:00:04.59Z</time></trkpt><trkpt lat="43.7161505" lon="12.405026"><ele>451.20000000000005</ele><time>2026-04-25T13:00:06.436Z</time></trkpt><trkpt lat="43.7162225" lon="12.4050814"><ele>451.0</ele><time>2026-04-25T13:00:07.426Z</time></trkpt><trkpt lat="43.716317" lon="12.4051265"><ele>451.00000000000006</ele><time>2026-04-25T13:00:08.458Z</time></trkpt><trkpt lat="43.7164134" lon="12.4051801"><ele>451.0</ele><time>2026-04-25T13:00:09.496Z</time></trkpt><trkpt lat="43.7164886" lon="12.4052491"><ele>451.0</ele><time>2026-04-25T13:00:10.496Z</time></trkpt><trkpt lat="43.7165583" lon="12.4053108"><ele>451.0</ele><time>2026-04-25T13:00:11.508Z</time></trkpt><trkpt lat="43.7166329" lon="12.4053694"><ele>451.00000000000006</ele><time>2026-04-25T13:00:12.484Z</time></trkpt><trkpt lat="43.7167054" lon="12.4054221"><ele>451.0</ele><time>2026-04-25T13:00:13.476Z</time></trkpt><trkpt lat="43.7167827" lon="12.4054919"><ele>448.0</ele><time>2026-04-25T13:00:14.659Z</time></trkpt><trkpt lat="43.7169105" lon="12.4055794"><ele>445.0</ele><time>2026-04-25T13:00:16.47Z</time></trkpt><trkpt lat="43.7169989" lon="12.4056178"><ele>442.0</ele><time>2026-04-25T13:00:17.651Z</time></trkpt><trkpt lat="43.7170802" lon="12.4056457"><ele>439.0</ele><time>2026-04-25T13:00:18.609Z</time></trkpt><trkpt lat="43.7172328" lon="12.4056996"><ele>439.0</ele><time>2026-04-25T13:00:20.488Z</time></trkpt><trkpt lat="43.7172969" lon="12.4057612"><ele>439.0</ele><time>2026-04-25T13:00:21.479Z</time></trkpt><trkpt lat="43.7173673" lon="12.4058302"><ele>439.0</ele><time>2026-04-25T13:00:22.443Z</time></trkpt><trkpt lat="43.7174517" lon="12.4059099"><ele>439.0</ele><time>2026-04-25T13:00:23.491Z</time></trkpt><trkpt lat="43.7175177" lon="12.4059994"><ele>439.0</ele><time>2026-04-25T13:00:24.477Z</time></trkpt><trkpt lat="43.7175763" lon="12.406097"><ele>439.0</ele><time>2026-04-25T13:00:25.485Z</time></trkpt><trkpt lat="43.7176455" lon="12.4062206"><ele>439.0</ele><time>2026-04-25T13:00:26.542Z</time></trkpt><trkpt lat="43.7177131" lon="12.406332"><ele>439.0</ele><time>2026-04-25T13:00:27.622Z</time></trkpt><trkpt lat="43.7178294" lon="12.4065058"><ele>439.0</ele><time>2026-04-25T13:00:29.555Z</time></trkpt><trkpt lat="43.7178715" lon="12.4065776"><ele>437.1666666666667</ele><time>2026-04-25T13:00:30.487Z</time></trkpt><trkpt lat="43.7179147" lon="12.4066474"><ele>435.33333333333337</ele><time>2026-04-25T13:00:31.494Z</time></trkpt><trkpt lat="43.7179586" lon="12.406712"><ele>433.5</ele><time>2026-04-25T13:00:32.504Z</time></trkpt><trkpt lat="43.7180422" lon="12.4068242"><ele>431.66666666666663</ele><time>2026-04-25T13:00:34.565Z</time></trkpt><trkpt lat="43.7180864" lon="12.4069771"><ele>429.8333333333333</ele><time>2026-04-25T13:00:36.467Z</time></trkpt><trkpt lat="43.7180928" lon="12.4070771"><ele>428.0</ele><time>2026-04-25T13:00:37.463Z</time></trkpt><trkpt lat="43.7180963" lon="12.4071861"><ele>427.99999999999994</ele><time>2026-04-25T13:00:38.452Z</time></trkpt><trkpt lat="43.7180987" lon="12.4073011"><ele>428.0</ele><time>2026-04-25T13:00:39.493Z</time></trkpt><trkpt lat="43.7181036" lon="12.4073939"><ele>428.0</ele><time>2026-04-25T13:00:40.601Z</time></trkpt><trkpt lat="43.7181045" lon="12.407524"><ele>428.0</ele><time>2026-04-25T13:00:42.569Z</time></trkpt><trkpt lat="43.7180812" lon="12.4076511"><ele>427.99999999999994</ele><time>2026-04-25T13:00:44.503Z</time></trkpt><trkpt lat="43.7180787" lon="12.4077876"><ele>428.0</ele><time>2026-04-25T13:00:46.495Z</time></trkpt><trkpt lat="43.7181061" lon="12.4079159"><ele>427.2</ele><time>2026-04-25T13:00:48.5Z</time></trkpt><trkpt lat="43.7181321" lon="12.4080271"><ele>426.4</ele><time>2026-04-25T13:00:50.455Z</time></trkpt><trkpt lat="43.7181894" lon="12.4082009"><ele>425.59999999999997</ele><time>2026-04-25T13:00:53.452Z</time></trkpt><trkpt lat="43.7182152" lon="12.4082836"><ele>424.79999999999995</ele><time>2026-04-25T13:00:59.415Z</time></trkpt><trkpt lat="43.718262" lon="12.4083833"><ele>424.0</ele><time>2026-04-25T13:01:01.478Z</time></trkpt><trkpt lat="43.7183264" lon="12.408531"><ele>424.0</ele><time>2026-04-25T13:01:03.402Z</time></trkpt><trkpt lat="43.7183577" lon="12.4086079"><ele>424.0</ele><time>2026-04-25T13:01:04.425Z</time></trkpt><trkpt lat="43.7183919" lon="12.4086822"><ele>424.0</ele><time>2026-04-25T13:01:05.513Z</time></trkpt><trkpt lat="43.7184571" lon="12.4088455"><ele>424.0</ele><time>2026-04-25T13:01:07.489Z</time></trkpt><trkpt lat="43.7185256" lon="12.4089782"><ele>424.0</ele><time>2026-04-25T13:01:09.464Z</time></trkpt><trkpt lat="43.7185993" lon="12.4091115"><ele>421.6</ele><time>2026-04-25T13:01:11.466Z</time></trkpt><trkpt lat="43.7186659" lon="12.4092358"><ele>419.2</ele><time>2026-04-25T13:01:13.526Z</time></trkpt><trkpt lat="43.7187237" lon="12.4093543"><ele>416.8</ele><time>2026-04-25T13:01:15.472Z</time></trkpt><trkpt lat="43.7187945" lon="12.4094784"><ele>414.40000000000003</ele><time>2026-04-25T13:01:17.429Z</time></trkpt><trkpt lat="43.7188401" lon="12.4095498"><ele>412.0</ele><time>2026-04-25T13:01:18.528Z</time></trkpt><trkpt lat="43.718928" lon="12.4096687"><ele>407.8</ele><time>2026-04-25T13:01:20.373Z</time></trkpt><trkpt lat="43.71898" lon="12.4097322"><ele>403.6</ele><time>2026-04-25T13:01:21.418Z</time></trkpt><trkpt lat="43.7190713" lon="12.4098343"><ele>399.40000000000003</ele><time>2026-04-25T13:01:23.424Z</time></trkpt><trkpt lat="43.7191419" lon="12.4099424"><ele>395.20000000000005</ele><time>2026-04-25T13:01:25.412Z</time></trkpt><trkpt lat="43.7192447" lon="12.4100446"><ele>391.0</ele><time>2026-04-25T13:01:27.429Z</time></trkpt><trkpt lat="43.7193601" lon="12.4101384"><ele>389.8</ele><time>2026-04-25T13:01:29.473Z</time></trkpt><trkpt lat="43.7194208" lon="12.4101716"><ele>388.6</ele><time>2026-04-25T13:01:30.455Z</time></trkpt><trkpt lat="43.7194813" lon="12.4101978"><ele>387.4</ele><time>2026-04-25T13:01:31.439Z</time></trkpt><trkpt lat="43.7195845" lon="12.4102447"><ele>386.2</ele><time>2026-04-25T13:01:33.497Z</time></trkpt><trkpt lat="43.7196891" lon="12.4102531"><ele>385.0</ele><time>2026-04-25T13:01:35.468Z</time></trkpt><trkpt lat="43.7198068" lon="12.4102727"><ele>385.00000000000006</ele><time>2026-04-25T13:01:37.483Z</time></trkpt><trkpt lat="43.7199164" lon="12.4103137"><ele>385.0</ele><time>2026-04-25T13:01:39.428Z</time></trkpt><trkpt lat="43.7199832" lon="12.410344"><ele>385.0</ele><time>2026-04-25T13:01:40.477Z</time></trkpt><trkpt lat="43.7200919" lon="12.4103829"><ele>385.0</ele><time>2026-04-25T13:01:42.533Z</time></trkpt><trkpt lat="43.7201555" lon="12.4104002"><ele>385.00000000000006</ele><time>2026-04-25T13:01:43.455Z</time></trkpt><trkpt lat="43.7202309" lon="12.4104174"><ele>385.0</ele><time>2026-04-25T13:01:44.45Z</time></trkpt><trkpt lat="43.7203462" lon="12.4104493"><ele>383.0</ele><time>2026-04-25T13:01:46.462Z</time></trkpt><trkpt lat="43.7204542" lon="12.4104805"><ele>381.0</ele><time>2026-04-25T13:01:48.457Z</time></trkpt><trkpt lat="43.7205348" lon="12.4105024"><ele>379.0</ele><time>2026-04-25T13:01:49.688Z</time></trkpt><trkpt lat="43.7206533" lon="12.410537"><ele>377.0</ele><time>2026-04-25T13:01:51.516Z</time></trkpt><trkpt lat="43.7207597" lon="12.4105903"><ele>375.0</ele><time>2026-04-25T13:01:53.515Z</time></trkpt><trkpt lat="43.7208198" lon="12.410623"><ele>371.6666666666667</ele><time>2026-04-25T13:01:54.426Z</time></trkpt><trkpt lat="43.7209439" lon="12.4106206"><ele>368.3333333333333</ele><time>2026-04-25T13:01:56.449Z</time></trkpt><trkpt lat="43.7210097" lon="12.4105931"><ele>365.0</ele><time>2026-04-25T13:01:57.645Z</time></trkpt><trkpt lat="43.721091" lon="12.4105437"><ele>361.66666666666663</ele><time>2026-04-25T13:01:59.5Z</time></trkpt><trkpt lat="43.721163" lon="12.4105025"><ele>358.3333333333333</ele><time>2026-04-25T13:02:01.573Z</time></trkpt><trkpt lat="43.721227" lon="12.4104889"><ele>355.0</ele><time>2026-04-25T13:02:03.482Z</time></trkpt><trkpt lat="43.7213183" lon="12.4104744"><ele>354.2</ele><time>2026-04-25T13:02:05.476Z</time></trkpt><trkpt lat="43.7214178" lon="12.4104228"><ele>353.4</ele><time>2026-04-25T13:02:07.473Z</time></trkpt><trkpt lat="43.7215173" lon="12.4103621"><ele>352.6</ele><time>2026-04-25T13:02:09.627Z</time></trkpt><trkpt lat="43.7216118" lon="12.4103696"><ele>351.8</ele><time>2026-04-25T13:02:11.471Z</time></trkpt><trkpt lat="43.7217292" lon="12.4104723"><ele>351.0</ele><time>2026-04-25T13:02:13.412Z</time></trkpt><trkpt lat="43.7217703" lon="12.4105626"><ele>350.8333333333333</ele><time>2026-04-25T13:02:14.444Z</time></trkpt><trkpt lat="43.7218075" lon="12.4106535"><ele>350.6666666666667</ele><time>2026-04-25T13:02:15.519Z</time></trkpt><trkpt lat="43.7218306" lon="12.4107421"><ele>350.5</ele><time>2026-04-25T13:02:16.488Z</time></trkpt><trkpt lat="43.7218466" lon="12.4108301"><ele>350.33333333333337</ele><time>2026-04-25T13:02:17.48Z</time></trkpt><trkpt lat="43.7218599" lon="12.4109968"><ele>350.1666666666667</ele><time>2026-04-25T13:02:19.449Z</time></trkpt><trkpt lat="43.7218048" lon="12.411124"><ele>350.0</ele><time>2026-04-25T13:02:21.469Z</time></trkpt><trkpt lat="43.7217174" lon="12.411193"><ele>350.0</ele><time>2026-04-25T13:02:23.454Z</time></trkpt><trkpt lat="43.7215919" lon="12.4112505"><ele>350.0</ele><time>2026-04-25T13:02:25.459Z</time></trkpt><trkpt lat="43.7215036" lon="12.4113016"><ele>350.0</ele><time>2026-04-25T13:02:26.743Z</time></trkpt><trkpt lat="43.7213835" lon="12.4113657"><ele>350.0</ele><time>2026-04-25T13:02:28.505Z</time></trkpt><trkpt lat="43.721326" lon="12.4114083"><ele>350.0</ele><time>2026-04-25T13:02:29.515Z</time></trkpt><trkpt lat="43.7212205" lon="12.4114648"><ele>347.0</ele><time>2026-04-25T13:02:31.526Z</time></trkpt><trkpt lat="43.7211518" lon="12.4115116"><ele>344.0</ele><time>2026-04-25T13:02:33.495Z</time></trkpt><trkpt lat="43.7211199" lon="12.4116175"><ele>341.0</ele><time>2026-04-25T13:02:49.493Z</time></trkpt><trkpt lat="43.7212259" lon="12.411661"><ele>338.0</ele><time>2026-04-25T13:02:52.428Z</time></trkpt><trkpt lat="43.7213334" lon="12.4116995"><ele>335.0</ele><time>2026-04-25T13:02:54.439Z</time></trkpt><trkpt lat="43.7213987" lon="12.4117248"><ele>332.0</ele><time>2026-04-25T13:02:57.484Z</time></trkpt><trkpt lat="43.7215025" lon="12.4117293"><ele>332.0</ele><time>2026-04-25T13:07:36.519Z</time></trkpt><trkpt lat="43.7215678" lon="12.4117376"><ele>332.0</ele><time>2026-04-25T13:07:37.621Z</time></trkpt><trkpt lat="43.7216307" lon="12.41175"><ele>332.0</ele><time>2026-04-25T13:07:38.544Z</time></trkpt><trkpt lat="43.7217027" lon="12.4117555"><ele>332.0</ele><time>2026-04-25T13:07:39.498Z</time></trkpt><trkpt lat="43.7217925" lon="12.4117718"><ele>332.0</ele><time>2026-04-25T13:07:40.545Z</time></trkpt><trkpt lat="43.7218636" lon="12.4117871"><ele>332.0</ele><time>2026-04-25T13:07:41.459Z</time></trkpt><trkpt lat="43.721942" lon="12.411797"><ele>332.0</ele><time>2026-04-25T13:07:42.496Z</time></trkpt><trkpt lat="43.7220192" lon="12.4118145"><ele>331.1666666666667</ele><time>2026-04-25T13:07:43.434Z</time></trkpt><trkpt lat="43.7220881" lon="12.4118456"><ele>330.33333333333337</ele><time>2026-04-25T13:07:44.474Z</time></trkpt><trkpt lat="43.7221626" lon="12.4118817"><ele>329.5</ele><time>2026-04-25T13:07:45.501Z</time></trkpt><trkpt lat="43.7222556" lon="12.4119302"><ele>328.6666666666667</ele><time>2026-04-25T13:07:46.645Z</time></trkpt><trkpt lat="43.7223365" lon="12.4119813"><ele>327.8333333333333</ele><time>2026-04-25T13:07:47.615Z</time></trkpt><trkpt lat="43.7224107" lon="12.4120341"><ele>327.0</ele><time>2026-04-25T13:07:48.49Z</time></trkpt><trkpt lat="43.7224881" lon="12.4121017"><ele>326.5</ele><time>2026-04-25T13:07:49.478Z</time></trkpt><trkpt lat="43.7225718" lon="12.4121787"><ele>326.0</ele><time>2026-04-25T13:07:50.499Z</time></trkpt><trkpt lat="43.7226673" lon="12.41227"><ele>325.5</ele><time>2026-04-25T13:07:51.578Z</time></trkpt><trkpt lat="43.7227626" lon="12.412355"><ele>325.0</ele><time>2026-04-25T13:07:52.578Z</time></trkpt><trkpt lat="43.7229317" lon="12.4125133"><ele>324.8</ele><time>2026-04-25T13:07:54.494Z</time></trkpt><trkpt lat="43.7230101" lon="12.4125918"><ele>324.6</ele><time>2026-04-25T13:07:55.467Z</time></trkpt><trkpt lat="43.7230903" lon="12.4126744"><ele>324.4</ele><time>2026-04-25T13:07:56.416Z</time></trkpt><trkpt lat="43.723194" lon="12.412773"><ele>324.2</ele><time>2026-04-25T13:07:57.556Z</time></trkpt><trkpt lat="43.7232975" lon="12.4128621"><ele>324.0</ele><time>2026-04-25T13:07:58.57Z</time></trkpt><trkpt lat="43.7233912" lon="12.4129517"><ele>323.5</ele><time>2026-04-25T13:07:59.497Z</time></trkpt><trkpt lat="43.7234916" lon="12.413055"><ele>323.0</ele><time>2026-04-25T13:08:00.482Z</time></trkpt><trkpt lat="43.7235935" lon="12.413155"><ele>322.5</ele><time>2026-04-25T13:08:01.468Z</time></trkpt><trkpt lat="43.7236953" lon="12.4132606"><ele>322.0</ele><time>2026-04-25T13:08:02.434Z</time></trkpt><trkpt lat="43.7238087" lon="12.4133739"><ele>322.0</ele><time>2026-04-25T13:08:03.484Z</time></trkpt><trkpt lat="43.723919" lon="12.4134814"><ele>322.0</ele><time>2026-04-25T13:08:04.541Z</time></trkpt><trkpt lat="43.7240071" lon="12.4135651"><ele>322.0</ele><time>2026-04-25T13:08:05.442Z</time></trkpt><trkpt lat="43.7241022" lon="12.4136526"><ele>322.0</ele><time>2026-04-25T13:08:06.509Z</time></trkpt><trkpt lat="43.7241792" lon="12.4137279"><ele>322.0</ele><time>2026-04-25T13:08:07.474Z</time></trkpt><trkpt lat="43.7242532" lon="12.4138023"><ele>322.0</ele><time>2026-04-25T13:08:08.559Z</time></trkpt><trkpt lat="43.7243175" lon="12.413864"><ele>322.0</ele><time>2026-04-25T13:08:09.524Z</time></trkpt><trkpt lat="43.7243763" lon="12.4139156"><ele>322.0</ele><time>2026-04-25T13:08:10.562Z</time></trkpt><trkpt lat="43.7244584" lon="12.4139929"><ele>322.0</ele><time>2026-04-25T13:08:12.544Z</time></trkpt><trkpt lat="43.7245855" lon="12.4141743"><ele>322.0</ele><time>2026-04-25T13:08:15.551Z</time></trkpt><trkpt lat="43.7246228" lon="12.4142655"><ele>322.0</ele><time>2026-04-25T13:08:16.539Z</time></trkpt><trkpt lat="43.7246573" lon="12.4143748"><ele>322.0</ele><time>2026-04-25T13:08:17.532Z</time></trkpt><trkpt lat="43.7246991" lon="12.4145039"><ele>322.0</ele><time>2026-04-25T13:08:18.597Z</time></trkpt><trkpt lat="43.7247473" lon="12.4146243"><ele>322.0</ele><time>2026-04-25T13:08:19.561Z</time></trkpt><trkpt lat="43.7248038" lon="12.4147556"><ele>321.0</ele><time>2026-04-25T13:08:20.65Z</time></trkpt><trkpt lat="43.7249093" lon="12.4149451"><ele>320.0</ele><time>2026-04-25T13:08:22.551Z</time></trkpt><trkpt lat="43.7249816" lon="12.4150453"><ele>319.0</ele><time>2026-04-25T13:08:23.577Z</time></trkpt><trkpt lat="43.7250595" lon="12.4151299"><ele>318.0</ele><time>2026-04-25T13:08:24.498Z</time></trkpt><trkpt lat="43.7251513" lon="12.4152328"><ele>317.5</ele><time>2026-04-25T13:08:25.502Z</time></trkpt><trkpt lat="43.7252605" lon="12.4153125"><ele>317.0</ele><time>2026-04-25T13:08:26.535Z</time></trkpt><trkpt lat="43.7253863" lon="12.4153785"><ele>316.5</ele><time>2026-04-25T13:08:27.577Z</time></trkpt><trkpt lat="43.7254989" lon="12.4154282"><ele>316.0</ele><time>2026-04-25T13:08:28.545Z</time></trkpt><trkpt lat="43.7257216" lon="12.4155153"><ele>316.0</ele><time>2026-04-25T13:08:30.522Z</time></trkpt><trkpt lat="43.7259252" lon="12.4155211"><ele>316.0</ele><time>2026-04-25T13:08:32.455Z</time></trkpt><trkpt lat="43.7260128" lon="12.415486"><ele>316.0</ele><time>2026-04-25T13:08:33.434Z</time></trkpt><trkpt lat="43.7260798" lon="12.4154013"><ele>316.0</ele><time>2026-04-25T13:08:34.452Z</time></trkpt><trkpt lat="43.7261215" lon="12.4152933"><ele>315.0</ele><time>2026-04-25T13:08:35.413Z</time></trkpt><trkpt lat="43.7261359" lon="12.4151551"><ele>314.0</ele><time>2026-04-25T13:08:36.463Z</time></trkpt><trkpt lat="43.7261191" lon="12.4149986"><ele>313.0</ele><time>2026-04-25T13:08:37.522Z</time></trkpt><trkpt lat="43.7260799" lon="12.4148537"><ele>312.0</ele><time>2026-04-25T13:08:38.423Z</time></trkpt><trkpt lat="43.726039" lon="12.4146521"><ele>312.0</ele><time>2026-04-25T13:08:39.48Z</time></trkpt><trkpt lat="43.7259917" lon="12.4144665"><ele>312.0</ele><time>2026-04-25T13:08:40.456Z</time></trkpt><trkpt lat="43.7259556" lon="12.4142861"><ele>312.0</ele><time>2026-04-25T13:08:41.446Z</time></trkpt><trkpt lat="43.725923" lon="12.414106"><ele>312.0</ele><time>2026-04-25T13:08:42.422Z</time></trkpt><trkpt lat="43.7259043" lon="12.4139071"><ele>312.25</ele><time>2026-04-25T13:08:43.413Z</time></trkpt><trkpt lat="43.7259042" lon="12.4136977"><ele>312.5</ele><time>2026-04-25T13:08:44.438Z</time></trkpt><trkpt lat="43.7259154" lon="12.4134951"><ele>312.75</ele><time>2026-04-25T13:08:45.49Z</time></trkpt><trkpt lat="43.7259472" lon="12.4133293"><ele>313.0</ele><time>2026-04-25T13:08:46.417Z</time></trkpt><trkpt lat="43.7259959" lon="12.4131651"><ele>310.75</ele><time>2026-04-25T13:08:47.403Z</time></trkpt><trkpt lat="43.7260693" lon="12.4130072"><ele>308.5</ele><time>2026-04-25T13:08:48.452Z</time></trkpt><trkpt lat="43.72616" lon="12.4128868"><ele>306.25</ele><time>2026-04-25T13:08:49.396Z</time></trkpt><trkpt lat="43.7262939" lon="12.4127553"><ele>304.0</ele><time>2026-04-25T13:08:50.599Z</time></trkpt><trkpt lat="43.7265171" lon="12.4126302"><ele>304.0</ele><time>2026-04-25T13:08:52.439Z</time></trkpt><trkpt lat="43.726635" lon="12.4126097"><ele>304.0</ele><time>2026-04-25T13:08:53.409Z</time></trkpt><trkpt lat="43.7267559" lon="12.4126111"><ele>304.0</ele><time>2026-04-25T13:08:54.422Z</time></trkpt><trkpt lat="43.7268688" lon="12.4126409"><ele>304.0</ele><time>2026-04-25T13:08:55.453Z</time></trkpt><trkpt lat="43.7269729" lon="12.4126833"><ele>303.0</ele><time>2026-04-25T13:08:56.502Z</time></trkpt><trkpt lat="43.7270636" lon="12.4127418"><ele>302.0</ele><time>2026-04-25T13:08:57.455Z</time></trkpt><trkpt lat="43.7271482" lon="12.4128168"><ele>301.0</ele><time>2026-04-25T13:08:58.449Z</time></trkpt><trkpt lat="43.7272272" lon="12.4129316"><ele>300.0</ele><time>2026-04-25T13:08:59.483Z</time></trkpt><trkpt lat="43.7273003" lon="12.4130912"><ele>300.0</ele><time>2026-04-25T13:09:00.685Z</time></trkpt><trkpt lat="43.7274222" lon="12.4133794"><ele>300.0</ele><time>2026-04-25T13:09:02.55Z</time></trkpt><trkpt lat="43.7275591" lon="12.4137051"><ele>299.3333333333333</ele><time>2026-04-25T13:09:04.486Z</time></trkpt><trkpt lat="43.727634" lon="12.4138892"><ele>298.66666666666663</ele><time>2026-04-25T13:09:05.479Z</time></trkpt><trkpt lat="43.7277156" lon="12.4141036"><ele>298.0</ele><time>2026-04-25T13:09:06.519Z</time></trkpt><trkpt lat="43.7277974" lon="12.4143227"><ele>298.0</ele><time>2026-04-25T13:09:07.489Z</time></trkpt><trkpt lat="43.7278764" lon="12.4145286"><ele>298.0</ele><time>2026-04-25T13:09:08.459Z</time></trkpt><trkpt lat="43.7279647" lon="12.4147586"><ele>298.0</ele><time>2026-04-25T13:09:09.536Z</time></trkpt><trkpt lat="43.7280404" lon="12.414956"><ele>298.0</ele><time>2026-04-25T13:09:10.45Z</time></trkpt><trkpt lat="43.7281238" lon="12.4151845"><ele>298.0</ele><time>2026-04-25T13:09:11.497Z</time></trkpt><trkpt lat="43.7282017" lon="12.415399"><ele>298.0</ele><time>2026-04-25T13:09:12.477Z</time></trkpt><trkpt lat="43.7282893" lon="12.4156339"><ele>299.3333333333333</ele><time>2026-04-25T13:09:13.513Z</time></trkpt><trkpt lat="43.7283644" lon="12.4158379"><ele>300.6666666666667</ele><time>2026-04-25T13:09:14.441Z</time></trkpt><trkpt lat="43.7284473" lon="12.4160443"><ele>302.0</ele><time>2026-04-25T13:09:15.431Z</time></trkpt><trkpt lat="43.7285375" lon="12.4162798"><ele>306.0</ele><time>2026-04-25T13:09:16.455Z</time></trkpt><trkpt lat="43.7286115" lon="12.4165125"><ele>310.0</ele><time>2026-04-25T13:09:17.467Z</time></trkpt><trkpt lat="43.7286676" lon="12.416755"><ele>314.0</ele><time>2026-04-25T13:09:18.485Z</time></trkpt><trkpt lat="43.7287026" lon="12.4170289"><ele>316.6666666666667</ele><time>2026-04-25T13:09:19.551Z</time></trkpt><trkpt lat="43.7287281" lon="12.4172734"><ele>319.3333333333333</ele><time>2026-04-25T13:09:20.503Z</time></trkpt><trkpt lat="43.7287492" lon="12.4175263"><ele>322.0</ele><time>2026-04-25T13:09:21.474Z</time></trkpt><trkpt lat="43.7287661" lon="12.4178211"><ele>323.5</ele><time>2026-04-25T13:09:22.618Z</time></trkpt><trkpt lat="43.7287823" lon="12.4180813"><ele>325.0</ele><time>2026-04-25T13:09:23.605Z</time></trkpt><trkpt lat="43.7288316" lon="12.418623"><ele>321.5</ele><time>2026-04-25T13:09:25.563Z</time></trkpt><trkpt lat="43.728971" lon="12.419182"><ele>318.0</ele><time>2026-04-25T13:09:27.477Z</time></trkpt><trkpt lat="43.7290683" lon="12.4194475"><ele>315.5</ele><time>2026-04-25T13:09:28.432Z</time></trkpt><trkpt lat="43.7291679" lon="12.41973"><ele>313.0</ele><time>2026-04-25T13:09:29.466Z</time></trkpt><trkpt lat="43.7292669" lon="12.4200157"><ele>313.0</ele><time>2026-04-25T13:09:30.553Z</time></trkpt><trkpt lat="43.7293567" lon="12.4202427"><ele>313.0</ele><time>2026-04-25T13:09:31.469Z</time></trkpt><trkpt lat="43.7294419" lon="12.4204642"><ele>313.0</ele><time>2026-04-25T13:09:32.427Z</time></trkpt><trkpt lat="43.7295322" lon="12.4207016"><ele>316.66666666666663</ele><time>2026-04-25T13:09:33.454Z</time></trkpt><trkpt lat="43.7296192" lon="12.4209582"><ele>320.3333333333333</ele><time>2026-04-25T13:09:34.55Z</time></trkpt><trkpt lat="43.7296782" lon="12.4211834"><ele>324.0</ele><time>2026-04-25T13:09:35.476Z</time></trkpt><trkpt lat="43.7297318" lon="12.4214297"><ele>324.0</ele><time>2026-04-25T13:09:36.443Z</time></trkpt><trkpt lat="43.7297834" lon="12.4216984"><ele>324.0</ele><time>2026-04-25T13:09:37.464Z</time></trkpt><trkpt lat="43.7298201" lon="12.4219614"><ele>324.0</ele><time>2026-04-25T13:09:38.462Z</time></trkpt><trkpt lat="43.729852" lon="12.4222106"><ele>321.6666666666667</ele><time>2026-04-25T13:09:39.463Z</time></trkpt><trkpt lat="43.7298838" lon="12.4224546"><ele>319.33333333333337</ele><time>2026-04-25T13:09:40.45Z</time></trkpt><trkpt lat="43.729906" lon="12.4227149"><ele>317.0</ele><time>2026-04-25T13:09:41.549Z</time></trkpt><trkpt lat="43.729922" lon="12.4229604"><ele>316.5</ele><time>2026-04-25T13:09:42.596Z</time></trkpt><trkpt lat="43.7299042" lon="12.4234383"><ele>316.0</ele><time>2026-04-25T13:09:44.522Z</time></trkpt><trkpt lat="43.7298699" lon="12.4236827"><ele>319.3333333333333</ele><time>2026-04-25T13:09:45.508Z</time></trkpt><trkpt lat="43.7298151" lon="12.4239215"><ele>322.6666666666667</ele><time>2026-04-25T13:09:46.514Z</time></trkpt><trkpt lat="43.7297102" lon="12.4241743"><ele>326.0</ele><time>2026-04-25T13:09:47.644Z</time></trkpt><trkpt lat="43.7295263" lon="12.4245239"><ele>328.33333333333337</ele><time>2026-04-25T13:09:49.457Z</time></trkpt><trkpt lat="43.7294256" lon="12.424715"><ele>330.6666666666667</ele><time>2026-04-25T13:09:50.487Z</time></trkpt><trkpt lat="43.729333" lon="12.4248922"><ele>333.0</ele><time>2026-04-25T13:09:51.448Z</time></trkpt><trkpt lat="43.7292167" lon="12.4251059"><ele>326.0</ele><time>2026-04-25T13:09:52.588Z</time></trkpt><trkpt lat="43.7291224" lon="12.4252759"><ele>319.0</ele><time>2026-04-25T13:09:53.49Z</time></trkpt><trkpt lat="43.7290212" lon="12.425463"><ele>312.0</ele><time>2026-04-25T13:09:54.472Z</time></trkpt><trkpt lat="43.7289212" lon="12.4256589"><ele>312.0</ele><time>2026-04-25T13:09:55.464Z</time></trkpt><trkpt lat="43.7288231" lon="12.425866"><ele>312.0</ele><time>2026-04-25T13:09:56.478Z</time></trkpt><trkpt lat="43.7287324" lon="12.4260707"><ele>312.0</ele><time>2026-04-25T13:09:57.475Z</time></trkpt><trkpt lat="43.7286496" lon="12.4262622"><ele>310.6666666666667</ele><time>2026-04-25T13:09:58.466Z</time></trkpt><trkpt lat="43.728573" lon="12.426452"><ele>309.33333333333337</ele><time>2026-04-25T13:09:59.46Z</time></trkpt><trkpt lat="43.7285141" lon="12.426631"><ele>308.0</ele><time>2026-04-25T13:10:00.441Z</time></trkpt><trkpt lat="43.728453" lon="12.4268394"><ele>304.0</ele><time>2026-04-25T13:10:01.598Z</time></trkpt><trkpt lat="43.7283957" lon="12.427181"><ele>300.0</ele><time>2026-04-25T13:10:03.573Z</time></trkpt><trkpt lat="43.728372" lon="12.4273405"><ele>296.0</ele><time>2026-04-25T13:10:04.577Z</time></trkpt><trkpt lat="43.728353" lon="12.4274851"><ele>296.0</ele><time>2026-04-25T13:10:05.503Z</time></trkpt><trkpt lat="43.7283386" lon="12.4276377"><ele>296.0</ele><time>2026-04-25T13:10:06.488Z</time></trkpt><trkpt lat="43.7283284" lon="12.4278127"><ele>296.0</ele><time>2026-04-25T13:10:07.604Z</time></trkpt><trkpt lat="43.7283311" lon="12.4281145"><ele>295.6666666666667</ele><time>2026-04-25T13:10:09.541Z</time></trkpt><trkpt lat="43.7283359" lon="12.428254"><ele>295.3333333333333</ele><time>2026-04-25T13:10:10.52Z</time></trkpt><trkpt lat="43.7283538" lon="12.4285429"><ele>295.0</ele><time>2026-04-25T13:10:12.618Z</time></trkpt><trkpt lat="43.7283672" lon="12.4287872"><ele>294.0</ele><time>2026-04-25T13:10:14.488Z</time></trkpt><trkpt lat="43.7283785" lon="12.4289199"><ele>293.0</ele><time>2026-04-25T13:10:15.493Z</time></trkpt><trkpt lat="43.7283879" lon="12.4290577"><ele>292.0</ele><time>2026-04-25T13:10:16.512Z</time></trkpt><trkpt lat="43.7284017" lon="12.4292168"><ele>291.0</ele><time>2026-04-25T13:10:17.61Z</time></trkpt><trkpt lat="43.7284186" lon="12.4293631"><ele>290.0</ele><time>2026-04-25T13:10:18.516Z</time></trkpt><trkpt lat="43.7284348" lon="12.4295214"><ele>289.0</ele><time>2026-04-25T13:10:19.492Z</time></trkpt><trkpt lat="43.7284483" lon="12.4296827"><ele>288.0</ele><time>2026-04-25T13:10:20.591Z</time></trkpt><trkpt lat="43.7284616" lon="12.4299414"><ele>287.0</ele><time>2026-04-25T13:10:22.499Z</time></trkpt><trkpt lat="43.7284667" lon="12.4300592"><ele>286.0</ele><time>2026-04-25T13:10:23.462Z</time></trkpt><trkpt lat="43.7284713" lon="12.4301746"><ele>286.0</ele><time>2026-04-25T13:10:24.476Z</time></trkpt><trkpt lat="43.7284788" lon="12.4302925"><ele>286.0</ele><time>2026-04-25T13:10:25.604Z</time></trkpt><trkpt lat="43.7284859" lon="12.4303802"><ele>286.0</ele><time>2026-04-25T13:10:26.522Z</time></trkpt><trkpt lat="43.7284965" lon="12.4305323"><ele>286.0</ele><time>2026-04-25T13:10:28.479Z</time></trkpt><trkpt lat="43.7285037" lon="12.4306672"><ele>286.0</ele><time>2026-04-25T13:10:30.578Z</time></trkpt><trkpt lat="43.7285133" lon="12.4308047"><ele>286.5</ele><time>2026-04-25T13:10:32.48Z</time></trkpt><trkpt lat="43.7285182" lon="12.4309526"><ele>287.0</ele><time>2026-04-25T13:10:34.504Z</time></trkpt><trkpt lat="43.7285261" lon="12.4311082"><ele>287.5</ele><time>2026-04-25T13:10:36.511Z</time></trkpt><trkpt lat="43.728536" lon="12.4312704"><ele>288.0</ele><time>2026-04-25T13:10:38.522Z</time></trkpt><trkpt lat="43.7285473" lon="12.4314524"><ele>288.0</ele><time>2026-04-25T13:10:40.729Z</time></trkpt><trkpt lat="43.7285576" lon="12.4315916"><ele>288.0</ele><time>2026-04-25T13:10:42.524Z</time></trkpt><trkpt lat="43.72854" lon="12.4317136"><ele>288.0</ele><time>2026-04-25T13:10:44.506Z</time></trkpt><trkpt lat="43.7285146" lon="12.4317978"><ele>288.0</ele><time>2026-04-25T13:10:45.497Z</time></trkpt><trkpt lat="43.7284653" lon="12.4318742"><ele>288.0</ele><time>2026-04-25T13:10:46.476Z</time></trkpt><trkpt lat="43.7283948" lon="12.4319562"><ele>288.0</ele><time>2026-04-25T13:10:47.488Z</time></trkpt><trkpt lat="43.7283014" lon="12.4320451"><ele>290.25</ele><time>2026-04-25T13:10:48.464Z</time></trkpt><trkpt lat="43.7282036" lon="12.4321484"><ele>292.5</ele><time>2026-04-25T13:10:49.471Z</time></trkpt><trkpt lat="43.7281069" lon="12.4322683"><ele>294.75</ele><time>2026-04-25T13:10:50.483Z</time></trkpt><trkpt lat="43.728011" lon="12.4324111"><ele>297.0</ele><time>2026-04-25T13:10:51.461Z</time></trkpt><trkpt lat="43.7279193" lon="12.4325767"><ele>297.0</ele><time>2026-04-25T13:10:52.487Z</time></trkpt><trkpt lat="43.7278714" lon="12.4327765"><ele>297.0</ele><time>2026-04-25T13:10:53.468Z</time></trkpt><trkpt lat="43.7278254" lon="12.4329987"><ele>297.0</ele><time>2026-04-25T13:10:54.485Z</time></trkpt><trkpt lat="43.7278029" lon="12.4332473"><ele>302.5</ele><time>2026-04-25T13:10:55.549Z</time></trkpt><trkpt lat="43.7277864" lon="12.433488"><ele>308.0</ele><time>2026-04-25T13:10:56.594Z</time></trkpt><trkpt lat="43.7277415" lon="12.4338906"><ele>304.5</ele><time>2026-04-25T13:10:58.503Z</time></trkpt><trkpt lat="43.7277096" lon="12.4340747"><ele>301.0</ele><time>2026-04-25T13:10:59.458Z</time></trkpt><trkpt lat="43.727665" lon="12.4342753"><ele>297.5</ele><time>2026-04-25T13:11:00.473Z</time></trkpt><trkpt lat="43.7276097" lon="12.4344499"><ele>294.0</ele><time>2026-04-25T13:11:01.466Z</time></trkpt><trkpt lat="43.7275309" lon="12.4346006"><ele>296.25</ele><time>2026-04-25T13:11:02.442Z</time></trkpt><trkpt lat="43.7274336" lon="12.4347543"><ele>298.5</ele><time>2026-04-25T13:11:03.482Z</time></trkpt><trkpt lat="43.7273248" lon="12.4348728"><ele>300.75</ele><time>2026-04-25T13:11:04.475Z</time></trkpt><trkpt lat="43.7272065" lon="12.4349828"><ele>303.0</ele><time>2026-04-25T13:11:05.486Z</time></trkpt><trkpt lat="43.7270944" lon="12.4350836"><ele>303.0</ele><time>2026-04-25T13:11:06.436Z</time></trkpt><trkpt lat="43.7269785" lon="12.4351793"><ele>303.0</ele><time>2026-04-25T13:11:07.405Z</time></trkpt><trkpt lat="43.7268532" lon="12.435278"><ele>303.0</ele><time>2026-04-25T13:11:08.478Z</time></trkpt><trkpt lat="43.7267435" lon="12.4353623"><ele>303.0</ele><time>2026-04-25T13:11:09.463Z</time></trkpt><trkpt lat="43.7266301" lon="12.4354659"><ele>300.6666666666667</ele><time>2026-04-25T13:11:10.524Z</time></trkpt><trkpt lat="43.7265386" lon="12.4355723"><ele>298.33333333333337</ele><time>2026-04-25T13:11:11.479Z</time></trkpt><trkpt lat="43.7264428" lon="12.4357013"><ele>296.0</ele><time>2026-04-25T13:11:12.697Z</time></trkpt><trkpt lat="43.7263209" lon="12.4359809"><ele>296.0</ele><time>2026-04-25T13:11:14.511Z</time></trkpt><trkpt lat="43.7262725" lon="12.4361395"><ele>296.0</ele><time>2026-04-25T13:11:15.5Z</time></trkpt><trkpt lat="43.726236" lon="12.4363131"><ele>296.0</ele><time>2026-04-25T13:11:16.522Z</time></trkpt><trkpt lat="43.7262031" lon="12.436498"><ele>296.0</ele><time>2026-04-25T13:11:17.54Z</time></trkpt><trkpt lat="43.7261975" lon="12.4366721"><ele>296.25</ele><time>2026-04-25T13:11:18.554Z</time></trkpt><trkpt lat="43.7262057" lon="12.4368265"><ele>296.5</ele><time>2026-04-25T13:11:19.556Z</time></trkpt><trkpt lat="43.7262182" lon="12.436956"><ele>296.75</ele><time>2026-04-25T13:11:20.483Z</time></trkpt><trkpt lat="43.7262358" lon="12.4371138"><ele>297.0</ele><time>2026-04-25T13:11:21.61Z</time></trkpt><trkpt lat="43.7262491" lon="12.4374275"><ele>297.0</ele><time>2026-04-25T13:11:23.488Z</time></trkpt><trkpt lat="43.7262555" lon="12.4376368"><ele>297.0</ele><time>2026-04-25T13:11:24.468Z</time></trkpt><trkpt lat="43.7262545" lon="12.4378592"><ele>297.0</ele><time>2026-04-25T13:11:25.456Z</time></trkpt><trkpt lat="43.7262571" lon="12.4381019"><ele>294.0</ele><time>2026-04-25T13:11:26.506Z</time></trkpt><trkpt lat="43.7262582" lon="12.4383739"><ele>291.0</ele><time>2026-04-25T13:11:27.666Z</time></trkpt><trkpt lat="43.7262722" lon="12.4387978"><ele>290.3333333333333</ele><time>2026-04-25T13:11:29.487Z</time></trkpt><trkpt lat="43.7262747" lon="12.4390342"><ele>289.66666666666663</ele><time>2026-04-25T13:11:30.466Z</time></trkpt><trkpt lat="43.726286" lon="12.4392679"><ele>289.0</ele><time>2026-04-25T13:11:31.441Z</time></trkpt><trkpt lat="43.7262911" lon="12.4395157"><ele>287.3333333333333</ele><time>2026-04-25T13:11:32.477Z</time></trkpt><trkpt lat="43.7263004" lon="12.439742"><ele>285.6666666666667</ele><time>2026-04-25T13:11:33.491Z</time></trkpt><trkpt lat="43.726308" lon="12.4399621"><ele>284.0</ele><time>2026-04-25T13:11:34.597Z</time></trkpt><trkpt lat="43.7263229" lon="12.4401681"><ele>284.0</ele><time>2026-04-25T13:11:35.56Z</time></trkpt><trkpt lat="43.7263581" lon="12.4403551"><ele>284.0</ele><time>2026-04-25T13:11:36.525Z</time></trkpt><trkpt lat="43.7264094" lon="12.4405407"><ele>284.0</ele><time>2026-04-25T13:11:37.486Z</time></trkpt><trkpt lat="43.7264661" lon="12.4407352"><ele>284.0</ele><time>2026-04-25T13:11:38.487Z</time></trkpt><trkpt lat="43.7265236" lon="12.4409326"><ele>283.25</ele><time>2026-04-25T13:11:39.478Z</time></trkpt><trkpt lat="43.7265828" lon="12.4411226"><ele>282.5</ele><time>2026-04-25T13:11:40.505Z</time></trkpt><trkpt lat="43.7266389" lon="12.4412865"><ele>281.75</ele><time>2026-04-25T13:11:41.521Z</time></trkpt><trkpt lat="43.7266958" lon="12.44145"><ele>281.0</ele><time>2026-04-25T13:11:42.516Z</time></trkpt><trkpt lat="43.726741" lon="12.4416003"><ele>280.2</ele><time>2026-04-25T13:11:43.501Z</time></trkpt><trkpt lat="43.7267782" lon="12.4417361"><ele>279.40000000000003</ele><time>2026-04-25T13:11:44.484Z</time></trkpt><trkpt lat="43.726837" lon="12.4418765"><ele>278.6</ele><time>2026-04-25T13:11:45.605Z</time></trkpt><trkpt lat="43.7268757" lon="12.4419992"><ele>277.8</ele><time>2026-04-25T13:11:46.532Z</time></trkpt><trkpt lat="43.7269133" lon="12.442106"><ele>277.0</ele><time>2026-04-25T13:11:47.447Z</time></trkpt><trkpt lat="43.7269474" lon="12.4422215"><ele>278.5</ele><time>2026-04-25T13:11:48.502Z</time></trkpt><trkpt lat="43.7269701" lon="12.4423399"><ele>280.0</ele><time>2026-04-25T13:11:49.538Z</time></trkpt><trkpt lat="43.7269758" lon="12.4424326"><ele>281.5</ele><time>2026-04-25T13:11:50.461Z</time></trkpt><trkpt lat="43.7269988" lon="12.442532"><ele>283.0</ele><time>2026-04-25T13:11:51.591Z</time></trkpt><trkpt lat="43.7270815" lon="12.4425697"><ele>284.5</ele><time>2026-04-25T13:11:53.496Z</time></trkpt><trkpt lat="43.7271471" lon="12.4425306"><ele>286.0</ele><time>2026-04-25T13:11:54.505Z</time></trkpt><trkpt lat="43.7272166" lon="12.4424455"><ele>286.0</ele><time>2026-04-25T13:11:55.496Z</time></trkpt><trkpt lat="43.7272712" lon="12.442344"><ele>286.0</ele><time>2026-04-25T13:11:56.463Z</time></trkpt><trkpt lat="43.7273045" lon="12.4422285"><ele>286.0</ele><time>2026-04-25T13:11:57.468Z</time></trkpt><trkpt lat="43.7273609" lon="12.4421079"><ele>286.0</ele><time>2026-04-25T13:11:58.473Z</time></trkpt><trkpt lat="43.7274361" lon="12.4419729"><ele>286.0</ele><time>2026-04-25T13:11:59.507Z</time></trkpt><trkpt lat="43.7275194" lon="12.4418297"><ele>286.3333333333333</ele><time>2026-04-25T13:12:00.521Z</time></trkpt><trkpt lat="43.7276159" lon="12.4416602"><ele>286.6666666666667</ele><time>2026-04-25T13:12:01.475Z</time></trkpt><trkpt lat="43.7277251" lon="12.4414776"><ele>287.0</ele><time>2026-04-25T13:12:02.475Z</time></trkpt><trkpt lat="43.7278335" lon="12.4412998"><ele>289.25</ele><time>2026-04-25T13:12:03.479Z</time></trkpt><trkpt lat="43.7279185" lon="12.4411589"><ele>291.5</ele><time>2026-04-25T13:12:04.434Z</time></trkpt><trkpt lat="43.7280039" lon="12.4410211"><ele>293.75</ele><time>2026-04-25T13:12:05.48Z</time></trkpt><trkpt lat="43.7280736" lon="12.4409175"><ele>296.0</ele><time>2026-04-25T13:12:06.46Z</time></trkpt><trkpt lat="43.7281311" lon="12.4408202"><ele>296.0</ele><time>2026-04-25T13:12:07.533Z</time></trkpt><trkpt lat="43.7281915" lon="12.4407147"><ele>296.0</ele><time>2026-04-25T13:12:09.483Z</time></trkpt><trkpt lat="43.7282666" lon="12.4406929"><ele>296.0</ele><time>2026-04-25T13:12:12.473Z</time></trkpt><trkpt lat="43.7284041" lon="12.440819"><ele>296.0</ele><time>2026-04-25T13:12:14.475Z</time></trkpt><trkpt lat="43.7285044" lon="12.440909"><ele>296.6666666666667</ele><time>2026-04-25T13:12:15.593Z</time></trkpt><trkpt lat="43.7287017" lon="12.4410043"><ele>297.3333333333333</ele><time>2026-04-25T13:12:17.484Z</time></trkpt><trkpt lat="43.7288206" lon="12.4410572"><ele>298.0</ele><time>2026-04-25T13:12:18.439Z</time></trkpt><trkpt lat="43.7289548" lon="12.4411145"><ele>298.0</ele><time>2026-04-25T13:12:19.468Z</time></trkpt><trkpt lat="43.7290917" lon="12.4411777"><ele>298.0</ele><time>2026-04-25T13:12:20.553Z</time></trkpt><trkpt lat="43.7293242" lon="12.441284"><ele>298.0</ele><time>2026-04-25T13:12:22.436Z</time></trkpt><trkpt lat="43.7294321" lon="12.4413459"><ele>297.0</ele><time>2026-04-25T13:12:23.441Z</time></trkpt><trkpt lat="43.7295425" lon="12.4414038"><ele>296.0</ele><time>2026-04-25T13:12:24.406Z</time></trkpt><trkpt lat="43.7296744" lon="12.4414662"><ele>295.0</ele><time>2026-04-25T13:12:25.495Z</time></trkpt><trkpt lat="43.7297762" lon="12.441521"><ele>294.0</ele><time>2026-04-25T13:12:26.402Z</time></trkpt><trkpt lat="43.7298795" lon="12.4415719"><ele>294.0</ele><time>2026-04-25T13:12:27.394Z</time></trkpt><trkpt lat="43.729975" lon="12.4416225"><ele>294.0</ele><time>2026-04-25T13:12:28.429Z</time></trkpt><trkpt lat="43.7300654" lon="12.4416623"><ele>294.0</ele><time>2026-04-25T13:12:29.447Z</time></trkpt><trkpt lat="43.7301355" lon="12.4416966"><ele>294.0</ele><time>2026-04-25T13:12:30.409Z</time></trkpt><trkpt lat="43.7302561" lon="12.4417362"><ele>294.0</ele><time>2026-04-25T13:12:33.483Z</time></trkpt><trkpt lat="43.7303337" lon="12.4417827"><ele>293.0</ele><time>2026-04-25T13:12:34.577Z</time></trkpt><trkpt lat="43.7304352" lon="12.4418338"><ele>292.0</ele><time>2026-04-25T13:12:35.618Z</time></trkpt><trkpt lat="43.7306421" lon="12.4418491"><ele>291.0</ele><time>2026-04-25T13:12:37.527Z</time></trkpt><trkpt lat="43.7307368" lon="12.4418049"><ele>290.0</ele><time>2026-04-25T13:12:38.472Z</time></trkpt><trkpt lat="43.730844" lon="12.4417256"><ele>290.0</ele><time>2026-04-25T13:12:39.477Z</time></trkpt><trkpt lat="43.7309405" lon="12.4416227"><ele>290.0</ele><time>2026-04-25T13:12:40.441Z</time></trkpt><trkpt lat="43.7310443" lon="12.4415242"><ele>290.0</ele><time>2026-04-25T13:12:41.432Z</time></trkpt><trkpt lat="43.7311607" lon="12.4414263"><ele>290.0</ele><time>2026-04-25T13:12:42.509Z</time></trkpt><trkpt lat="43.7312645" lon="12.441348"><ele>291.8</ele><time>2026-04-25T13:12:43.465Z</time></trkpt><trkpt lat="43.7313731" lon="12.4412631"><ele>293.6</ele><time>2026-04-25T13:12:44.481Z</time></trkpt><trkpt lat="43.731478" lon="12.441188"><ele>295.4</ele><time>2026-04-25T13:12:45.499Z</time></trkpt><trkpt lat="43.7315737" lon="12.4411338"><ele>297.2</ele><time>2026-04-25T13:12:46.448Z</time></trkpt><trkpt lat="43.7316663" lon="12.4410921"><ele>299.0</ele><time>2026-04-25T13:12:47.423Z</time></trkpt><trkpt lat="43.7317729" lon="12.4410542"><ele>299.0</ele><time>2026-04-25T13:12:48.502Z</time></trkpt><trkpt lat="43.7318588" lon="12.4410308"><ele>299.0</ele><time>2026-04-25T13:12:49.42Z</time></trkpt><trkpt lat="43.7319475" lon="12.4410236"><ele>299.0</ele><time>2026-04-25T13:12:50.47Z</time></trkpt><trkpt lat="43.7320322" lon="12.4410179"><ele>299.0</ele><time>2026-04-25T13:12:51.413Z</time></trkpt><trkpt lat="43.7321257" lon="12.4410307"><ele>299.0</ele><time>2026-04-25T13:12:52.442Z</time></trkpt><trkpt lat="43.7322435" lon="12.44106"><ele>297.75</ele><time>2026-04-25T13:12:53.588Z</time></trkpt><trkpt lat="43.7323382" lon="12.4411015"><ele>296.5</ele><time>2026-04-25T13:12:54.514Z</time></trkpt><trkpt lat="43.7324477" lon="12.4411633"><ele>295.25</ele><time>2026-04-25T13:12:55.577Z</time></trkpt><trkpt lat="43.7326501" lon="12.4413059"><ele>294.0</ele><time>2026-04-25T13:12:57.603Z</time></trkpt><trkpt lat="43.7328381" lon="12.441447"><ele>293.25</ele><time>2026-04-25T13:12:59.481Z</time></trkpt><trkpt lat="43.7329427" lon="12.4415327"><ele>292.5</ele><time>2026-04-25T13:13:00.539Z</time></trkpt><trkpt lat="43.7330411" lon="12.4416112"><ele>291.75</ele><time>2026-04-25T13:13:01.542Z</time></trkpt><trkpt lat="43.7331439" lon="12.4416912"><ele>291.0</ele><time>2026-04-25T13:13:02.543Z</time></trkpt><trkpt lat="43.7332444" lon="12.4417814"><ele>291.0</ele><time>2026-04-25T13:13:03.561Z</time></trkpt><trkpt lat="43.7333451" lon="12.4418685"><ele>291.0</ele><time>2026-04-25T13:13:04.554Z</time></trkpt><trkpt lat="43.7334454" lon="12.4419515"><ele>291.0</ele><time>2026-04-25T13:13:05.51Z</time></trkpt><trkpt lat="43.7335525" lon="12.4420433"><ele>291.0</ele><time>2026-04-25T13:13:06.549Z</time></trkpt><trkpt lat="43.7336561" lon="12.4421284"><ele>289.75</ele><time>2026-04-25T13:13:07.519Z</time></trkpt><trkpt lat="43.7337612" lon="12.4422068"><ele>288.5</ele><time>2026-04-25T13:13:08.512Z</time></trkpt><trkpt lat="43.7338753" lon="12.4422783"><ele>287.25</ele><time>2026-04-25T13:13:09.553Z</time></trkpt><trkpt lat="43.7339932" lon="12.4423338"><ele>286.0</ele><time>2026-04-25T13:13:10.566Z</time></trkpt><trkpt lat="43.7341163" lon="12.4423788"><ele>286.0</ele><time>2026-04-25T13:13:11.564Z</time></trkpt><trkpt lat="43.7342433" lon="12.4424107"><ele>286.0</ele><time>2026-04-25T13:13:12.564Z</time></trkpt><trkpt lat="43.7343762" lon="12.4424284"><ele>286.0</ele><time>2026-04-25T13:13:13.589Z</time></trkpt><trkpt lat="43.7344998" lon="12.4424324"><ele>286.0</ele><time>2026-04-25T13:13:14.551Z</time></trkpt><trkpt lat="43.7346129" lon="12.4424459"><ele>285.75</ele><time>2026-04-25T13:13:15.498Z</time></trkpt><trkpt lat="43.7347371" lon="12.4424735"><ele>285.5</ele><time>2026-04-25T13:13:16.603Z</time></trkpt><trkpt lat="43.7348407" lon="12.4425091"><ele>285.25</ele><time>2026-04-25T13:13:17.576Z</time></trkpt><trkpt lat="43.7349498" lon="12.4425646"><ele>285.0</ele><time>2026-04-25T13:13:18.533Z</time></trkpt><trkpt lat="43.7350611" lon="12.442648"><ele>285.0</ele><time>2026-04-25T13:13:19.56Z</time></trkpt><trkpt lat="43.7351724" lon="12.4427423"><ele>285.0</ele><time>2026-04-25T13:13:20.553Z</time></trkpt><trkpt lat="43.7352965" lon="12.4428246"><ele>285.0</ele><time>2026-04-25T13:13:21.551Z</time></trkpt><trkpt lat="43.7354272" lon="12.4429036"><ele>285.0</ele><time>2026-04-25T13:13:22.558Z</time></trkpt><trkpt lat="43.7355729" lon="12.4429693"><ele>284.0</ele><time>2026-04-25T13:13:23.521Z</time></trkpt><trkpt lat="43.7357171" lon="12.4430205"><ele>283.0</ele><time>2026-04-25T13:13:24.534Z</time></trkpt><trkpt lat="43.7358806" lon="12.4430457"><ele>282.0</ele><time>2026-04-25T13:13:25.719Z</time></trkpt><trkpt lat="43.7361148" lon="12.4430177"><ele>281.25</ele><time>2026-04-25T13:13:27.534Z</time></trkpt><trkpt lat="43.7362504" lon="12.4429824"><ele>280.5</ele><time>2026-04-25T13:13:28.545Z</time></trkpt><trkpt lat="43.7363793" lon="12.4429532"><ele>279.75</ele><time>2026-04-25T13:13:29.498Z</time></trkpt><trkpt lat="43.7365087" lon="12.4429261"><ele>279.0</ele><time>2026-04-25T13:13:30.543Z</time></trkpt><trkpt lat="43.7366271" lon="12.4429038"><ele>279.25</ele><time>2026-04-25T13:13:31.539Z</time></trkpt><trkpt lat="43.7367458" lon="12.4428832"><ele>279.5</ele><time>2026-04-25T13:13:32.546Z</time></trkpt><trkpt lat="43.7368711" lon="12.4428695"><ele>279.75</ele><time>2026-04-25T13:13:33.543Z</time></trkpt><trkpt lat="43.7370006" lon="12.4428867"><ele>280.0</ele><time>2026-04-25T13:13:34.659Z</time></trkpt><trkpt lat="43.7372404" lon="12.4429751"><ele>280.0</ele><time>2026-04-25T13:13:36.601Z</time></trkpt><trkpt lat="43.7373502" lon="12.4430295"><ele>280.0</ele><time>2026-04-25T13:13:37.555Z</time></trkpt><trkpt lat="43.7374723" lon="12.4430831"><ele>280.0</ele><time>2026-04-25T13:13:38.544Z</time></trkpt><trkpt lat="43.7376021" lon="12.4431393"><ele>280.0</ele><time>2026-04-25T13:13:39.561Z</time></trkpt><trkpt lat="43.737751" lon="12.443212"><ele>283.0</ele><time>2026-04-25T13:13:40.717Z</time></trkpt><trkpt lat="43.7380125" lon="12.4433444"><ele>286.0</ele><time>2026-04-25T13:13:42.697Z</time></trkpt><trkpt lat="43.7382955" lon="12.4435067"><ele>288.5</ele><time>2026-04-25T13:13:44.774Z</time></trkpt><trkpt lat="43.7385606" lon="12.4436915"><ele>291.0</ele><time>2026-04-25T13:13:46.69Z</time></trkpt><trkpt lat="43.7388279" lon="12.4438604"><ele>287.3333333333333</ele><time>2026-04-25T13:13:48.58Z</time></trkpt><trkpt lat="43.7389615" lon="12.4439477"><ele>283.66666666666663</ele><time>2026-04-25T13:13:49.586Z</time></trkpt><trkpt lat="43.7390978" lon="12.444039"><ele>280.0</ele><time>2026-04-25T13:13:50.632Z</time></trkpt><trkpt lat="43.7392371" lon="12.4441288"><ele>280.0</ele><time>2026-04-25T13:13:51.717Z</time></trkpt><trkpt lat="43.7393516" lon="12.4442052"><ele>280.0</ele><time>2026-04-25T13:13:52.633Z</time></trkpt><trkpt lat="43.7394652" lon="12.4442831"><ele>280.0</ele><time>2026-04-25T13:13:53.564Z</time></trkpt><trkpt lat="43.7395888" lon="12.4443682"><ele>280.0</ele><time>2026-04-25T13:13:54.577Z</time></trkpt><trkpt lat="43.7397183" lon="12.4444581"><ele>279.5</ele><time>2026-04-25T13:13:55.612Z</time></trkpt><trkpt lat="43.7398327" lon="12.4445418"><ele>279.0</ele><time>2026-04-25T13:13:56.549Z</time></trkpt><trkpt lat="43.7399519" lon="12.4446376"><ele>278.5</ele><time>2026-04-25T13:13:57.579Z</time></trkpt><trkpt lat="43.7400611" lon="12.4447384"><ele>278.0</ele><time>2026-04-25T13:13:58.638Z</time></trkpt><trkpt lat="43.740157" lon="12.4448185"><ele>279.75</ele><time>2026-04-25T13:13:59.579Z</time></trkpt><trkpt lat="43.7402612" lon="12.444919"><ele>281.5</ele><time>2026-04-25T13:14:00.638Z</time></trkpt><trkpt lat="43.7403516" lon="12.4450235"><ele>283.25</ele><time>2026-04-25T13:14:01.596Z</time></trkpt><trkpt lat="43.7404435" lon="12.4451462"><ele>285.0</ele><time>2026-04-25T13:14:02.644Z</time></trkpt><trkpt lat="43.7405357" lon="12.4452699"><ele>282.3333333333333</ele><time>2026-04-25T13:14:03.744Z</time></trkpt><trkpt lat="43.7406988" lon="12.4454961"><ele>279.66666666666663</ele><time>2026-04-25T13:14:05.767Z</time></trkpt><trkpt lat="43.7408514" lon="12.4457018"><ele>277.0</ele><time>2026-04-25T13:14:07.596Z</time></trkpt><trkpt lat="43.74094" lon="12.4458202"><ele>277.0</ele><time>2026-04-25T13:14:08.64Z</time></trkpt><trkpt lat="43.7410316" lon="12.4459447"><ele>277.0</ele><time>2026-04-25T13:14:09.759Z</time></trkpt><trkpt lat="43.7411009" lon="12.4460454"><ele>277.0</ele><time>2026-04-25T13:14:10.72Z</time></trkpt><trkpt lat="43.7411678" lon="12.4461417"><ele>277.0</ele><time>2026-04-25T13:14:11.707Z</time></trkpt><trkpt lat="43.7412294" lon="12.446223"><ele>277.0</ele><time>2026-04-25T13:14:12.681Z</time></trkpt><trkpt lat="43.7412779" lon="12.4462953"><ele>276.5</ele><time>2026-04-25T13:14:13.618Z</time></trkpt><trkpt lat="43.7413177" lon="12.4463729"><ele>276.0</ele><time>2026-04-25T13:14:14.651Z</time></trkpt><trkpt lat="43.7413713" lon="12.4464661"><ele>275.5</ele><time>2026-04-25T13:14:16.639Z</time></trkpt><trkpt lat="43.7414141" lon="12.4465692"><ele>275.0</ele><time>2026-04-25T13:14:18.653Z</time></trkpt><trkpt lat="43.7414631" lon="12.4466357"><ele>274.5</ele><time>2026-04-25T13:14:19.65Z</time></trkpt><trkpt lat="43.7415375" lon="12.4467268"><ele>274.0</ele><time>2026-04-25T13:14:20.726Z</time></trkpt><trkpt lat="43.7416087" lon="12.4468037"><ele>274.0</ele><time>2026-04-25T13:14:21.641Z</time></trkpt><trkpt lat="43.7416983" lon="12.4468862"><ele>274.0</ele><time>2026-04-25T13:14:22.647Z</time></trkpt><trkpt lat="43.7418082" lon="12.4469897"><ele>274.0</ele><time>2026-04-25T13:14:23.663Z</time></trkpt><trkpt lat="43.7419252" lon="12.4470995"><ele>274.0</ele><time>2026-04-25T13:14:24.614Z</time></trkpt><trkpt lat="43.7420663" lon="12.4472287"><ele>272.0</ele><time>2026-04-25T13:14:25.61Z</time></trkpt><trkpt lat="43.742194" lon="12.4473434"><ele>270.0</ele><time>2026-04-25T13:14:26.614Z</time></trkpt><trkpt lat="43.7423611" lon="12.447479"><ele>268.0</ele><time>2026-04-25T13:14:27.786Z</time></trkpt><trkpt lat="43.7426658" lon="12.4476604"><ele>271.66666666666663</ele><time>2026-04-25T13:14:29.674Z</time></trkpt><trkpt lat="43.7428402" lon="12.447737"><ele>275.3333333333333</ele><time>2026-04-25T13:14:30.689Z</time></trkpt><trkpt lat="43.7430098" lon="12.4478012"><ele>279.0</ele><time>2026-04-25T13:14:31.622Z</time></trkpt><trkpt lat="43.7431913" lon="12.4478481"><ele>279.0</ele><time>2026-04-25T13:14:32.609Z</time></trkpt><trkpt lat="43.7433682" lon="12.4478726"><ele>279.0</ele><time>2026-04-25T13:14:33.629Z</time></trkpt><trkpt lat="43.7435532" lon="12.447884"><ele>279.0</ele><time>2026-04-25T13:14:34.644Z</time></trkpt><trkpt lat="43.7437337" lon="12.4478883"><ele>280.3333333333333</ele><time>2026-04-25T13:14:35.653Z</time></trkpt><trkpt lat="43.7439203" lon="12.4478879"><ele>281.66666666666663</ele><time>2026-04-25T13:14:36.712Z</time></trkpt><trkpt lat="43.7440746" lon="12.4478838"><ele>283.0</ele><time>2026-04-25T13:14:37.613Z</time></trkpt><trkpt lat="43.7442419" lon="12.447879"><ele>285.5</ele><time>2026-04-25T13:14:38.613Z</time></trkpt><trkpt lat="43.7445461" lon="12.4478638"><ele>288.0</ele><time>2026-04-25T13:14:40.443Z</time></trkpt><trkpt lat="43.7447106" lon="12.4478521"><ele>288.0</ele><time>2026-04-25T13:14:41.425Z</time></trkpt><trkpt lat="43.744887" lon="12.4478389"><ele>288.0</ele><time>2026-04-25T13:14:42.474Z</time></trkpt><trkpt lat="43.7450509" lon="12.4478227"><ele>288.0</ele><time>2026-04-25T13:14:43.436Z</time></trkpt><trkpt lat="43.7452174" lon="12.4478059"><ele>289.0</ele><time>2026-04-25T13:14:44.437Z</time></trkpt><trkpt lat="43.7453854" lon="12.4477897"><ele>290.0</ele><time>2026-04-25T13:14:45.468Z</time></trkpt><trkpt lat="43.7455446" lon="12.4477795"><ele>291.0</ele><time>2026-04-25T13:14:46.444Z</time></trkpt><trkpt lat="43.7457119" lon="12.4477753"><ele>291.0</ele><time>2026-04-25T13:14:47.494Z</time></trkpt><trkpt lat="43.745866" lon="12.4477734"><ele>291.0</ele><time>2026-04-25T13:14:48.462Z</time></trkpt><trkpt lat="43.7460279" lon="12.4477695"><ele>291.0</ele><time>2026-04-25T13:14:49.459Z</time></trkpt><trkpt lat="43.7461844" lon="12.4477702"><ele>290.0</ele><time>2026-04-25T13:14:50.452Z</time></trkpt><trkpt lat="43.7463373" lon="12.4477693"><ele>289.0</ele><time>2026-04-25T13:14:51.422Z</time></trkpt><trkpt lat="43.7464961" lon="12.4477684"><ele>288.0</ele><time>2026-04-25T13:14:52.425Z</time></trkpt><trkpt lat="43.7466809" lon="12.4477673"><ele>288.0</ele><time>2026-04-25T13:14:53.573Z</time></trkpt><trkpt lat="43.7470144" lon="12.4477669"><ele>288.0</ele><time>2026-04-25T13:14:55.63Z</time></trkpt><trkpt lat="43.7473093" lon="12.4477767"><ele>288.0</ele><time>2026-04-25T13:14:57.447Z</time></trkpt><trkpt lat="43.7474609" lon="12.4477961"><ele>288.0</ele><time>2026-04-25T13:14:58.448Z</time></trkpt><trkpt lat="43.7476109" lon="12.4478238"><ele>288.0</ele><time>2026-04-25T13:14:59.449Z</time></trkpt><trkpt lat="43.7477726" lon="12.4478624"><ele>288.0</ele><time>2026-04-25T13:15:00.509Z</time></trkpt><trkpt lat="43.7479373" lon="12.4479142"><ele>288.0</ele><time>2026-04-25T13:15:01.551Z</time></trkpt><trkpt lat="43.7480925" lon="12.4479725"><ele>288.0</ele><time>2026-04-25T13:15:02.54Z</time></trkpt><trkpt lat="43.7482531" lon="12.4480436"><ele>286.0</ele><time>2026-04-25T13:15:03.567Z</time></trkpt><trkpt lat="43.7484032" lon="12.4481199"><ele>284.0</ele><time>2026-04-25T13:15:04.559Z</time></trkpt><trkpt lat="43.7485697" lon="12.4482107"><ele>282.0</ele><time>2026-04-25T13:15:05.662Z</time></trkpt><trkpt lat="43.7487082" lon="12.4482874"><ele>281.6666666666667</ele><time>2026-04-25T13:15:06.57Z</time></trkpt><trkpt lat="43.7488629" lon="12.448375"><ele>281.33333333333337</ele><time>2026-04-25T13:15:07.572Z</time></trkpt><trkpt lat="43.7490152" lon="12.4484623"><ele>281.0</ele><time>2026-04-25T13:15:08.53Z</time></trkpt><trkpt lat="43.7491793" lon="12.4485577"><ele>281.0</ele><time>2026-04-25T13:15:09.588Z</time></trkpt><trkpt lat="43.7493331" lon="12.4486447"><ele>281.0</ele><time>2026-04-25T13:15:10.579Z</time></trkpt><trkpt lat="43.749479" lon="12.448733"><ele>281.0</ele><time>2026-04-25T13:15:11.572Z</time></trkpt><trkpt lat="43.7496262" lon="12.4488248"><ele>280.0</ele><time>2026-04-25T13:15:12.58Z</time></trkpt><trkpt lat="43.7497768" lon="12.4489062"><ele>279.0</ele><time>2026-04-25T13:15:13.579Z</time></trkpt><trkpt lat="43.7499334" lon="12.4489867"><ele>278.0</ele><time>2026-04-25T13:15:14.614Z</time></trkpt><trkpt lat="43.7501111" lon="12.4490663"><ele>278.0</ele><time>2026-04-25T13:15:15.809Z</time></trkpt><trkpt lat="43.7503867" lon="12.449153"><ele>278.0</ele><time>2026-04-25T13:15:17.653Z</time></trkpt><trkpt lat="43.7505381" lon="12.449186"><ele>278.0</ele><time>2026-04-25T13:15:18.651Z</time></trkpt><trkpt lat="43.7507023" lon="12.4492053"><ele>278.0</ele><time>2026-04-25T13:15:19.686Z</time></trkpt><trkpt lat="43.7508614" lon="12.4492223"><ele>278.0</ele><time>2026-04-25T13:15:20.637Z</time></trkpt><trkpt lat="43.7510234" lon="12.4492397"><ele>278.0</ele><time>2026-04-25T13:15:21.58Z</time></trkpt><trkpt lat="43.7511949" lon="12.4492413"><ele>279.0</ele><time>2026-04-25T13:15:22.656Z</time></trkpt><trkpt lat="43.7513626" lon="12.449241"><ele>280.0</ele><time>2026-04-25T13:15:23.669Z</time></trkpt><trkpt lat="43.7515133" lon="12.4492345"><ele>281.0</ele><time>2026-04-25T13:15:24.617Z</time></trkpt><trkpt lat="43.7516748" lon="12.4492293"><ele>281.0</ele><time>2026-04-25T13:15:25.627Z</time></trkpt><trkpt lat="43.751848" lon="12.4492267"><ele>281.0</ele><time>2026-04-25T13:15:26.718Z</time></trkpt><trkpt lat="43.7520222" lon="12.4492176"><ele>281.0</ele><time>2026-04-25T13:15:27.683Z</time></trkpt><trkpt lat="43.7521696" lon="12.449223"><ele>280.33333333333337</ele><time>2026-04-25T13:15:28.604Z</time></trkpt><trkpt lat="43.7523395" lon="12.4492228"><ele>279.6666666666667</ele><time>2026-04-25T13:15:29.614Z</time></trkpt><trkpt lat="43.7525246" lon="12.4492193"><ele>279.0</ele><time>2026-04-25T13:15:30.747Z</time></trkpt><trkpt lat="43.7528285" lon="12.4492226"><ele>279.0</ele><time>2026-04-25T13:15:32.666Z</time></trkpt><trkpt lat="43.7529824" lon="12.449226"><ele>279.0</ele><time>2026-04-25T13:15:33.61Z</time></trkpt><trkpt lat="43.7531473" lon="12.4492354"><ele>279.0</ele><time>2026-04-25T13:15:34.641Z</time></trkpt><trkpt lat="43.7532933" lon="12.4492519"><ele>279.0</ele><time>2026-04-25T13:15:35.577Z</time></trkpt><trkpt lat="43.7534499" lon="12.4492944"><ele>279.0</ele><time>2026-04-25T13:15:36.619Z</time></trkpt><trkpt lat="43.7535967" lon="12.4493534"><ele>279.0</ele><time>2026-04-25T13:15:37.62Z</time></trkpt><trkpt lat="43.75373" lon="12.4494146"><ele>281.0</ele><time>2026-04-25T13:15:38.521Z</time></trkpt><trkpt lat="43.7538817" lon="12.4495124"><ele>283.0</ele><time>2026-04-25T13:15:39.597Z</time></trkpt><trkpt lat="43.7540128" lon="12.4496197"><ele>285.0</ele><time>2026-04-25T13:15:40.579Z</time></trkpt><trkpt lat="43.7541521" lon="12.4497399"><ele>280.3333333333333</ele><time>2026-04-25T13:15:41.59Z</time></trkpt><trkpt lat="43.7542894" lon="12.4498752"><ele>275.66666666666663</ele><time>2026-04-25T13:15:42.58Z</time></trkpt><trkpt lat="43.7544352" lon="12.4500128"><ele>271.0</ele><time>2026-04-25T13:15:43.582Z</time></trkpt><trkpt lat="43.7546028" lon="12.4501651"><ele>271.0</ele><time>2026-04-25T13:15:44.7Z</time></trkpt><trkpt lat="43.7548729" lon="12.4504097"><ele>271.0</ele><time>2026-04-25T13:15:46.62Z</time></trkpt><trkpt lat="43.7550047" lon="12.4505269"><ele>269.5</ele><time>2026-04-25T13:15:47.603Z</time></trkpt><trkpt lat="43.7551359" lon="12.4506408"><ele>268.0</ele><time>2026-04-25T13:15:48.597Z</time></trkpt><trkpt lat="43.7552566" lon="12.4507441"><ele>266.5</ele><time>2026-04-25T13:15:49.545Z</time></trkpt><trkpt lat="43.7553854" lon="12.4508534"><ele>265.0</ele><time>2026-04-25T13:15:50.566Z</time></trkpt><trkpt lat="43.7555028" lon="12.4509738"><ele>265.0</ele><time>2026-04-25T13:15:51.561Z</time></trkpt><trkpt lat="43.755617" lon="12.4510843"><ele>265.0</ele><time>2026-04-25T13:15:52.602Z</time></trkpt><trkpt lat="43.7557233" lon="12.4511885"><ele>265.0</ele><time>2026-04-25T13:15:53.666Z</time></trkpt><trkpt lat="43.7558332" lon="12.4512804"><ele>265.0</ele><time>2026-04-25T13:15:54.683Z</time></trkpt><trkpt lat="43.7560415" lon="12.4514629"><ele>262.25</ele><time>2026-04-25T13:15:56.584Z</time></trkpt><trkpt lat="43.7561547" lon="12.4515613"><ele>259.5</ele><time>2026-04-25T13:15:57.582Z</time></trkpt><trkpt lat="43.7562561" lon="12.4516628"><ele>256.75</ele><time>2026-04-25T13:15:58.574Z</time></trkpt><trkpt lat="43.7563744" lon="12.4517693"><ele>254.0</ele><time>2026-04-25T13:15:59.6Z</time></trkpt><trkpt lat="43.7564915" lon="12.4518704"><ele>254.0</ele><time>2026-04-25T13:16:00.605Z</time></trkpt><trkpt lat="43.7566118" lon="12.4519726"><ele>254.0</ele><time>2026-04-25T13:16:01.66Z</time></trkpt><trkpt lat="43.7567138" lon="12.4520652"><ele>254.0</ele><time>2026-04-25T13:16:02.6Z</time></trkpt><trkpt lat="43.7568156" lon="12.452158"><ele>254.0</ele><time>2026-04-25T13:16:03.56Z</time></trkpt><trkpt lat="43.7569216" lon="12.4522528"><ele>255.0</ele><time>2026-04-25T13:16:04.592Z</time></trkpt><trkpt lat="43.7570237" lon="12.4523423"><ele>255.99999999999997</ele><time>2026-04-25T13:16:05.645Z</time></trkpt><trkpt lat="43.7571112" lon="12.4524168"><ele>257.0</ele><time>2026-04-25T13:16:06.642Z</time></trkpt><trkpt lat="43.7571864" lon="12.4524864"><ele>258.0</ele><time>2026-04-25T13:16:07.642Z</time></trkpt><trkpt lat="43.7572588" lon="12.4525498"><ele>259.0</ele><time>2026-04-25T13:16:08.684Z</time></trkpt><trkpt lat="43.757377" lon="12.452652"><ele>259.0</ele><time>2026-04-25T13:16:10.615Z</time></trkpt><trkpt lat="43.7574339" lon="12.4526992"><ele>259.0</ele><time>2026-04-25T13:16:11.579Z</time></trkpt><trkpt lat="43.7574862" lon="12.4527515"><ele>259.0</ele><time>2026-04-25T13:16:12.552Z</time></trkpt><trkpt lat="43.7575716" lon="12.4528403"><ele>259.0</ele><time>2026-04-25T13:16:14.55Z</time></trkpt><trkpt lat="43.757625" lon="12.4529062"><ele>259.0</ele><time>2026-04-25T13:16:16.602Z</time></trkpt><trkpt lat="43.7577435" lon="12.4530651"><ele>257.3333333333333</ele><time>2026-04-25T13:16:19.499Z</time></trkpt><trkpt lat="43.7579223" lon="12.4532476"><ele>255.66666666666669</ele><time>2026-04-25T13:16:21.457Z</time></trkpt><trkpt lat="43.7580186" lon="12.4533538"><ele>254.0</ele><time>2026-04-25T13:16:22.392Z</time></trkpt><trkpt lat="43.7581426" lon="12.4534918"><ele>254.0</ele><time>2026-04-25T13:16:23.537Z</time></trkpt><trkpt lat="43.758329" lon="12.4537192"><ele>254.0</ele><time>2026-04-25T13:16:25.409Z</time></trkpt><trkpt lat="43.7584178" lon="12.4538308"><ele>254.0</ele><time>2026-04-25T13:16:26.442Z</time></trkpt><trkpt lat="43.7585086" lon="12.4539479"><ele>253.2</ele><time>2026-04-25T13:16:27.571Z</time></trkpt><trkpt lat="43.7585685" lon="12.4540477"><ele>252.39999999999998</ele><time>2026-04-25T13:16:28.494Z</time></trkpt><trkpt lat="43.7586192" lon="12.4541676"><ele>251.6</ele><time>2026-04-25T13:16:29.472Z</time></trkpt><trkpt lat="43.7586708" lon="12.4542887"><ele>250.8</ele><time>2026-04-25T13:16:30.492Z</time></trkpt><trkpt lat="43.7587399" lon="12.4543813"><ele>250.0</ele><time>2026-04-25T13:16:31.479Z</time></trkpt><trkpt lat="43.7588475" lon="12.4544471"><ele>250.0</ele><time>2026-04-25T13:16:32.549Z</time></trkpt><trkpt lat="43.7589619" lon="12.4544895"><ele>250.0</ele><time>2026-04-25T13:16:33.532Z</time></trkpt><trkpt lat="43.7592289" lon="12.4546788"><ele>250.0</ele><time>2026-04-25T13:16:35.502Z</time></trkpt><trkpt lat="43.7593719" lon="12.4547933"><ele>250.0</ele><time>2026-04-25T13:16:36.486Z</time></trkpt><trkpt lat="43.7595504" lon="12.4549303"><ele>250.0</ele><time>2026-04-25T13:16:37.608Z</time></trkpt><trkpt lat="43.7598421" lon="12.4551402"><ele>250.0</ele><time>2026-04-25T13:16:39.635Z</time></trkpt><trkpt lat="43.7599791" lon="12.4552351"><ele>250.0</ele><time>2026-04-25T13:16:40.536Z</time></trkpt><trkpt lat="43.7602704" lon="12.455425"><ele>250.0</ele><time>2026-04-25T13:16:42.5Z</time></trkpt><trkpt lat="43.7604209" lon="12.4555107"><ele>250.0</ele><time>2026-04-25T13:16:43.576Z</time></trkpt><trkpt lat="43.7606807" lon="12.4556403"><ele>250.0</ele><time>2026-04-25T13:16:45.549Z</time></trkpt><trkpt lat="43.7608061" lon="12.4556957"><ele>250.0</ele><time>2026-04-25T13:16:46.484Z</time></trkpt><trkpt lat="43.7609377" lon="12.4557549"><ele>250.0</ele><time>2026-04-25T13:16:47.422Z</time></trkpt><trkpt lat="43.7610901" lon="12.4558169"><ele>250.0</ele><time>2026-04-25T13:16:48.497Z</time></trkpt><trkpt lat="43.7612184" lon="12.4558683"><ele>250.0</ele><time>2026-04-25T13:16:49.435Z</time></trkpt><trkpt lat="43.761359" lon="12.4559212"><ele>250.0</ele><time>2026-04-25T13:16:50.437Z</time></trkpt><trkpt lat="43.7615065" lon="12.4559731"><ele>250.0</ele><time>2026-04-25T13:16:51.445Z</time></trkpt><trkpt lat="43.7616547" lon="12.4560252"><ele>250.0</ele><time>2026-04-25T13:16:52.47Z</time></trkpt><trkpt lat="43.7617978" lon="12.4560735"><ele>250.75</ele><time>2026-04-25T13:16:53.476Z</time></trkpt><trkpt lat="43.7619342" lon="12.4561218"><ele>251.5</ele><time>2026-04-25T13:16:54.444Z</time></trkpt><trkpt lat="43.7620757" lon="12.4561722"><ele>252.25</ele><time>2026-04-25T13:16:55.453Z</time></trkpt><trkpt lat="43.7622132" lon="12.4562203"><ele>253.0</ele><time>2026-04-25T13:16:56.422Z</time></trkpt><trkpt lat="43.7623474" lon="12.4562722"><ele>251.33333333333331</ele><time>2026-04-25T13:16:57.341Z</time></trkpt><trkpt lat="43.7624889" lon="12.456332"><ele>249.66666666666669</ele><time>2026-04-25T13:16:58.332Z</time></trkpt><trkpt lat="43.7626305" lon="12.4564005"><ele>248.0</ele><time>2026-04-25T13:16:59.337Z</time></trkpt><trkpt lat="43.7627742" lon="12.4564822"><ele>250.5</ele><time>2026-04-25T13:17:00.373Z</time></trkpt><trkpt lat="43.7629012" lon="12.4565645"><ele>253.0</ele><time>2026-04-25T13:17:01.317Z</time></trkpt><trkpt lat="43.7630357" lon="12.4566651"><ele>255.5</ele><time>2026-04-25T13:17:02.384Z</time></trkpt><trkpt lat="43.7631512" lon="12.4567705"><ele>258.0</ele><time>2026-04-25T13:17:03.344Z</time></trkpt><trkpt lat="43.7632619" lon="12.4568862"><ele>258.0</ele><time>2026-04-25T13:17:04.359Z</time></trkpt><trkpt lat="43.7633684" lon="12.457015"><ele>258.0</ele><time>2026-04-25T13:17:05.404Z</time></trkpt><trkpt lat="43.7634606" lon="12.4571369"><ele>258.0</ele><time>2026-04-25T13:17:06.36Z</time></trkpt><trkpt lat="43.7635586" lon="12.4572706"><ele>258.0</ele><time>2026-04-25T13:17:07.415Z</time></trkpt><trkpt lat="43.7636588" lon="12.4574073"><ele>257.3333333333333</ele><time>2026-04-25T13:17:08.452Z</time></trkpt><trkpt lat="43.7637519" lon="12.4575413"><ele>256.66666666666663</ele><time>2026-04-25T13:17:09.393Z</time></trkpt><trkpt lat="43.7638617" lon="12.4577179"><ele>256.0</ele><time>2026-04-25T13:17:10.53Z</time></trkpt><trkpt lat="43.764033" lon="12.4579992"><ele>253.75</ele><time>2026-04-25T13:17:12.416Z</time></trkpt><trkpt lat="43.7641177" lon="12.4581351"><ele>251.5</ele><time>2026-04-25T13:17:13.45Z</time></trkpt><trkpt lat="43.7641929" lon="12.4582564"><ele>249.25</ele><time>2026-04-25T13:17:14.397Z</time></trkpt><trkpt lat="43.7642789" lon="12.4583899"><ele>247.0</ele><time>2026-04-25T13:17:15.472Z</time></trkpt><trkpt lat="43.7643517" lon="12.4585076"><ele>246.25</ele><time>2026-04-25T13:17:16.42Z</time></trkpt><trkpt lat="43.7644311" lon="12.4586427"><ele>245.5</ele><time>2026-04-25T13:17:17.424Z</time></trkpt><trkpt lat="43.7645278" lon="12.4587994"><ele>244.75</ele><time>2026-04-25T13:17:18.481Z</time></trkpt><trkpt lat="43.7646344" lon="12.4589518"><ele>244.0</ele><time>2026-04-25T13:17:19.61Z</time></trkpt><trkpt lat="43.7648502" lon="12.4591828"><ele>244.0</ele><time>2026-04-25T13:17:21.515Z</time></trkpt><trkpt lat="43.7649871" lon="12.4592833"><ele>244.0</ele><time>2026-04-25T13:17:22.458Z</time></trkpt><trkpt lat="43.7651373" lon="12.45937"><ele>244.0</ele><time>2026-04-25T13:17:23.468Z</time></trkpt><trkpt lat="43.7652896" lon="12.4594511"><ele>244.33333333333331</ele><time>2026-04-25T13:17:24.457Z</time></trkpt><trkpt lat="43.7654479" lon="12.4595141"><ele>244.66666666666669</ele><time>2026-04-25T13:17:25.439Z</time></trkpt><trkpt lat="43.7656091" lon="12.459563"><ele>245.0</ele><time>2026-04-25T13:17:26.428Z</time></trkpt><trkpt lat="43.7657964" lon="12.4596049"><ele>244.0</ele><time>2026-04-25T13:17:27.519Z</time></trkpt><trkpt lat="43.765965" lon="12.4596313"><ele>243.0</ele><time>2026-04-25T13:17:28.447Z</time></trkpt><trkpt lat="43.7661447" lon="12.4596548"><ele>242.0</ele><time>2026-04-25T13:17:29.473Z</time></trkpt><trkpt lat="43.7663246" lon="12.4596853"><ele>242.0</ele><time>2026-04-25T13:17:30.476Z</time></trkpt><trkpt lat="43.7664973" lon="12.459715"><ele>242.0</ele><time>2026-04-25T13:17:31.439Z</time></trkpt><trkpt lat="43.7666683" lon="12.4597473"><ele>242.0</ele><time>2026-04-25T13:17:32.439Z</time></trkpt><trkpt lat="43.766855" lon="12.459782"><ele>241.66666666666669</ele><time>2026-04-25T13:17:33.469Z</time></trkpt><trkpt lat="43.7670246" lon="12.4598134"><ele>241.33333333333331</ele><time>2026-04-25T13:17:34.429Z</time></trkpt><trkpt lat="43.7671982" lon="12.4598397"><ele>241.0</ele><time>2026-04-25T13:17:35.392Z</time></trkpt><trkpt lat="43.7673866" lon="12.4598728"><ele>241.0</ele><time>2026-04-25T13:17:36.437Z</time></trkpt><trkpt lat="43.7675582" lon="12.4599037"><ele>241.0</ele><time>2026-04-25T13:17:37.386Z</time></trkpt><trkpt lat="43.7677485" lon="12.4599373"><ele>241.0</ele><time>2026-04-25T13:17:38.438Z</time></trkpt><trkpt lat="43.767926" lon="12.4599675"><ele>242.0</ele><time>2026-04-25T13:17:39.413Z</time></trkpt><trkpt lat="43.7681119" lon="12.4600011"><ele>243.0</ele><time>2026-04-25T13:17:40.43Z</time></trkpt><trkpt lat="43.7683" lon="12.4600349"><ele>244.0</ele><time>2026-04-25T13:17:41.453Z</time></trkpt><trkpt lat="43.7684853" lon="12.4600689"><ele>245.0</ele><time>2026-04-25T13:17:42.45Z</time></trkpt><trkpt lat="43.7686757" lon="12.4601077"><ele>246.0</ele><time>2026-04-25T13:17:43.476Z</time></trkpt><trkpt lat="43.7688566" lon="12.4601413"><ele>247.0</ele><time>2026-04-25T13:17:44.439Z</time></trkpt><trkpt lat="43.7690478" lon="12.4601669"><ele>247.0</ele><time>2026-04-25T13:17:45.442Z</time></trkpt><trkpt lat="43.7692354" lon="12.4601954"><ele>247.0</ele><time>2026-04-25T13:17:46.435Z</time></trkpt><trkpt lat="43.7694272" lon="12.4602276"><ele>247.0</ele><time>2026-04-25T13:17:47.468Z</time></trkpt><trkpt lat="43.7696099" lon="12.4602576"><ele>248.0</ele><time>2026-04-25T13:17:48.451Z</time></trkpt><trkpt lat="43.769793" lon="12.460308"><ele>249.0</ele><time>2026-04-25T13:17:49.459Z</time></trkpt><trkpt lat="43.7699717" lon="12.4603602"><ele>250.0</ele><time>2026-04-25T13:17:50.457Z</time></trkpt><trkpt lat="43.7701466" lon="12.460437"><ele>245.66666666666666</ele><time>2026-04-25T13:17:51.467Z</time></trkpt><trkpt lat="43.7703042" lon="12.4605313"><ele>241.33333333333331</ele><time>2026-04-25T13:17:52.453Z</time></trkpt><trkpt lat="43.7704508" lon="12.4606399"><ele>237.0</ele><time>2026-04-25T13:17:53.413Z</time></trkpt><trkpt lat="43.7705942" lon="12.4607663"><ele>237.0</ele><time>2026-04-25T13:17:54.418Z</time></trkpt><trkpt lat="43.7707229" lon="12.4609049"><ele>237.0</ele><time>2026-04-25T13:17:55.39Z</time></trkpt><trkpt lat="43.7708518" lon="12.4610723"><ele>237.0</ele><time>2026-04-25T13:17:56.439Z</time></trkpt><trkpt lat="43.770965" lon="12.4612394"><ele>234.33333333333331</ele><time>2026-04-25T13:17:57.392Z</time></trkpt><trkpt lat="43.7710896" lon="12.4614313"><ele>231.66666666666666</ele><time>2026-04-25T13:17:58.434Z</time></trkpt><trkpt lat="43.7712125" lon="12.4616235"><ele>229.0</ele><time>2026-04-25T13:17:59.457Z</time></trkpt><trkpt lat="43.7713274" lon="12.4618029"><ele>229.0</ele><time>2026-04-25T13:18:00.398Z</time></trkpt><trkpt lat="43.7714631" lon="12.4620184"><ele>229.0</ele><time>2026-04-25T13:18:01.494Z</time></trkpt><trkpt lat="43.7715854" lon="12.4622093"><ele>229.0</ele><time>2026-04-25T13:18:02.436Z</time></trkpt><trkpt lat="43.771723" lon="12.4624288"><ele>231.5</ele><time>2026-04-25T13:18:03.44Z</time></trkpt><trkpt lat="43.7718889" lon="12.4626968"><ele>234.0</ele><time>2026-04-25T13:18:04.592Z</time></trkpt><trkpt lat="43.77215" lon="12.4631221"><ele>234.0</ele><time>2026-04-25T13:18:06.437Z</time></trkpt><trkpt lat="43.7722786" lon="12.4633458"><ele>234.0</ele><time>2026-04-25T13:18:07.411Z</time></trkpt><trkpt lat="43.772405" lon="12.4636085"><ele>234.0</ele><time>2026-04-25T13:18:08.471Z</time></trkpt><trkpt lat="43.7725034" lon="12.4638771"><ele>234.0</ele><time>2026-04-25T13:18:09.471Z</time></trkpt><trkpt lat="43.772589" lon="12.4641428"><ele>234.0</ele><time>2026-04-25T13:18:10.426Z</time></trkpt><trkpt lat="43.7726768" lon="12.4644316"><ele>234.0</ele><time>2026-04-25T13:18:11.452Z</time></trkpt><trkpt lat="43.7727641" lon="12.4647155"><ele>238.0</ele><time>2026-04-25T13:18:12.497Z</time></trkpt><trkpt lat="43.7728537" lon="12.4649536"><ele>242.0</ele><time>2026-04-25T13:18:13.487Z</time></trkpt><trkpt lat="43.7729606" lon="12.4651764"><ele>246.0</ele><time>2026-04-25T13:18:14.473Z</time></trkpt><trkpt lat="43.7730843" lon="12.465386"><ele>243.66666666666669</ele><time>2026-04-25T13:18:15.437Z</time></trkpt><trkpt lat="43.7732137" lon="12.4655927"><ele>241.33333333333334</ele><time>2026-04-25T13:18:16.418Z</time></trkpt><trkpt lat="43.7733563" lon="12.4658046"><ele>239.0</ele><time>2026-04-25T13:18:17.434Z</time></trkpt><trkpt lat="43.773502" lon="12.4660187"><ele>240.0</ele><time>2026-04-25T13:18:18.457Z</time></trkpt><trkpt lat="43.773652" lon="12.4662259"><ele>241.0</ele><time>2026-04-25T13:18:19.477Z</time></trkpt><trkpt lat="43.773793" lon="12.4664487"><ele>242.0</ele><time>2026-04-25T13:18:20.445Z</time></trkpt><trkpt lat="43.7739295" lon="12.4666813"><ele>242.0</ele><time>2026-04-25T13:18:21.429Z</time></trkpt><trkpt lat="43.7740974" lon="12.4669277"><ele>242.0</ele><time>2026-04-25T13:18:22.5Z</time></trkpt><trkpt lat="43.7742326" lon="12.4671087"><ele>242.0</ele><time>2026-04-25T13:18:23.412Z</time></trkpt><trkpt lat="43.7744048" lon="12.4673436"><ele>242.33333333333334</ele><time>2026-04-25T13:18:24.491Z</time></trkpt><trkpt lat="43.7745635" lon="12.4675502"><ele>242.66666666666669</ele><time>2026-04-25T13:18:25.492Z</time></trkpt><trkpt lat="43.7747297" lon="12.4677589"><ele>243.0</ele><time>2026-04-25T13:18:26.45Z</time></trkpt><trkpt lat="43.7749085" lon="12.4679833"><ele>240.33333333333331</ele><time>2026-04-25T13:18:27.507Z</time></trkpt><trkpt lat="43.7750637" lon="12.4681843"><ele>237.66666666666666</ele><time>2026-04-25T13:18:28.45Z</time></trkpt><trkpt lat="43.7752291" lon="12.4684047"><ele>235.0</ele><time>2026-04-25T13:18:29.462Z</time></trkpt><trkpt lat="43.7753927" lon="12.4686194"><ele>237.5</ele><time>2026-04-25T13:18:30.456Z</time></trkpt><trkpt lat="43.775562" lon="12.4688509"><ele>240.0</ele><time>2026-04-25T13:18:31.499Z</time></trkpt><trkpt lat="43.7757115" lon="12.4690731"><ele>240.0</ele><time>2026-04-25T13:18:32.474Z</time></trkpt><trkpt lat="43.7758575" lon="12.4693134"><ele>240.0</ele><time>2026-04-25T13:18:33.481Z</time></trkpt><trkpt lat="43.7759894" lon="12.4695746"><ele>245.0</ele><time>2026-04-25T13:18:34.512Z</time></trkpt><trkpt lat="43.7760976" lon="12.4698184"><ele>250.0</ele><time>2026-04-25T13:18:35.433Z</time></trkpt><trkpt lat="43.7762302" lon="12.4701237"><ele>245.0</ele><time>2026-04-25T13:18:36.567Z</time></trkpt><trkpt lat="43.7764515" lon="12.4706217"><ele>240.0</ele><time>2026-04-25T13:18:38.501Z</time></trkpt><trkpt lat="43.7765597" lon="12.4708584"><ele>240.0</ele><time>2026-04-25T13:18:39.479Z</time></trkpt><trkpt lat="43.7766626" lon="12.4710813"><ele>240.0</ele><time>2026-04-25T13:18:40.418Z</time></trkpt><trkpt lat="43.7767748" lon="12.471329"><ele>240.0</ele><time>2026-04-25T13:18:41.439Z</time></trkpt><trkpt lat="43.7768962" lon="12.471587"><ele>237.66666666666669</ele><time>2026-04-25T13:18:42.497Z</time></trkpt><trkpt lat="43.7770159" lon="12.4718515"><ele>235.33333333333334</ele><time>2026-04-25T13:18:43.549Z</time></trkpt><trkpt lat="43.7771185" lon="12.4720765"><ele>233.0</ele><time>2026-04-25T13:18:44.473Z</time></trkpt><trkpt lat="43.7772348" lon="12.4723297"><ele>233.0</ele><time>2026-04-25T13:18:45.511Z</time></trkpt><trkpt lat="43.7773369" lon="12.4725531"><ele>233.0</ele><time>2026-04-25T13:18:46.434Z</time></trkpt><trkpt lat="43.7774624" lon="12.4728114"><ele>233.0</ele><time>2026-04-25T13:18:47.499Z</time></trkpt><trkpt lat="43.7775878" lon="12.4730249"><ele>234.66666666666669</ele><time>2026-04-25T13:18:48.436Z</time></trkpt><trkpt lat="43.7777354" lon="12.4732325"><ele>236.33333333333331</ele><time>2026-04-25T13:18:49.452Z</time></trkpt><trkpt lat="43.7779021" lon="12.4734301"><ele>238.0</ele><time>2026-04-25T13:18:50.437Z</time></trkpt><trkpt lat="43.7780678" lon="12.473594"><ele>238.0</ele><time>2026-04-25T13:18:51.412Z</time></trkpt><trkpt lat="43.7782295" lon="12.4737671"><ele>238.0</ele><time>2026-04-25T13:18:52.47Z</time></trkpt><trkpt lat="43.7783701" lon="12.4739166"><ele>238.0</ele><time>2026-04-25T13:18:53.413Z</time></trkpt><trkpt lat="43.7785101" lon="12.4740707"><ele>233.0</ele><time>2026-04-25T13:18:54.387Z</time></trkpt><trkpt lat="43.778659" lon="12.4742395"><ele>228.0</ele><time>2026-04-25T13:18:55.447Z</time></trkpt><trkpt lat="43.7787851" lon="12.4744066"><ele>223.0</ele><time>2026-04-25T13:18:56.466Z</time></trkpt><trkpt lat="43.7788768" lon="12.4745815"><ele>222.0</ele><time>2026-04-25T13:18:57.404Z</time></trkpt><trkpt lat="43.7789458" lon="12.4748239"><ele>221.0</ele><time>2026-04-25T13:18:58.454Z</time></trkpt><trkpt lat="43.7790007" lon="12.4750464"><ele>220.0</ele><time>2026-04-25T13:18:59.458Z</time></trkpt><trkpt lat="43.7790457" lon="12.4752581"><ele>219.5</ele><time>2026-04-25T13:19:00.465Z</time></trkpt><trkpt lat="43.7790861" lon="12.4754523"><ele>219.0</ele><time>2026-04-25T13:19:01.468Z</time></trkpt><trkpt lat="43.7791319" lon="12.4756318"><ele>218.5</ele><time>2026-04-25T13:19:02.5Z</time></trkpt><trkpt lat="43.7791752" lon="12.4758039"><ele>218.0</ele><time>2026-04-25T13:19:03.574Z</time></trkpt><trkpt lat="43.7792012" lon="12.4759262"><ele>218.0</ele><time>2026-04-25T13:19:04.503Z</time></trkpt><trkpt lat="43.7792189" lon="12.4760726"><ele>218.0</ele><time>2026-04-25T13:19:05.656Z</time></trkpt><trkpt lat="43.7791932" lon="12.4763784"><ele>218.0</ele><time>2026-04-25T13:19:07.612Z</time></trkpt><trkpt lat="43.7790952" lon="12.4767478"><ele>220.0</ele><time>2026-04-25T13:19:09.557Z</time></trkpt><trkpt lat="43.7790236" lon="12.4769345"><ele>222.0</ele><time>2026-04-25T13:19:10.52Z</time></trkpt><trkpt lat="43.7789279" lon="12.4771154"><ele>224.0</ele><time>2026-04-25T13:19:11.429Z</time></trkpt><trkpt lat="43.7788079" lon="12.4773347"><ele>226.33333333333334</ele><time>2026-04-25T13:19:12.47Z</time></trkpt><trkpt lat="43.7786931" lon="12.4775442"><ele>228.66666666666669</ele><time>2026-04-25T13:19:13.49Z</time></trkpt><trkpt lat="43.7785804" lon="12.4777475"><ele>231.0</ele><time>2026-04-25T13:19:14.473Z</time></trkpt><trkpt lat="43.7784968" lon="12.4779429"><ele>231.0</ele><time>2026-04-25T13:19:15.452Z</time></trkpt><trkpt lat="43.7784378" lon="12.4781636"><ele>231.0</ele><time>2026-04-25T13:19:16.451Z</time></trkpt><trkpt lat="43.7784023" lon="12.4784033"><ele>231.0</ele><time>2026-04-25T13:19:17.48Z</time></trkpt><trkpt lat="43.7783823" lon="12.4786444"><ele>230.33333333333331</ele><time>2026-04-25T13:19:18.544Z</time></trkpt><trkpt lat="43.7783916" lon="12.4788629"><ele>229.66666666666666</ele><time>2026-04-25T13:19:19.49Z</time></trkpt><trkpt lat="43.7784056" lon="12.4790987"><ele>229.0</ele><time>2026-04-25T13:19:20.455Z</time></trkpt><trkpt lat="43.7784257" lon="12.4793236"><ele>229.0</ele><time>2026-04-25T13:19:21.484Z</time></trkpt><trkpt lat="43.7784466" lon="12.4795368"><ele>229.0</ele><time>2026-04-25T13:19:22.505Z</time></trkpt><trkpt lat="43.7784889" lon="12.479737"><ele>229.0</ele><time>2026-04-25T13:19:23.472Z</time></trkpt><trkpt lat="43.7785575" lon="12.4799249"><ele>232.5</ele><time>2026-04-25T13:19:24.508Z</time></trkpt><trkpt lat="43.778635" lon="12.4800902"><ele>236.0</ele><time>2026-04-25T13:19:25.467Z</time></trkpt><trkpt lat="43.778728" lon="12.4802581"><ele>239.5</ele><time>2026-04-25T13:19:26.456Z</time></trkpt><trkpt lat="43.7788218" lon="12.4804263"><ele>243.0</ele><time>2026-04-25T13:19:27.447Z</time></trkpt><trkpt lat="43.7789187" lon="12.480608"><ele>243.0</ele><time>2026-04-25T13:19:28.486Z</time></trkpt><trkpt lat="43.7790074" lon="12.4807691"><ele>243.0</ele><time>2026-04-25T13:19:29.482Z</time></trkpt><trkpt lat="43.7790907" lon="12.4809217"><ele>243.0</ele><time>2026-04-25T13:19:30.46Z</time></trkpt><trkpt lat="43.7791813" lon="12.481086"><ele>243.0</ele><time>2026-04-25T13:19:31.492Z</time></trkpt><trkpt lat="43.7792742" lon="12.4812527"><ele>243.66666666666669</ele><time>2026-04-25T13:19:32.592Z</time></trkpt><trkpt lat="43.7794361" lon="12.4815419"><ele>244.33333333333334</ele><time>2026-04-25T13:19:34.475Z</time></trkpt><trkpt lat="43.7795191" lon="12.4816997"><ele>245.0</ele><time>2026-04-25T13:19:35.471Z</time></trkpt><trkpt lat="43.7796057" lon="12.4818605"><ele>245.0</ele><time>2026-04-25T13:19:36.485Z</time></trkpt><trkpt lat="43.7796847" lon="12.4820071"><ele>245.0</ele><time>2026-04-25T13:19:37.432Z</time></trkpt><trkpt lat="43.7797748" lon="12.4821757"><ele>245.0</ele><time>2026-04-25T13:19:38.513Z</time></trkpt><trkpt lat="43.779864" lon="12.482338"><ele>245.0</ele><time>2026-04-25T13:19:39.546Z</time></trkpt><trkpt lat="43.7800372" lon="12.4826214"><ele>244.75</ele><time>2026-04-25T13:19:41.432Z</time></trkpt><trkpt lat="43.7801359" lon="12.4827718"><ele>244.5</ele><time>2026-04-25T13:19:42.466Z</time></trkpt><trkpt lat="43.7802117" lon="12.4829275"><ele>244.25</ele><time>2026-04-25T13:19:43.447Z</time></trkpt><trkpt lat="43.7803041" lon="12.4830583"><ele>244.0</ele><time>2026-04-25T13:19:44.437Z</time></trkpt><trkpt lat="43.78043" lon="12.4831828"><ele>242.5</ele><time>2026-04-25T13:19:45.526Z</time></trkpt><trkpt lat="43.7805318" lon="12.4832687"><ele>241.0</ele><time>2026-04-25T13:19:46.434Z</time></trkpt><trkpt lat="43.7806608" lon="12.4833678"><ele>239.5</ele><time>2026-04-25T13:19:47.502Z</time></trkpt><trkpt lat="43.7807607" lon="12.483447"><ele>238.0</ele><time>2026-04-25T13:19:48.472Z</time></trkpt><trkpt lat="43.7808763" lon="12.4835286"><ele>238.0</ele><time>2026-04-25T13:19:49.467Z</time></trkpt><trkpt lat="43.7809785" lon="12.483604"><ele>238.0</ele><time>2026-04-25T13:19:50.452Z</time></trkpt><trkpt lat="43.7810806" lon="12.4836793"><ele>238.0</ele><time>2026-04-25T13:19:51.485Z</time></trkpt><trkpt lat="43.7811738" lon="12.4837501"><ele>238.0</ele><time>2026-04-25T13:19:52.502Z</time></trkpt><trkpt lat="43.78127" lon="12.4838278"><ele>238.0</ele><time>2026-04-25T13:19:53.504Z</time></trkpt><trkpt lat="43.7813821" lon="12.4839172"><ele>238.33333333333331</ele><time>2026-04-25T13:19:54.637Z</time></trkpt><trkpt lat="43.7815894" lon="12.484083"><ele>238.66666666666669</ele><time>2026-04-25T13:19:56.471Z</time></trkpt><trkpt lat="43.7817039" lon="12.4841695"><ele>239.0</ele><time>2026-04-25T13:19:57.424Z</time></trkpt><trkpt lat="43.7818375" lon="12.4842702"><ele>239.0</ele><time>2026-04-25T13:19:58.471Z</time></trkpt><trkpt lat="43.7819632" lon="12.4843657"><ele>239.0</ele><time>2026-04-25T13:19:59.457Z</time></trkpt><trkpt lat="43.7820947" lon="12.484469"><ele>239.0</ele><time>2026-04-25T13:20:00.463Z</time></trkpt><trkpt lat="43.7822159" lon="12.4845815"><ele>239.0</ele><time>2026-04-25T13:20:01.457Z</time></trkpt><trkpt lat="43.7823332" lon="12.4847068"><ele>238.5</ele><time>2026-04-25T13:20:02.477Z</time></trkpt><trkpt lat="43.7824485" lon="12.4848448"><ele>238.0</ele><time>2026-04-25T13:20:03.482Z</time></trkpt><trkpt lat="43.7825639" lon="12.4849947"><ele>237.5</ele><time>2026-04-25T13:20:04.571Z</time></trkpt><trkpt lat="43.7826616" lon="12.4851196"><ele>237.0</ele><time>2026-04-25T13:20:05.476Z</time></trkpt><trkpt lat="43.7827725" lon="12.4852601"><ele>237.0</ele><time>2026-04-25T13:20:06.462Z</time></trkpt><trkpt lat="43.7828861" lon="12.4853988"><ele>237.0</ele><time>2026-04-25T13:20:07.473Z</time></trkpt><trkpt lat="43.7829974" lon="12.4855392"><ele>237.0</ele><time>2026-04-25T13:20:08.495Z</time></trkpt><trkpt lat="43.7831041" lon="12.4856708"><ele>237.0</ele><time>2026-04-25T13:20:09.454Z</time></trkpt><trkpt lat="43.7832181" lon="12.4858151"><ele>236.66666666666669</ele><time>2026-04-25T13:20:10.464Z</time></trkpt><trkpt lat="43.7833348" lon="12.4859636"><ele>236.33333333333334</ele><time>2026-04-25T13:20:11.5Z</time></trkpt><trkpt lat="43.7834463" lon="12.4860991"><ele>236.0</ele><time>2026-04-25T13:20:12.459Z</time></trkpt><trkpt lat="43.7835712" lon="12.4862553"><ele>236.0</ele><time>2026-04-25T13:20:13.538Z</time></trkpt><trkpt lat="43.7836784" lon="12.4863906"><ele>236.0</ele><time>2026-04-25T13:20:14.459Z</time></trkpt><trkpt lat="43.7838075" lon="12.4865575"><ele>236.0</ele><time>2026-04-25T13:20:15.565Z</time></trkpt><trkpt lat="43.7839173" lon="12.4866945"><ele>236.0</ele><time>2026-04-25T13:20:16.477Z</time></trkpt><trkpt lat="43.7840332" lon="12.4868377"><ele>236.0</ele><time>2026-04-25T13:20:17.433Z</time></trkpt><trkpt lat="43.7841536" lon="12.486984"><ele>236.0</ele><time>2026-04-25T13:20:18.408Z</time></trkpt><trkpt lat="43.7842893" lon="12.4871486"><ele>235.33333333333334</ele><time>2026-04-25T13:20:19.493Z</time></trkpt><trkpt lat="43.7844121" lon="12.4872995"><ele>234.66666666666669</ele><time>2026-04-25T13:20:20.467Z</time></trkpt><trkpt lat="43.784543" lon="12.4874617"><ele>234.0</ele><time>2026-04-25T13:20:21.506Z</time></trkpt><trkpt lat="43.7846665" lon="12.4876167"><ele>234.0</ele><time>2026-04-25T13:20:22.479Z</time></trkpt><trkpt lat="43.7847981" lon="12.4877794"><ele>234.0</ele><time>2026-04-25T13:20:23.508Z</time></trkpt><trkpt lat="43.7849269" lon="12.4879371"><ele>234.0</ele><time>2026-04-25T13:20:24.519Z</time></trkpt><trkpt lat="43.7850445" lon="12.4880816"><ele>233.33333333333331</ele><time>2026-04-25T13:20:25.456Z</time></trkpt><trkpt lat="43.7851694" lon="12.4882378"><ele>232.66666666666666</ele><time>2026-04-25T13:20:26.482Z</time></trkpt><trkpt lat="43.7852964" lon="12.4883983"><ele>232.0</ele><time>2026-04-25T13:20:27.551Z</time></trkpt><trkpt lat="43.7854027" lon="12.4885353"><ele>230.66666666666666</ele><time>2026-04-25T13:20:28.468Z</time></trkpt><trkpt lat="43.7855194" lon="12.488681"><ele>229.33333333333331</ele><time>2026-04-25T13:20:29.479Z</time></trkpt><trkpt lat="43.7856409" lon="12.4888311"><ele>228.0</ele><time>2026-04-25T13:20:30.521Z</time></trkpt><trkpt lat="43.7857571" lon="12.4889742"><ele>228.0</ele><time>2026-04-25T13:20:31.524Z</time></trkpt><trkpt lat="43.7858683" lon="12.4891115"><ele>228.0</ele><time>2026-04-25T13:20:32.488Z</time></trkpt><trkpt lat="43.7859851" lon="12.4892518"><ele>228.0</ele><time>2026-04-25T13:20:33.54Z</time></trkpt><trkpt lat="43.786083" lon="12.489375"><ele>228.0</ele><time>2026-04-25T13:20:34.497Z</time></trkpt><trkpt lat="43.7861797" lon="12.4895014"><ele>227.33333333333331</ele><time>2026-04-25T13:20:35.468Z</time></trkpt><trkpt lat="43.786295" lon="12.4896427"><ele>226.66666666666666</ele><time>2026-04-25T13:20:36.542Z</time></trkpt><trkpt lat="43.7864196" lon="12.4897762"><ele>226.0</ele><time>2026-04-25T13:20:37.599Z</time></trkpt><trkpt lat="43.7866846" lon="12.4899749"><ele>226.0</ele><time>2026-04-25T13:20:39.534Z</time></trkpt><trkpt lat="43.7868113" lon="12.4900465"><ele>226.0</ele><time>2026-04-25T13:20:40.451Z</time></trkpt><trkpt lat="43.7869479" lon="12.4901203"><ele>226.0</ele><time>2026-04-25T13:20:41.519Z</time></trkpt><trkpt lat="43.7870656" lon="12.4901909"><ele>226.0</ele><time>2026-04-25T13:20:42.59Z</time></trkpt><trkpt lat="43.7871979" lon="12.4903648"><ele>225.60000000000002</ele><time>2026-04-25T13:20:44.501Z</time></trkpt><trkpt lat="43.7872175" lon="12.4904846"><ele>225.20000000000002</ele><time>2026-04-25T13:20:45.51Z</time></trkpt><trkpt lat="43.7872309" lon="12.490622"><ele>224.79999999999998</ele><time>2026-04-25T13:20:46.599Z</time></trkpt><trkpt lat="43.7872607" lon="12.4907334"><ele>224.39999999999998</ele><time>2026-04-25T13:20:47.508Z</time></trkpt><trkpt lat="43.7873244" lon="12.4908174"><ele>224.0</ele><time>2026-04-25T13:20:48.535Z</time></trkpt><trkpt lat="43.7874163" lon="12.4908611"><ele>224.0</ele><time>2026-04-25T13:20:49.483Z</time></trkpt><trkpt lat="43.7875323" lon="12.4908816"><ele>224.0</ele><time>2026-04-25T13:20:50.483Z</time></trkpt><trkpt lat="43.787653" lon="12.4908995"><ele>224.0</ele><time>2026-04-25T13:20:51.451Z</time></trkpt><trkpt lat="43.7877715" lon="12.4909658"><ele>224.0</ele><time>2026-04-25T13:20:52.431Z</time></trkpt><trkpt lat="43.7878973" lon="12.4910815"><ele>224.66666666666669</ele><time>2026-04-25T13:20:53.519Z</time></trkpt><trkpt lat="43.7880146" lon="12.4911888"><ele>225.33333333333331</ele><time>2026-04-25T13:20:54.471Z</time></trkpt><trkpt lat="43.7881499" lon="12.4912909"><ele>226.0</ele><time>2026-04-25T13:20:55.467Z</time></trkpt><trkpt lat="43.7882942" lon="12.491376"><ele>226.0</ele><time>2026-04-25T13:20:56.497Z</time></trkpt><trkpt lat="43.7884284" lon="12.4914435"><ele>226.0</ele><time>2026-04-25T13:20:57.457Z</time></trkpt><trkpt lat="43.7885823" lon="12.4915172"><ele>226.0</ele><time>2026-04-25T13:20:58.511Z</time></trkpt><trkpt lat="43.788719" lon="12.4915911"><ele>226.0</ele><time>2026-04-25T13:20:59.455Z</time></trkpt><trkpt lat="43.7888775" lon="12.4916704"><ele>226.0</ele><time>2026-04-25T13:21:00.539Z</time></trkpt><trkpt lat="43.7890296" lon="12.491737"><ele>226.0</ele><time>2026-04-25T13:21:01.565Z</time></trkpt><trkpt lat="43.78918" lon="12.4917876"><ele>226.0</ele><time>2026-04-25T13:21:02.573Z</time></trkpt><trkpt lat="43.7893373" lon="12.4918257"><ele>226.0</ele><time>2026-04-25T13:21:03.591Z</time></trkpt><trkpt lat="43.7896665" lon="12.4918844"><ele>225.0</ele><time>2026-04-25T13:21:05.643Z</time></trkpt><trkpt lat="43.7899517" lon="12.4919349"><ele>224.0</ele><time>2026-04-25T13:21:07.445Z</time></trkpt><trkpt lat="43.7901351" lon="12.4919672"><ele>222.0</ele><time>2026-04-25T13:21:08.601Z</time></trkpt><trkpt lat="43.7904394" lon="12.4920251"><ele>220.0</ele><time>2026-04-25T13:21:10.498Z</time></trkpt><trkpt lat="43.7905969" lon="12.4920574"><ele>220.0</ele><time>2026-04-25T13:21:11.483Z</time></trkpt><trkpt lat="43.7907637" lon="12.4920901"><ele>220.0</ele><time>2026-04-25T13:21:12.519Z</time></trkpt><trkpt lat="43.7909277" lon="12.4921183"><ele>220.0</ele><time>2026-04-25T13:21:13.538Z</time></trkpt><trkpt lat="43.7910854" lon="12.4921515"><ele>220.0</ele><time>2026-04-25T13:21:14.512Z</time></trkpt><trkpt lat="43.7912461" lon="12.4921812"><ele>220.0</ele><time>2026-04-25T13:21:15.498Z</time></trkpt><trkpt lat="43.7914016" lon="12.4922094"><ele>220.0</ele><time>2026-04-25T13:21:16.477Z</time></trkpt><trkpt lat="43.7915588" lon="12.4922387"><ele>220.0</ele><time>2026-04-25T13:21:17.473Z</time></trkpt><trkpt lat="43.791716" lon="12.4922681"><ele>220.0</ele><time>2026-04-25T13:21:18.453Z</time></trkpt><trkpt lat="43.7918895" lon="12.4923005"><ele>220.0</ele><time>2026-04-25T13:21:19.523Z</time></trkpt><trkpt lat="43.7920664" lon="12.492329"><ele>219.66666666666666</ele><time>2026-04-25T13:21:20.589Z</time></trkpt><trkpt lat="43.7922165" lon="12.4923536"><ele>219.33333333333331</ele><time>2026-04-25T13:21:21.5Z</time></trkpt><trkpt lat="43.792399" lon="12.4923837"><ele>219.0</ele><time>2026-04-25T13:21:22.622Z</time></trkpt><trkpt lat="43.7926711" lon="12.4924235"><ele>218.0</ele><time>2026-04-25T13:21:24.438Z</time></trkpt><trkpt lat="43.7928088" lon="12.4924442"><ele>217.0</ele><time>2026-04-25T13:21:25.455Z</time></trkpt><trkpt lat="43.7929327" lon="12.4924608"><ele>216.0</ele><time>2026-04-25T13:21:26.37Z</time></trkpt><trkpt lat="43.7930799" lon="12.4924871"><ele>215.0</ele><time>2026-04-25T13:21:27.361Z</time></trkpt><trkpt lat="43.7932344" lon="12.4925234"><ele>215.0</ele><time>2026-04-25T13:21:28.342Z</time></trkpt><trkpt lat="43.7934181" lon="12.4925618"><ele>215.0</ele><time>2026-04-25T13:21:29.419Z</time></trkpt><trkpt lat="43.7935851" lon="12.4925935"><ele>215.0</ele><time>2026-04-25T13:21:30.346Z</time></trkpt><trkpt lat="43.7937742" lon="12.4926269"><ele>213.66666666666669</ele><time>2026-04-25T13:21:31.349Z</time></trkpt><trkpt lat="43.793963" lon="12.4926593"><ele>212.33333333333331</ele><time>2026-04-25T13:21:32.309Z</time></trkpt><trkpt lat="43.7941682" lon="12.4926972"><ele>211.0</ele><time>2026-04-25T13:21:33.33Z</time></trkpt><trkpt lat="43.7943648" lon="12.4927324"><ele>211.0</ele><time>2026-04-25T13:21:34.321Z</time></trkpt><trkpt lat="43.7945559" lon="12.4927651"><ele>211.0</ele><time>2026-04-25T13:21:35.326Z</time></trkpt><trkpt lat="43.7947578" lon="12.492802"><ele>211.0</ele><time>2026-04-25T13:21:36.388Z</time></trkpt><trkpt lat="43.7949375" lon="12.4928311"><ele>211.0</ele><time>2026-04-25T13:21:37.348Z</time></trkpt><trkpt lat="43.79512" lon="12.492858"><ele>211.0</ele><time>2026-04-25T13:21:38.321Z</time></trkpt><trkpt lat="43.7953169" lon="12.4928881"><ele>211.0</ele><time>2026-04-25T13:21:39.397Z</time></trkpt><trkpt lat="43.7954869" lon="12.4929206"><ele>209.66666666666666</ele><time>2026-04-25T13:21:40.35Z</time></trkpt><trkpt lat="43.7956555" lon="12.49296"><ele>208.33333333333331</ele><time>2026-04-25T13:21:41.337Z</time></trkpt><trkpt lat="43.7958173" lon="12.4930134"><ele>207.0</ele><time>2026-04-25T13:21:42.332Z</time></trkpt><trkpt lat="43.7959794" lon="12.4930831"><ele>207.33333333333331</ele><time>2026-04-25T13:21:43.361Z</time></trkpt><trkpt lat="43.7961243" lon="12.4931582"><ele>207.66666666666666</ele><time>2026-04-25T13:21:44.309Z</time></trkpt><trkpt lat="43.7962732" lon="12.4932462"><ele>208.0</ele><time>2026-04-25T13:21:45.327Z</time></trkpt><trkpt lat="43.7964118" lon="12.4933323"><ele>208.0</ele><time>2026-04-25T13:21:46.321Z</time></trkpt><trkpt lat="43.7965488" lon="12.493416"><ele>208.0</ele><time>2026-04-25T13:21:47.345Z</time></trkpt><trkpt lat="43.796671" lon="12.4934921"><ele>208.0</ele><time>2026-04-25T13:21:48.3Z</time></trkpt><trkpt lat="43.7968028" lon="12.493564"><ele>208.0</ele><time>2026-04-25T13:21:49.359Z</time></trkpt><trkpt lat="43.7969244" lon="12.4935999"><ele>207.5</ele><time>2026-04-25T13:21:50.318Z</time></trkpt><trkpt lat="43.7970757" lon="12.4935983"><ele>207.0</ele><time>2026-04-25T13:21:51.47Z</time></trkpt><trkpt lat="43.7971961" lon="12.4935686"><ele>206.5</ele><time>2026-04-25T13:21:52.41Z</time></trkpt><trkpt lat="43.7973215" lon="12.4935325"><ele>206.0</ele><time>2026-04-25T13:21:53.418Z</time></trkpt><trkpt lat="43.7974457" lon="12.4935135"><ele>206.33333333333334</ele><time>2026-04-25T13:21:54.438Z</time></trkpt><trkpt lat="43.7976785" lon="12.4935447"><ele>206.66666666666669</ele><time>2026-04-25T13:21:56.389Z</time></trkpt><trkpt lat="43.7977913" lon="12.4935849"><ele>207.0</ele><time>2026-04-25T13:21:57.356Z</time></trkpt><trkpt lat="43.7978972" lon="12.4936432"><ele>207.0</ele><time>2026-04-25T13:21:58.322Z</time></trkpt><trkpt lat="43.7980089" lon="12.4937131"><ele>207.0</ele><time>2026-04-25T13:21:59.372Z</time></trkpt><trkpt lat="43.7981115" lon="12.4937956"><ele>207.0</ele><time>2026-04-25T13:22:00.365Z</time></trkpt><trkpt lat="43.798213" lon="12.4939008"><ele>207.0</ele><time>2026-04-25T13:22:01.433Z</time></trkpt><trkpt lat="43.7983" lon="12.4940232"><ele>205.75</ele><time>2026-04-25T13:22:02.447Z</time></trkpt><trkpt lat="43.7983765" lon="12.4941557"><ele>204.5</ele><time>2026-04-25T13:22:03.426Z</time></trkpt><trkpt lat="43.7984389" lon="12.4943024"><ele>203.25</ele><time>2026-04-25T13:22:04.396Z</time></trkpt><trkpt lat="43.7984902" lon="12.4944706"><ele>202.0</ele><time>2026-04-25T13:22:05.437Z</time></trkpt><trkpt lat="43.7985318" lon="12.4946374"><ele>202.0</ele><time>2026-04-25T13:22:06.477Z</time></trkpt><trkpt lat="43.7985714" lon="12.4947975"><ele>202.0</ele><time>2026-04-25T13:22:07.501Z</time></trkpt><trkpt lat="43.7986101" lon="12.4949465"><ele>202.0</ele><time>2026-04-25T13:22:08.484Z</time></trkpt><trkpt lat="43.7986588" lon="12.4950945"><ele>202.0</ele><time>2026-04-25T13:22:09.474Z</time></trkpt><trkpt lat="43.7987265" lon="12.4952392"><ele>202.0</ele><time>2026-04-25T13:22:10.497Z</time></trkpt><trkpt lat="43.7988058" lon="12.4953583"><ele>202.0</ele><time>2026-04-25T13:22:11.464Z</time></trkpt><trkpt lat="43.7988953" lon="12.4954564"><ele>202.0</ele><time>2026-04-25T13:22:12.449Z</time></trkpt><trkpt lat="43.7989796" lon="12.4955399"><ele>202.0</ele><time>2026-04-25T13:22:13.398Z</time></trkpt><trkpt lat="43.7990673" lon="12.4956243"><ele>202.0</ele><time>2026-04-25T13:22:14.388Z</time></trkpt><trkpt lat="43.799163" lon="12.4957147"><ele>201.25</ele><time>2026-04-25T13:22:15.409Z</time></trkpt><trkpt lat="43.7992533" lon="12.4957971"><ele>200.5</ele><time>2026-04-25T13:22:16.35Z</time></trkpt><trkpt lat="43.7993624" lon="12.4958909"><ele>199.75</ele><time>2026-04-25T13:22:17.414Z</time></trkpt><trkpt lat="43.7994666" lon="12.4959804"><ele>199.0</ele><time>2026-04-25T13:22:18.376Z</time></trkpt><trkpt lat="43.799585" lon="12.4960829"><ele>199.0</ele><time>2026-04-25T13:22:19.397Z</time></trkpt><trkpt lat="43.799703" lon="12.4961821"><ele>199.0</ele><time>2026-04-25T13:22:20.4Z</time></trkpt><trkpt lat="43.799818" lon="12.4962796"><ele>199.0</ele><time>2026-04-25T13:22:21.414Z</time></trkpt><trkpt lat="43.799939" lon="12.4963866"><ele>199.0</ele><time>2026-04-25T13:22:22.564Z</time></trkpt><trkpt lat="43.8000378" lon="12.496473"><ele>199.0</ele><time>2026-04-25T13:22:23.494Z</time></trkpt><trkpt lat="43.80014" lon="12.4965611"><ele>199.0</ele><time>2026-04-25T13:22:24.456Z</time></trkpt><trkpt lat="43.8002409" lon="12.496648"><ele>199.0</ele><time>2026-04-25T13:22:25.404Z</time></trkpt><trkpt lat="43.8003482" lon="12.4967422"><ele>199.0</ele><time>2026-04-25T13:22:26.445Z</time></trkpt><trkpt lat="43.800449" lon="12.4968301"><ele>199.0</ele><time>2026-04-25T13:22:27.428Z</time></trkpt><trkpt lat="43.800564" lon="12.4969319"><ele>199.0</ele><time>2026-04-25T13:22:28.521Z</time></trkpt><trkpt lat="43.8008069" lon="12.4971391"><ele>199.0</ele><time>2026-04-25T13:22:30.42Z</time></trkpt><trkpt lat="43.800939" lon="12.4972613"><ele>199.0</ele><time>2026-04-25T13:22:31.362Z</time></trkpt><trkpt lat="43.8010858" lon="12.4973967"><ele>199.0</ele><time>2026-04-25T13:22:32.332Z</time></trkpt><trkpt lat="43.8012493" lon="12.4975451"><ele>199.0</ele><time>2026-04-25T13:22:33.342Z</time></trkpt><trkpt lat="43.8014112" lon="12.4976879"><ele>199.0</ele><time>2026-04-25T13:22:34.345Z</time></trkpt><trkpt lat="43.8015966" lon="12.497848"><ele>199.0</ele><time>2026-04-25T13:22:35.463Z</time></trkpt><trkpt lat="43.8017576" lon="12.4979867"><ele>199.0</ele><time>2026-04-25T13:22:36.421Z</time></trkpt><trkpt lat="43.8019359" lon="12.4981411"><ele>197.0</ele><time>2026-04-25T13:22:37.47Z</time></trkpt><trkpt lat="43.8021115" lon="12.4982959"><ele>195.0</ele><time>2026-04-25T13:22:38.479Z</time></trkpt><trkpt lat="43.8022802" lon="12.498444"><ele>193.0</ele><time>2026-04-25T13:22:39.437Z</time></trkpt><trkpt lat="43.8024554" lon="12.4985955"><ele>193.5</ele><time>2026-04-25T13:22:40.422Z</time></trkpt><trkpt lat="43.8026504" lon="12.4987652"><ele>194.0</ele><time>2026-04-25T13:22:41.537Z</time></trkpt><trkpt lat="43.8029819" lon="12.4990611"><ele>194.0</ele><time>2026-04-25T13:22:43.518Z</time></trkpt><trkpt lat="43.8031448" lon="12.499207"><ele>194.0</ele><time>2026-04-25T13:22:44.509Z</time></trkpt><trkpt lat="43.8033077" lon="12.4993531"><ele>194.0</ele><time>2026-04-25T13:22:45.507Z</time></trkpt><trkpt lat="43.803464" lon="12.4994936"><ele>192.33333333333334</ele><time>2026-04-25T13:22:46.47Z</time></trkpt><trkpt lat="43.803614" lon="12.499631"><ele>190.66666666666669</ele><time>2026-04-25T13:22:47.423Z</time></trkpt><trkpt lat="43.8037618" lon="12.4997687"><ele>189.0</ele><time>2026-04-25T13:22:48.419Z</time></trkpt><trkpt lat="43.8039083" lon="12.4999034"><ele>189.0</ele><time>2026-04-25T13:22:49.444Z</time></trkpt><trkpt lat="43.8040428" lon="12.5000211"><ele>189.0</ele><time>2026-04-25T13:22:50.414Z</time></trkpt><trkpt lat="43.804206" lon="12.5001484"><ele>189.0</ele><time>2026-04-25T13:22:51.587Z</time></trkpt><trkpt lat="43.8044842" lon="12.5003258"><ele>189.25</ele><time>2026-04-25T13:22:53.524Z</time></trkpt><trkpt lat="43.8046247" lon="12.5003969"><ele>189.5</ele><time>2026-04-25T13:22:54.5Z</time></trkpt><trkpt lat="43.8047511" lon="12.5004538"><ele>189.75</ele><time>2026-04-25T13:22:55.425Z</time></trkpt><trkpt lat="43.8048824" lon="12.5005102"><ele>190.0</ele><time>2026-04-25T13:22:56.45Z</time></trkpt><trkpt lat="43.805001" lon="12.5005645"><ele>189.0</ele><time>2026-04-25T13:22:57.409Z</time></trkpt><trkpt lat="43.8051391" lon="12.5006234"><ele>188.0</ele><time>2026-04-25T13:22:58.497Z</time></trkpt><trkpt lat="43.8052646" lon="12.5006758"><ele>187.0</ele><time>2026-04-25T13:22:59.532Z</time></trkpt><trkpt lat="43.8053796" lon="12.5007225"><ele>186.0</ele><time>2026-04-25T13:23:00.511Z</time></trkpt><trkpt lat="43.805495" lon="12.5007605"><ele>186.0</ele><time>2026-04-25T13:23:01.541Z</time></trkpt><trkpt lat="43.8056038" lon="12.5007849"><ele>186.0</ele><time>2026-04-25T13:23:02.526Z</time></trkpt><trkpt lat="43.8057328" lon="12.50078"><ele>186.0</ele><time>2026-04-25T13:23:03.621Z</time></trkpt><trkpt lat="43.8058531" lon="12.5007659"><ele>186.0</ele><time>2026-04-25T13:23:04.555Z</time></trkpt><trkpt lat="43.8059926" lon="12.5007296"><ele>187.33333333333334</ele><time>2026-04-25T13:23:05.553Z</time></trkpt><trkpt lat="43.8061282" lon="12.5007086"><ele>188.66666666666669</ele><time>2026-04-25T13:23:06.487Z</time></trkpt><trkpt lat="43.8062843" lon="12.5006937"><ele>190.0</ele><time>2026-04-25T13:23:07.47Z</time></trkpt><trkpt lat="43.8064617" lon="12.5006463"><ele>190.0</ele><time>2026-04-25T13:23:08.501Z</time></trkpt><trkpt lat="43.8066027" lon="12.5006174"><ele>190.0</ele><time>2026-04-25T13:23:09.489Z</time></trkpt><trkpt lat="43.8067394" lon="12.5005836"><ele>190.0</ele><time>2026-04-25T13:23:10.467Z</time></trkpt><trkpt lat="43.8068783" lon="12.5005691"><ele>190.0</ele><time>2026-04-25T13:23:11.475Z</time></trkpt><trkpt lat="43.8070314" lon="12.5006045"><ele>194.0</ele><time>2026-04-25T13:23:12.59Z</time></trkpt><trkpt lat="43.807296" lon="12.5007782"><ele>198.0</ele><time>2026-04-25T13:23:14.449Z</time></trkpt><trkpt lat="43.8074356" lon="12.5008959"><ele>198.0</ele><time>2026-04-25T13:23:15.461Z</time></trkpt><trkpt lat="43.8075798" lon="12.5010125"><ele>198.0</ele><time>2026-04-25T13:23:16.437Z</time></trkpt><trkpt lat="43.807728" lon="12.5011416"><ele>198.0</ele><time>2026-04-25T13:23:17.479Z</time></trkpt><trkpt lat="43.8078737" lon="12.5012542"><ele>196.25</ele><time>2026-04-25T13:23:18.578Z</time></trkpt><trkpt lat="43.8080006" lon="12.5013431"><ele>194.5</ele><time>2026-04-25T13:23:19.504Z</time></trkpt><trkpt lat="43.8081139" lon="12.5014094"><ele>192.75</ele><time>2026-04-25T13:23:20.492Z</time></trkpt><trkpt lat="43.80824" lon="12.5014803"><ele>191.0</ele><time>2026-04-25T13:23:21.482Z</time></trkpt><trkpt lat="43.8083816" lon="12.5015691"><ele>193.75</ele><time>2026-04-25T13:23:22.568Z</time></trkpt><trkpt lat="43.8085112" lon="12.5016541"><ele>196.5</ele><time>2026-04-25T13:23:23.508Z</time></trkpt><trkpt lat="43.8086141" lon="12.5017803"><ele>199.25</ele><time>2026-04-25T13:23:24.459Z</time></trkpt><trkpt lat="43.8087003" lon="12.5019423"><ele>202.0</ele><time>2026-04-25T13:23:25.458Z</time></trkpt><trkpt lat="43.8087737" lon="12.5020854"><ele>202.0</ele><time>2026-04-25T13:23:26.407Z</time></trkpt><trkpt lat="43.8088454" lon="12.5022669"><ele>202.0</ele><time>2026-04-25T13:23:27.464Z</time></trkpt><trkpt lat="43.8089016" lon="12.5024456"><ele>202.0</ele><time>2026-04-25T13:23:28.487Z</time></trkpt><trkpt lat="43.8089504" lon="12.502634"><ele>202.0</ele><time>2026-04-25T13:23:29.476Z</time></trkpt><trkpt lat="43.8089843" lon="12.502807"><ele>200.66666666666666</ele><time>2026-04-25T13:23:30.398Z</time></trkpt><trkpt lat="43.8090248" lon="12.5030183"><ele>199.33333333333331</ele><time>2026-04-25T13:23:31.45Z</time></trkpt><trkpt lat="43.8090598" lon="12.5032175"><ele>198.0</ele><time>2026-04-25T13:23:32.432Z</time></trkpt><trkpt lat="43.8090933" lon="12.5034159"><ele>198.0</ele><time>2026-04-25T13:23:33.436Z</time></trkpt><trkpt lat="43.8091255" lon="12.5036168"><ele>198.0</ele><time>2026-04-25T13:23:34.417Z</time></trkpt><trkpt lat="43.8091547" lon="12.5038099"><ele>198.0</ele><time>2026-04-25T13:23:35.448Z</time></trkpt><trkpt lat="43.8091813" lon="12.5039917"><ele>198.0</ele><time>2026-04-25T13:23:36.461Z</time></trkpt><trkpt lat="43.8091989" lon="12.5041659"><ele>198.0</ele><time>2026-04-25T13:23:37.447Z</time></trkpt><trkpt lat="43.8092141" lon="12.5043445"><ele>198.0</ele><time>2026-04-25T13:23:38.52Z</time></trkpt><trkpt lat="43.8092243" lon="12.504482"><ele>198.0</ele><time>2026-04-25T13:23:39.479Z</time></trkpt><trkpt lat="43.8092323" lon="12.5046138"><ele>198.0</ele><time>2026-04-25T13:23:40.5Z</time></trkpt><trkpt lat="43.8092504" lon="12.5047362"><ele>198.0</ele><time>2026-04-25T13:23:41.48Z</time></trkpt><trkpt lat="43.8092854" lon="12.5048522"><ele>200.0</ele><time>2026-04-25T13:23:42.418Z</time></trkpt><trkpt lat="43.8093331" lon="12.5049817"><ele>202.0</ele><time>2026-04-25T13:23:43.521Z</time></trkpt><trkpt lat="43.8093943" lon="12.5050716"><ele>204.0</ele><time>2026-04-25T13:23:44.624Z</time></trkpt><trkpt lat="43.8094539" lon="12.5051405"><ele>206.0</ele><time>2026-04-25T13:23:45.563Z</time></trkpt><trkpt lat="43.8095399" lon="12.5052022"><ele>208.0</ele><time>2026-04-25T13:23:46.501Z</time></trkpt><trkpt lat="43.8096438" lon="12.5052585"><ele>208.0</ele><time>2026-04-25T13:23:47.495Z</time></trkpt><trkpt lat="43.8097387" lon="12.5053093"><ele>208.0</ele><time>2026-04-25T13:23:48.496Z</time></trkpt><trkpt lat="43.8098132" lon="12.5053531"><ele>208.0</ele><time>2026-04-25T13:23:49.489Z</time></trkpt><trkpt lat="43.809883" lon="12.5054694"><ele>208.0</ele><time>2026-04-25T13:23:51.582Z</time></trkpt><trkpt lat="43.8098705" lon="12.5056461"><ele>208.0</ele><time>2026-04-25T13:23:53.503Z</time></trkpt><trkpt lat="43.8098575" lon="12.5057599"><ele>207.25</ele><time>2026-04-25T13:23:54.443Z</time></trkpt><trkpt lat="43.8098375" lon="12.5058969"><ele>206.5</ele><time>2026-04-25T13:23:55.444Z</time></trkpt><trkpt lat="43.809814" lon="12.5060536"><ele>205.75</ele><time>2026-04-25T13:23:56.461Z</time></trkpt><trkpt lat="43.809781" lon="12.5062417"><ele>205.0</ele><time>2026-04-25T13:23:57.595Z</time></trkpt><trkpt lat="43.809742" lon="12.5064198"><ele>204.33333333333331</ele><time>2026-04-25T13:23:58.618Z</time></trkpt><trkpt lat="43.8096714" lon="12.5067358"><ele>203.66666666666669</ele><time>2026-04-25T13:24:00.492Z</time></trkpt><trkpt lat="43.8096315" lon="12.5069034"><ele>203.0</ele><time>2026-04-25T13:24:01.456Z</time></trkpt><trkpt lat="43.8095895" lon="12.5070839"><ele>202.33333333333334</ele><time>2026-04-25T13:24:02.472Z</time></trkpt><trkpt lat="43.8095469" lon="12.5072783"><ele>201.66666666666669</ele><time>2026-04-25T13:24:03.606Z</time></trkpt><trkpt lat="43.8094859" lon="12.5075681"><ele>201.0</ele><time>2026-04-25T13:24:05.478Z</time></trkpt><trkpt lat="43.8094547" lon="12.5076922"><ele>201.0</ele><time>2026-04-25T13:24:06.486Z</time></trkpt><trkpt lat="43.8094214" lon="12.5078087"><ele>201.0</ele><time>2026-04-25T13:24:07.532Z</time></trkpt><trkpt lat="43.8093958" lon="12.5079028"><ele>201.0</ele><time>2026-04-25T13:24:08.496Z</time></trkpt><trkpt lat="43.8093818" lon="12.5079923"><ele>201.0</ele><time>2026-04-25T13:24:09.45Z</time></trkpt><trkpt lat="43.8093875" lon="12.5080863"><ele>201.0</ele><time>2026-04-25T13:24:10.491Z</time></trkpt><trkpt lat="43.8094114" lon="12.508171"><ele>201.0</ele><time>2026-04-25T13:24:11.489Z</time></trkpt><trkpt lat="43.8094533" lon="12.508262"><ele>201.0</ele><time>2026-04-25T13:24:12.539Z</time></trkpt><trkpt lat="43.8095115" lon="12.5083374"><ele>200.33333333333334</ele><time>2026-04-25T13:24:13.474Z</time></trkpt><trkpt lat="43.8095835" lon="12.5084171"><ele>199.66666666666669</ele><time>2026-04-25T13:24:14.455Z</time></trkpt><trkpt lat="43.8096569" lon="12.5084972"><ele>199.0</ele><time>2026-04-25T13:24:15.541Z</time></trkpt><trkpt lat="43.80971" lon="12.5085676"><ele>198.33333333333334</ele><time>2026-04-25T13:24:16.461Z</time></trkpt><trkpt lat="43.809761" lon="12.5086467"><ele>197.66666666666669</ele><time>2026-04-25T13:24:17.432Z</time></trkpt><trkpt lat="43.8098107" lon="12.5087351"><ele>197.0</ele><time>2026-04-25T13:24:18.477Z</time></trkpt><trkpt lat="43.8098614" lon="12.5088223"><ele>195.0</ele><time>2026-04-25T13:24:19.565Z</time></trkpt><trkpt lat="43.8099041" lon="12.5088986"><ele>193.0</ele><time>2026-04-25T13:24:20.488Z</time></trkpt><trkpt lat="43.8099564" lon="12.5090019"><ele>191.0</ele><time>2026-04-25T13:24:21.705Z</time></trkpt><trkpt lat="43.8100262" lon="12.5091535"><ele>189.0</ele><time>2026-04-25T13:24:23.444Z</time></trkpt><trkpt lat="43.8100727" lon="12.5092492"><ele>187.0</ele><time>2026-04-25T13:24:24.48Z</time></trkpt><trkpt lat="43.8101225" lon="12.5093387"><ele>186.5</ele><time>2026-04-25T13:24:25.449Z</time></trkpt><trkpt lat="43.8101844" lon="12.5094257"><ele>186.0</ele><time>2026-04-25T13:24:26.415Z</time></trkpt><trkpt lat="43.8102623" lon="12.5095161"><ele>185.5</ele><time>2026-04-25T13:24:27.445Z</time></trkpt><trkpt lat="43.8103479" lon="12.509606"><ele>185.0</ele><time>2026-04-25T13:24:28.601Z</time></trkpt><trkpt lat="43.8104843" lon="12.5097538"><ele>185.0</ele><time>2026-04-25T13:24:30.593Z</time></trkpt><trkpt lat="43.8105486" lon="12.5098208"><ele>185.0</ele><time>2026-04-25T13:24:31.545Z</time></trkpt><trkpt lat="43.8106098" lon="12.5098856"><ele>185.0</ele><time>2026-04-25T13:24:32.476Z</time></trkpt><trkpt lat="43.8106733" lon="12.5099641"><ele>185.0</ele><time>2026-04-25T13:24:33.521Z</time></trkpt><trkpt lat="43.8107214" lon="12.5100283"><ele>185.0</ele><time>2026-04-25T13:24:34.485Z</time></trkpt><trkpt lat="43.8107729" lon="12.510099"><ele>185.0</ele><time>2026-04-25T13:24:35.486Z</time></trkpt><trkpt lat="43.8108228" lon="12.5101707"><ele>184.99999999999997</ele><time>2026-04-25T13:24:36.428Z</time></trkpt><trkpt lat="43.8108804" lon="12.5102456"><ele>185.0</ele><time>2026-04-25T13:24:37.506Z</time></trkpt><trkpt lat="43.8109325" lon="12.510311"><ele>185.0</ele><time>2026-04-25T13:24:38.515Z</time></trkpt><trkpt lat="43.8109856" lon="12.5103778"><ele>185.0</ele><time>2026-04-25T13:24:39.454Z</time></trkpt><trkpt lat="43.8110427" lon="12.5104451"><ele>185.0</ele><time>2026-04-25T13:24:40.474Z</time></trkpt><trkpt lat="43.8111026" lon="12.5105051"><ele>184.99999999999997</ele><time>2026-04-25T13:24:41.482Z</time></trkpt><trkpt lat="43.8111636" lon="12.5105624"><ele>185.0</ele><time>2026-04-25T13:24:42.462Z</time></trkpt><trkpt lat="43.8112249" lon="12.5106223"><ele>183.16666666666666</ele><time>2026-04-25T13:24:43.494Z</time></trkpt><trkpt lat="43.8112796" lon="12.5106763"><ele>181.33333333333331</ele><time>2026-04-25T13:24:44.479Z</time></trkpt><trkpt lat="43.8113698" lon="12.5107621"><ele>179.5</ele><time>2026-04-25T13:24:46.445Z</time></trkpt><trkpt lat="43.8114326" lon="12.5108476"><ele>177.66666666666666</ele><time>2026-04-25T13:24:48.493Z</time></trkpt><trkpt lat="43.8114565" lon="12.5109641"><ele>175.83333333333334</ele><time>2026-04-25T13:25:02.486Z</time></trkpt><trkpt lat="43.811515" lon="12.5110281"><ele>174.0</ele><time>2026-04-25T13:25:04.448Z</time></trkpt><trkpt lat="43.8116243" lon="12.5110692"><ele>174.0</ele><time>2026-04-25T13:25:05.553Z</time></trkpt><trkpt lat="43.8117165" lon="12.5110974"><ele>174.0</ele><time>2026-04-25T13:25:06.488Z</time></trkpt><trkpt lat="43.8118241" lon="12.5111299"><ele>174.0</ele><time>2026-04-25T13:25:07.462Z</time></trkpt><trkpt lat="43.8119566" lon="12.5111737"><ele>174.0</ele><time>2026-04-25T13:25:08.514Z</time></trkpt><trkpt lat="43.8121056" lon="12.5112273"><ele>173.0</ele><time>2026-04-25T13:25:09.559Z</time></trkpt><trkpt lat="43.8122395" lon="12.5112853"><ele>172.0</ele><time>2026-04-25T13:25:10.567Z</time></trkpt><trkpt lat="43.8123779" lon="12.5113586"><ele>171.0</ele><time>2026-04-25T13:25:11.577Z</time></trkpt><trkpt lat="43.8125108" lon="12.5114393"><ele>170.0</ele><time>2026-04-25T13:25:12.493Z</time></trkpt><trkpt lat="43.8126423" lon="12.5115319"><ele>173.0</ele><time>2026-04-25T13:25:13.441Z</time></trkpt><trkpt lat="43.8127701" lon="12.5116644"><ele>176.0</ele><time>2026-04-25T13:25:14.463Z</time></trkpt><trkpt lat="43.8128838" lon="12.5118324"><ele>179.0</ele><time>2026-04-25T13:25:15.482Z</time></trkpt><trkpt lat="43.8129906" lon="12.5120314"><ele>177.66666666666666</ele><time>2026-04-25T13:25:16.519Z</time></trkpt><trkpt lat="43.8130854" lon="12.5122616"><ele>176.33333333333334</ele><time>2026-04-25T13:25:17.569Z</time></trkpt><trkpt lat="43.8131633" lon="12.5124989"><ele>175.0</ele><time>2026-04-25T13:25:18.593Z</time></trkpt><trkpt lat="43.8132677" lon="12.5128149"><ele>173.0</ele><time>2026-04-25T13:25:19.704Z</time></trkpt><trkpt lat="43.8133445" lon="12.5132282"><ele>171.0</ele><time>2026-04-25T13:25:21.505Z</time></trkpt><trkpt lat="43.8133921" lon="12.5134853"><ele>170.66666666666666</ele><time>2026-04-25T13:25:22.497Z</time></trkpt><trkpt lat="43.8134453" lon="12.5137692"><ele>170.33333333333331</ele><time>2026-04-25T13:25:23.587Z</time></trkpt><trkpt lat="43.8135115" lon="12.514041"><ele>170.0</ele><time>2026-04-25T13:25:24.573Z</time></trkpt><trkpt lat="43.8135792" lon="12.514329"><ele>174.0</ele><time>2026-04-25T13:25:25.602Z</time></trkpt><trkpt lat="43.8136398" lon="12.5146043"><ele>178.0</ele><time>2026-04-25T13:25:26.581Z</time></trkpt><trkpt lat="43.8137062" lon="12.5148911"><ele>182.0</ele><time>2026-04-25T13:25:27.576Z</time></trkpt><trkpt lat="43.8137684" lon="12.5151716"><ele>181.0</ele><time>2026-04-25T13:25:28.563Z</time></trkpt><trkpt lat="43.8138374" lon="12.5154677"><ele>180.0</ele><time>2026-04-25T13:25:29.587Z</time></trkpt><trkpt lat="43.8139038" lon="12.5157575"><ele>179.0</ele><time>2026-04-25T13:25:30.575Z</time></trkpt><trkpt lat="43.813984" lon="12.516097"><ele>177.5</ele><time>2026-04-25T13:25:31.784Z</time></trkpt><trkpt lat="43.8140931" lon="12.516572"><ele>176.0</ele><time>2026-04-25T13:25:33.584Z</time></trkpt><trkpt lat="43.8141532" lon="12.5168267"><ele>174.66666666666666</ele><time>2026-04-25T13:25:34.561Z</time></trkpt><trkpt lat="43.8142163" lon="12.5170983"><ele>173.33333333333334</ele><time>2026-04-25T13:25:35.619Z</time></trkpt><trkpt lat="43.8142722" lon="12.5173284"><ele>172.0</ele><time>2026-04-25T13:25:36.547Z</time></trkpt><trkpt lat="43.8143338" lon="12.5175819"><ele>174.66666666666669</ele><time>2026-04-25T13:25:37.574Z</time></trkpt><trkpt lat="43.8143947" lon="12.5178555"><ele>177.33333333333334</ele><time>2026-04-25T13:25:38.69Z</time></trkpt><trkpt lat="43.8144308" lon="12.5180846"><ele>180.0</ele><time>2026-04-25T13:25:39.659Z</time></trkpt><trkpt lat="43.8144508" lon="12.5182865"><ele>182.0</ele><time>2026-04-25T13:25:40.56Z</time></trkpt><trkpt lat="43.8144359" lon="12.5185134"><ele>184.0</ele><time>2026-04-25T13:25:41.598Z</time></trkpt><trkpt lat="43.8143923" lon="12.5187294"><ele>186.0</ele><time>2026-04-25T13:25:42.561Z</time></trkpt><trkpt lat="43.8143341" lon="12.5189634"><ele>181.66666666666666</ele><time>2026-04-25T13:25:43.578Z</time></trkpt><trkpt lat="43.8142834" lon="12.5192083"><ele>177.33333333333331</ele><time>2026-04-25T13:25:44.614Z</time></trkpt><trkpt lat="43.8142385" lon="12.5194441"><ele>173.0</ele><time>2026-04-25T13:25:45.57Z</time></trkpt><trkpt lat="43.8142058" lon="12.5197239"><ele>172.66666666666666</ele><time>2026-04-25T13:25:46.635Z</time></trkpt><trkpt lat="43.8141939" lon="12.5199917"><ele>172.33333333333334</ele><time>2026-04-25T13:25:47.611Z</time></trkpt><trkpt lat="43.8141935" lon="12.5202609"><ele>172.0</ele><time>2026-04-25T13:25:48.566Z</time></trkpt><trkpt lat="43.8142144" lon="12.5205611"><ele>170.66666666666669</ele><time>2026-04-25T13:25:49.61Z</time></trkpt><trkpt lat="43.8142545" lon="12.5208581"><ele>169.33333333333334</ele><time>2026-04-25T13:25:50.639Z</time></trkpt><trkpt lat="43.8142993" lon="12.5211171"><ele>168.0</ele><time>2026-04-25T13:25:51.572Z</time></trkpt><trkpt lat="43.8143581" lon="12.521393"><ele>171.66666666666666</ele><time>2026-04-25T13:25:52.601Z</time></trkpt><trkpt lat="43.8144081" lon="12.5216305"><ele>175.33333333333331</ele><time>2026-04-25T13:25:53.588Z</time></trkpt><trkpt lat="43.8144654" lon="12.5218879"><ele>179.0</ele><time>2026-04-25T13:25:54.619Z</time></trkpt><trkpt lat="43.8144913" lon="12.5221607"><ele>179.0</ele><time>2026-04-25T13:25:55.593Z</time></trkpt><trkpt lat="43.8144913" lon="12.5224248"><ele>179.0</ele><time>2026-04-25T13:25:56.518Z</time></trkpt><trkpt lat="43.8144819" lon="12.5227262"><ele>179.0</ele><time>2026-04-25T13:25:57.569Z</time></trkpt><trkpt lat="43.8144386" lon="12.5230117"><ele>178.33333333333331</ele><time>2026-04-25T13:25:58.605Z</time></trkpt><trkpt lat="43.8143839" lon="12.5232824"><ele>177.66666666666666</ele><time>2026-04-25T13:25:59.599Z</time></trkpt><trkpt lat="43.8143074" lon="12.5235409"><ele>177.0</ele><time>2026-04-25T13:26:00.634Z</time></trkpt><trkpt lat="43.81421" lon="12.5237784"><ele>173.66666666666666</ele><time>2026-04-25T13:26:01.61Z</time></trkpt><trkpt lat="43.8140988" lon="12.5239999"><ele>170.33333333333331</ele><time>2026-04-25T13:26:02.586Z</time></trkpt><trkpt lat="43.8139736" lon="12.5242193"><ele>167.0</ele><time>2026-04-25T13:26:03.576Z</time></trkpt><trkpt lat="43.8138468" lon="12.5244447"><ele>166.33333333333331</ele><time>2026-04-25T13:26:04.604Z</time></trkpt><trkpt lat="43.8137247" lon="12.524662"><ele>165.66666666666666</ele><time>2026-04-25T13:26:05.579Z</time></trkpt><trkpt lat="43.8135961" lon="12.5248934"><ele>165.0</ele><time>2026-04-25T13:26:06.603Z</time></trkpt><trkpt lat="43.8134691" lon="12.5251199"><ele>165.0</ele><time>2026-04-25T13:26:07.659Z</time></trkpt><trkpt lat="43.8133652" lon="12.5253041"><ele>165.0</ele><time>2026-04-25T13:26:08.598Z</time></trkpt><trkpt lat="43.8132557" lon="12.5255044"><ele>165.0</ele><time>2026-04-25T13:26:09.609Z</time></trkpt><trkpt lat="43.813149" lon="12.5256942"><ele>166.0</ele><time>2026-04-25T13:26:10.555Z</time></trkpt><trkpt lat="43.8130284" lon="12.5258996"><ele>167.0</ele><time>2026-04-25T13:26:11.583Z</time></trkpt><trkpt lat="43.8129132" lon="12.5261041"><ele>168.0</ele><time>2026-04-25T13:26:12.583Z</time></trkpt><trkpt lat="43.8128042" lon="12.5262943"><ele>169.0</ele><time>2026-04-25T13:26:13.514Z</time></trkpt><trkpt lat="43.8126763" lon="12.5265058"><ele>170.0</ele><time>2026-04-25T13:26:14.551Z</time></trkpt><trkpt lat="43.8125516" lon="12.5267027"><ele>171.0</ele><time>2026-04-25T13:26:15.569Z</time></trkpt><trkpt lat="43.812409" lon="12.5269331"><ele>168.66666666666666</ele><time>2026-04-25T13:26:16.69Z</time></trkpt><trkpt lat="43.8123207" lon="12.5271058"><ele>166.33333333333331</ele><time>2026-04-25T13:26:17.592Z</time></trkpt><trkpt lat="43.812231" lon="12.5272826"><ele>164.0</ele><time>2026-04-25T13:26:18.58Z</time></trkpt><trkpt lat="43.812141" lon="12.5274449"><ele>164.0</ele><time>2026-04-25T13:26:19.581Z</time></trkpt><trkpt lat="43.812055" lon="12.5276083"><ele>164.0</ele><time>2026-04-25T13:26:20.646Z</time></trkpt><trkpt lat="43.8119757" lon="12.527748"><ele>164.0</ele><time>2026-04-25T13:26:21.655Z</time></trkpt><trkpt lat="43.8119048" lon="12.5278739"><ele>164.0</ele><time>2026-04-25T13:26:22.588Z</time></trkpt><trkpt lat="43.8118281" lon="12.5280101"><ele>164.75</ele><time>2026-04-25T13:26:23.625Z</time></trkpt><trkpt lat="43.8117499" lon="12.5281553"><ele>165.5</ele><time>2026-04-25T13:26:24.69Z</time></trkpt><trkpt lat="43.8116774" lon="12.5282846"><ele>166.25</ele><time>2026-04-25T13:26:25.611Z</time></trkpt><trkpt lat="43.8115974" lon="12.5284328"><ele>167.0</ele><time>2026-04-25T13:26:26.618Z</time></trkpt><trkpt lat="43.8115192" lon="12.5286006"><ele>167.25</ele><time>2026-04-25T13:26:27.655Z</time></trkpt><trkpt lat="43.8114455" lon="12.5287685"><ele>167.5</ele><time>2026-04-25T13:26:28.634Z</time></trkpt><trkpt lat="43.8113734" lon="12.5289504"><ele>167.75</ele><time>2026-04-25T13:26:29.65Z</time></trkpt><trkpt lat="43.8113053" lon="12.5291234"><ele>168.0</ele><time>2026-04-25T13:26:30.643Z</time></trkpt><trkpt lat="43.8112434" lon="12.5292888"><ele>168.0</ele><time>2026-04-25T13:26:31.641Z</time></trkpt><trkpt lat="43.8111772" lon="12.5294421"><ele>168.0</ele><time>2026-04-25T13:26:32.638Z</time></trkpt><trkpt lat="43.8111171" lon="12.5295969"><ele>168.0</ele><time>2026-04-25T13:26:33.656Z</time></trkpt><trkpt lat="43.8110772" lon="12.5297496"><ele>168.0</ele><time>2026-04-25T13:26:34.613Z</time></trkpt><trkpt lat="43.8110559" lon="12.5299277"><ele>168.25</ele><time>2026-04-25T13:26:35.65Z</time></trkpt><trkpt lat="43.8110585" lon="12.5301103"><ele>168.5</ele><time>2026-04-25T13:26:36.663Z</time></trkpt><trkpt lat="43.8110826" lon="12.5302732"><ele>168.75</ele><time>2026-04-25T13:26:37.564Z</time></trkpt><trkpt lat="43.8111285" lon="12.5304506"><ele>169.0</ele><time>2026-04-25T13:26:38.561Z</time></trkpt><trkpt lat="43.8111742" lon="12.5306336"><ele>169.33333333333334</ele><time>2026-04-25T13:26:39.568Z</time></trkpt><trkpt lat="43.8112301" lon="12.5308259"><ele>169.66666666666666</ele><time>2026-04-25T13:26:40.609Z</time></trkpt><trkpt lat="43.8112905" lon="12.5310132"><ele>170.0</ele><time>2026-04-25T13:26:41.572Z</time></trkpt><trkpt lat="43.8113533" lon="12.5312078"><ele>168.66666666666666</ele><time>2026-04-25T13:26:42.594Z</time></trkpt><trkpt lat="43.8114099" lon="12.5314016"><ele>167.33333333333334</ele><time>2026-04-25T13:26:43.581Z</time></trkpt><trkpt lat="43.8114697" lon="12.5315958"><ele>166.0</ele><time>2026-04-25T13:26:44.58Z</time></trkpt><trkpt lat="43.8115291" lon="12.5317875"><ele>166.0</ele><time>2026-04-25T13:26:45.579Z</time></trkpt><trkpt lat="43.8115907" lon="12.5319808"><ele>166.0</ele><time>2026-04-25T13:26:46.616Z</time></trkpt><trkpt lat="43.8116468" lon="12.5321603"><ele>166.0</ele><time>2026-04-25T13:26:47.577Z</time></trkpt><trkpt lat="43.8117049" lon="12.532347"><ele>166.0</ele><time>2026-04-25T13:26:48.592Z</time></trkpt><trkpt lat="43.8117543" lon="12.5325414"><ele>164.75</ele><time>2026-04-25T13:26:49.6Z</time></trkpt><trkpt lat="43.8118102" lon="12.5327229"><ele>163.5</ele><time>2026-04-25T13:26:50.579Z</time></trkpt><trkpt lat="43.8118622" lon="12.532912"><ele>162.25</ele><time>2026-04-25T13:26:51.557Z</time></trkpt><trkpt lat="43.8119202" lon="12.5331025"><ele>161.0</ele><time>2026-04-25T13:26:52.565Z</time></trkpt><trkpt lat="43.8119882" lon="12.5332959"><ele>161.0</ele><time>2026-04-25T13:26:53.595Z</time></trkpt><trkpt lat="43.8120496" lon="12.5334892"><ele>161.0</ele><time>2026-04-25T13:26:54.578Z</time></trkpt><trkpt lat="43.8121113" lon="12.5336981"><ele>161.0</ele><time>2026-04-25T13:26:55.612Z</time></trkpt><trkpt lat="43.8121637" lon="12.5338917"><ele>158.66666666666666</ele><time>2026-04-25T13:26:56.566Z</time></trkpt><trkpt lat="43.8122162" lon="12.5340969"><ele>156.33333333333334</ele><time>2026-04-25T13:26:57.59Z</time></trkpt><trkpt lat="43.8122645" lon="12.5343027"><ele>154.0</ele><time>2026-04-25T13:26:58.631Z</time></trkpt><trkpt lat="43.8123028" lon="12.5345001"><ele>153.75</ele><time>2026-04-25T13:26:59.63Z</time></trkpt><trkpt lat="43.8123344" lon="12.5346971"><ele>153.5</ele><time>2026-04-25T13:27:00.637Z</time></trkpt><trkpt lat="43.8123593" lon="12.5348996"><ele>153.25</ele><time>2026-04-25T13:27:01.66Z</time></trkpt><trkpt lat="43.8123802" lon="12.5350977"><ele>153.0</ele><time>2026-04-25T13:27:02.657Z</time></trkpt><trkpt lat="43.8123982" lon="12.5352989"><ele>152.33333333333334</ele><time>2026-04-25T13:27:03.656Z</time></trkpt><trkpt lat="43.8124141" lon="12.5355012"><ele>151.66666666666669</ele><time>2026-04-25T13:27:04.617Z</time></trkpt><trkpt lat="43.8124235" lon="12.5357398"><ele>151.0</ele><time>2026-04-25T13:27:05.702Z</time></trkpt><trkpt lat="43.8124233" lon="12.5359709"><ele>151.0</ele><time>2026-04-25T13:27:06.687Z</time></trkpt><trkpt lat="43.812419" lon="12.5362019"><ele>151.0</ele><time>2026-04-25T13:27:07.607Z</time></trkpt><trkpt lat="43.8124117" lon="12.5364825"><ele>151.0</ele><time>2026-04-25T13:27:08.623Z</time></trkpt><trkpt lat="43.8123961" lon="12.5367713"><ele>151.5</ele><time>2026-04-25T13:27:09.592Z</time></trkpt><trkpt lat="43.8123759" lon="12.5371048"><ele>152.0</ele><time>2026-04-25T13:27:10.639Z</time></trkpt><trkpt lat="43.8123564" lon="12.5374337"><ele>152.0</ele><time>2026-04-25T13:27:11.609Z</time></trkpt><trkpt lat="43.8123341" lon="12.5377899"><ele>152.0</ele><time>2026-04-25T13:27:12.671Z</time></trkpt><trkpt lat="43.8123131" lon="12.5380797"><ele>151.66666666666666</ele><time>2026-04-25T13:27:13.57Z</time></trkpt><trkpt lat="43.8122919" lon="12.5383849"><ele>151.33333333333334</ele><time>2026-04-25T13:27:14.546Z</time></trkpt><trkpt lat="43.8122719" lon="12.5386883"><ele>151.0</ele><time>2026-04-25T13:27:15.536Z</time></trkpt><trkpt lat="43.8122489" lon="12.5389917"><ele>151.0</ele><time>2026-04-25T13:27:16.555Z</time></trkpt><trkpt lat="43.812239" lon="12.5393047"><ele>151.0</ele><time>2026-04-25T13:27:17.591Z</time></trkpt><trkpt lat="43.8122246" lon="12.5395794"><ele>151.0</ele><time>2026-04-25T13:27:18.543Z</time></trkpt><trkpt lat="43.8122085" lon="12.5398565"><ele>151.0</ele><time>2026-04-25T13:27:19.566Z</time></trkpt><trkpt lat="43.8121903" lon="12.5401107"><ele>151.0</ele><time>2026-04-25T13:27:20.564Z</time></trkpt><trkpt lat="43.8121672" lon="12.540331"><ele>151.0</ele><time>2026-04-25T13:27:21.477Z</time></trkpt><trkpt lat="43.8121339" lon="12.5405632"><ele>152.0</ele><time>2026-04-25T13:27:22.472Z</time></trkpt><trkpt lat="43.8120874" lon="12.5407857"><ele>153.0</ele><time>2026-04-25T13:27:23.515Z</time></trkpt><trkpt lat="43.8120346" lon="12.5409946"><ele>154.0</ele><time>2026-04-25T13:27:24.504Z</time></trkpt><trkpt lat="43.8119652" lon="12.5412171"><ele>153.0</ele><time>2026-04-25T13:27:25.588Z</time></trkpt><trkpt lat="43.8118906" lon="12.5414184"><ele>152.0</ele><time>2026-04-25T13:27:26.616Z</time></trkpt><trkpt lat="43.8118061" lon="12.5416114"><ele>151.0</ele><time>2026-04-25T13:27:27.612Z</time></trkpt><trkpt lat="43.8117108" lon="12.5417963"><ele>151.0</ele><time>2026-04-25T13:27:28.577Z</time></trkpt><trkpt lat="43.8115918" lon="12.5420055"><ele>151.0</ele><time>2026-04-25T13:27:29.677Z</time></trkpt><trkpt lat="43.8114689" lon="12.5422316"><ele>151.0</ele><time>2026-04-25T13:27:30.793Z</time></trkpt><trkpt lat="43.8112626" lon="12.5425768"><ele>151.66666666666669</ele><time>2026-04-25T13:27:32.517Z</time></trkpt><trkpt lat="43.811147" lon="12.5427693"><ele>152.33333333333334</ele><time>2026-04-25T13:27:33.52Z</time></trkpt><trkpt lat="43.8110467" lon="12.5429384"><ele>153.0</ele><time>2026-04-25T13:27:34.414Z</time></trkpt><trkpt lat="43.8109436" lon="12.54314"><ele>153.0</ele><time>2026-04-25T13:27:35.409Z</time></trkpt><trkpt lat="43.8108555" lon="12.5433746"><ele>153.0</ele><time>2026-04-25T13:27:36.419Z</time></trkpt><trkpt lat="43.8107695" lon="12.5436508"><ele>153.0</ele><time>2026-04-25T13:27:37.572Z</time></trkpt><trkpt lat="43.810624" lon="12.5441319"><ele>154.33333333333334</ele><time>2026-04-25T13:27:39.515Z</time></trkpt><trkpt lat="43.8105542" lon="12.5443753"><ele>155.66666666666669</ele><time>2026-04-25T13:27:40.486Z</time></trkpt><trkpt lat="43.8104854" lon="12.5446147"><ele>157.0</ele><time>2026-04-25T13:27:41.449Z</time></trkpt><trkpt lat="43.8104179" lon="12.5448526"><ele>160.0</ele><time>2026-04-25T13:27:42.401Z</time></trkpt><trkpt lat="43.8103435" lon="12.5451229"><ele>163.0</ele><time>2026-04-25T13:27:43.494Z</time></trkpt><trkpt lat="43.8102223" lon="12.5455574"><ele>163.33333333333334</ele><time>2026-04-25T13:27:45.354Z</time></trkpt><trkpt lat="43.8101638" lon="12.5457867"><ele>163.66666666666666</ele><time>2026-04-25T13:27:46.377Z</time></trkpt><trkpt lat="43.8101114" lon="12.5460267"><ele>164.0</ele><time>2026-04-25T13:27:47.456Z</time></trkpt><trkpt lat="43.8100706" lon="12.5462627"><ele>164.0</ele><time>2026-04-25T13:27:48.473Z</time></trkpt><trkpt lat="43.8100854" lon="12.5464686"><ele>164.0</ele><time>2026-04-25T13:27:49.382Z</time></trkpt><trkpt lat="43.8101313" lon="12.5467134"><ele>164.0</ele><time>2026-04-25T13:27:50.363Z</time></trkpt><trkpt lat="43.8101951" lon="12.54699"><ele>164.33333333333331</ele><time>2026-04-25T13:27:51.451Z</time></trkpt><trkpt lat="43.81024" lon="12.5472379"><ele>164.66666666666666</ele><time>2026-04-25T13:27:52.431Z</time></trkpt><trkpt lat="43.8102729" lon="12.5475109"><ele>165.0</ele><time>2026-04-25T13:27:53.481Z</time></trkpt><trkpt lat="43.8102958" lon="12.5477858"><ele>165.66666666666666</ele><time>2026-04-25T13:27:54.5Z</time></trkpt><trkpt lat="43.8102995" lon="12.5480321"><ele>166.33333333333331</ele><time>2026-04-25T13:27:55.416Z</time></trkpt><trkpt lat="43.810292" lon="12.5483077"><ele>167.0</ele><time>2026-04-25T13:27:56.425Z</time></trkpt><trkpt lat="43.8102595" lon="12.5485997"><ele>167.66666666666666</ele><time>2026-04-25T13:27:57.48Z</time></trkpt><trkpt lat="43.8102144" lon="12.5488515"><ele>168.33333333333334</ele><time>2026-04-25T13:27:58.494Z</time></trkpt><trkpt lat="43.8101874" lon="12.5490748"><ele>169.0</ele><time>2026-04-25T13:27:59.417Z</time></trkpt><trkpt lat="43.8101683" lon="12.549337"><ele>170.0</ele><time>2026-04-25T13:28:00.455Z</time></trkpt><trkpt lat="43.8101756" lon="12.5496122"><ele>171.0</ele><time>2026-04-25T13:28:01.462Z</time></trkpt><trkpt lat="43.810187" lon="12.5498929"><ele>172.0</ele><time>2026-04-25T13:28:02.491Z</time></trkpt><trkpt lat="43.8101941" lon="12.5501747"><ele>172.0</ele><time>2026-04-25T13:28:03.527Z</time></trkpt><trkpt lat="43.8102055" lon="12.5504177"><ele>172.0</ele><time>2026-04-25T13:28:04.456Z</time></trkpt><trkpt lat="43.8102027" lon="12.550688"><ele>172.0</ele><time>2026-04-25T13:28:05.511Z</time></trkpt><trkpt lat="43.810198" lon="12.5509387"><ele>172.0</ele><time>2026-04-25T13:28:06.448Z</time></trkpt><trkpt lat="43.8101836" lon="12.5511919"><ele>172.0</ele><time>2026-04-25T13:28:07.484Z</time></trkpt><trkpt lat="43.8101646" lon="12.55141"><ele>172.0</ele><time>2026-04-25T13:28:08.465Z</time></trkpt><trkpt lat="43.8101584" lon="12.5516494"><ele>170.66666666666669</ele><time>2026-04-25T13:28:09.579Z</time></trkpt><trkpt lat="43.8101732" lon="12.5518627"><ele>169.33333333333334</ele><time>2026-04-25T13:28:10.573Z</time></trkpt><trkpt lat="43.8102295" lon="12.5520555"><ele>168.0</ele><time>2026-04-25T13:28:11.484Z</time></trkpt><trkpt lat="43.810319" lon="12.5522512"><ele>165.0</ele><time>2026-04-25T13:28:12.459Z</time></trkpt><trkpt lat="43.81043" lon="12.5524107"><ele>162.0</ele><time>2026-04-25T13:28:13.514Z</time></trkpt><trkpt lat="43.8106209" lon="12.5525387"><ele>159.0</ele><time>2026-04-25T13:28:14.428Z</time></trkpt><trkpt lat="43.8107789" lon="12.5526907"><ele>159.0</ele><time>2026-04-25T13:28:15.454Z</time></trkpt><trkpt lat="43.810908" lon="12.5528469"><ele>159.0</ele><time>2026-04-25T13:28:16.389Z</time></trkpt><trkpt lat="43.8110378" lon="12.5530242"><ele>159.0</ele><time>2026-04-25T13:28:17.437Z</time></trkpt><trkpt lat="43.8111664" lon="12.5532205"><ele>157.33333333333334</ele><time>2026-04-25T13:28:18.478Z</time></trkpt><trkpt lat="43.8112491" lon="12.5534111"><ele>155.66666666666669</ele><time>2026-04-25T13:28:19.479Z</time></trkpt><trkpt lat="43.8113162" lon="12.5536368"><ele>154.0</ele><time>2026-04-25T13:28:20.468Z</time></trkpt><trkpt lat="43.8113586" lon="12.5538816"><ele>153.66666666666669</ele><time>2026-04-25T13:28:21.454Z</time></trkpt><trkpt lat="43.8113872" lon="12.5541252"><ele>153.33333333333334</ele><time>2026-04-25T13:28:22.484Z</time></trkpt><trkpt lat="43.8114152" lon="12.5543568"><ele>153.0</ele><time>2026-04-25T13:28:23.474Z</time></trkpt><trkpt lat="43.8114354" lon="12.5545951"><ele>152.0</ele><time>2026-04-25T13:28:24.473Z</time></trkpt><trkpt lat="43.8114725" lon="12.554858"><ele>151.0</ele><time>2026-04-25T13:28:25.577Z</time></trkpt><trkpt lat="43.8115079" lon="12.5550907"><ele>150.0</ele><time>2026-04-25T13:28:26.507Z</time></trkpt><trkpt lat="43.8115493" lon="12.5553209"><ele>148.66666666666666</ele><time>2026-04-25T13:28:27.464Z</time></trkpt><trkpt lat="43.8115964" lon="12.5555786"><ele>147.33333333333331</ele><time>2026-04-25T13:28:28.464Z</time></trkpt><trkpt lat="43.8116421" lon="12.55584"><ele>146.0</ele><time>2026-04-25T13:28:29.489Z</time></trkpt><trkpt lat="43.8116858" lon="12.5560875"><ele>145.66666666666666</ele><time>2026-04-25T13:28:30.456Z</time></trkpt><trkpt lat="43.8117268" lon="12.5563584"><ele>145.33333333333334</ele><time>2026-04-25T13:28:31.487Z</time></trkpt><trkpt lat="43.8117664" lon="12.5566127"><ele>145.0</ele><time>2026-04-25T13:28:32.506Z</time></trkpt><trkpt lat="43.8118044" lon="12.5568607"><ele>145.66666666666669</ele><time>2026-04-25T13:28:33.509Z</time></trkpt><trkpt lat="43.8118466" lon="12.5571121"><ele>146.33333333333334</ele><time>2026-04-25T13:28:34.499Z</time></trkpt><trkpt lat="43.8118803" lon="12.557352"><ele>147.0</ele><time>2026-04-25T13:28:35.467Z</time></trkpt><trkpt lat="43.8119158" lon="12.5576214"><ele>146.66666666666666</ele><time>2026-04-25T13:28:36.488Z</time></trkpt><trkpt lat="43.8119385" lon="12.5578714"><ele>146.33333333333331</ele><time>2026-04-25T13:28:37.482Z</time></trkpt><trkpt lat="43.8119585" lon="12.5581126"><ele>146.0</ele><time>2026-04-25T13:28:38.447Z</time></trkpt><trkpt lat="43.8119734" lon="12.5584011"><ele>145.5</ele><time>2026-04-25T13:28:39.601Z</time></trkpt><trkpt lat="43.8120006" lon="12.5589102"><ele>145.0</ele><time>2026-04-25T13:28:41.508Z</time></trkpt><trkpt lat="43.8120022" lon="12.5591651"><ele>145.0</ele><time>2026-04-25T13:28:42.468Z</time></trkpt><trkpt lat="43.8120004" lon="12.5594725"><ele>145.0</ele><time>2026-04-25T13:28:43.679Z</time></trkpt><trkpt lat="43.8119576" lon="12.5598718"><ele>145.33333333333334</ele><time>2026-04-25T13:28:45.457Z</time></trkpt><trkpt lat="43.8119017" lon="12.5600873"><ele>145.66666666666666</ele><time>2026-04-25T13:28:46.426Z</time></trkpt><trkpt lat="43.8118197" lon="12.560282"><ele>146.0</ele><time>2026-04-25T13:28:47.454Z</time></trkpt><trkpt lat="43.8117167" lon="12.5604935"><ele>148.0</ele><time>2026-04-25T13:28:48.548Z</time></trkpt><trkpt lat="43.8115957" lon="12.560672"><ele>150.0</ele><time>2026-04-25T13:28:49.52Z</time></trkpt><trkpt lat="43.8114911" lon="12.5608418"><ele>152.0</ele><time>2026-04-25T13:28:50.472Z</time></trkpt><trkpt lat="43.811374" lon="12.561023"><ele>154.33333333333331</ele><time>2026-04-25T13:28:51.453Z</time></trkpt><trkpt lat="43.8112712" lon="12.5612074"><ele>156.66666666666666</ele><time>2026-04-25T13:28:52.461Z</time></trkpt><trkpt lat="43.8111636" lon="12.5613925"><ele>159.0</ele><time>2026-04-25T13:28:53.552Z</time></trkpt><trkpt lat="43.8110796" lon="12.5615333"><ele>159.0</ele><time>2026-04-25T13:28:54.488Z</time></trkpt><trkpt lat="43.811022" lon="12.5616904"><ele>159.0</ele><time>2026-04-25T13:28:55.458Z</time></trkpt><trkpt lat="43.8109828" lon="12.5618554"><ele>159.0</ele><time>2026-04-25T13:28:56.482Z</time></trkpt><trkpt lat="43.8109775" lon="12.5620106"><ele>159.0</ele><time>2026-04-25T13:28:57.469Z</time></trkpt><trkpt lat="43.8109929" lon="12.5621527"><ele>158.2</ele><time>2026-04-25T13:28:58.461Z</time></trkpt><trkpt lat="43.8110279" lon="12.5622762"><ele>157.4</ele><time>2026-04-25T13:28:59.447Z</time></trkpt><trkpt lat="43.8110975" lon="12.5623848"><ele>156.6</ele><time>2026-04-25T13:29:00.61Z</time></trkpt><trkpt lat="43.81117" lon="12.562446"><ele>155.8</ele><time>2026-04-25T13:29:01.541Z</time></trkpt><trkpt lat="43.8112561" lon="12.5624968"><ele>155.0</ele><time>2026-04-25T13:29:02.508Z</time></trkpt><trkpt lat="43.8113646" lon="12.5625378"><ele>155.0</ele><time>2026-04-25T13:29:03.472Z</time></trkpt><trkpt lat="43.8114837" lon="12.5625786"><ele>155.0</ele><time>2026-04-25T13:29:04.488Z</time></trkpt><trkpt lat="43.8116286" lon="12.5626348"><ele>155.0</ele><time>2026-04-25T13:29:05.704Z</time></trkpt><trkpt lat="43.8117766" lon="12.5626787"><ele>155.0</ele><time>2026-04-25T13:29:07.499Z</time></trkpt><trkpt lat="43.8118392" lon="12.56273"><ele>154.8</ele><time>2026-04-25T13:29:08.541Z</time></trkpt><trkpt lat="43.8118956" lon="12.5628771"><ele>154.6</ele><time>2026-04-25T13:29:10.488Z</time></trkpt><trkpt lat="43.8119109" lon="12.5629819"><ele>154.4</ele><time>2026-04-25T13:29:11.463Z</time></trkpt><trkpt lat="43.8119225" lon="12.5631075"><ele>154.2</ele><time>2026-04-25T13:29:12.462Z</time></trkpt><trkpt lat="43.8119256" lon="12.5632561"><ele>154.0</ele><time>2026-04-25T13:29:13.531Z</time></trkpt><trkpt lat="43.8119167" lon="12.5634009"><ele>154.0</ele><time>2026-04-25T13:29:14.487Z</time></trkpt><trkpt lat="43.8118822" lon="12.5635605"><ele>154.0</ele><time>2026-04-25T13:29:15.457Z</time></trkpt><trkpt lat="43.8118189" lon="12.5637326"><ele>154.0</ele><time>2026-04-25T13:29:16.478Z</time></trkpt><trkpt lat="43.8117515" lon="12.5638761"><ele>154.0</ele><time>2026-04-25T13:29:17.439Z</time></trkpt><trkpt lat="43.811664" lon="12.5640319"><ele>151.5</ele><time>2026-04-25T13:29:18.49Z</time></trkpt><trkpt lat="43.8115736" lon="12.5641766"><ele>149.0</ele><time>2026-04-25T13:29:19.475Z</time></trkpt><trkpt lat="43.8114589" lon="12.5643307"><ele>146.5</ele><time>2026-04-25T13:29:20.643Z</time></trkpt><trkpt lat="43.8113653" lon="12.5644591"><ele>144.0</ele><time>2026-04-25T13:29:21.62Z</time></trkpt><trkpt lat="43.8112747" lon="12.5645937"><ele>143.0</ele><time>2026-04-25T13:29:22.536Z</time></trkpt><trkpt lat="43.8111749" lon="12.564748"><ele>142.0</ele><time>2026-04-25T13:29:23.466Z</time></trkpt><trkpt lat="43.8110761" lon="12.56489"><ele>141.0</ele><time>2026-04-25T13:29:24.475Z</time></trkpt><trkpt lat="43.8109418" lon="12.5650663"><ele>139.66666666666666</ele><time>2026-04-25T13:29:25.575Z</time></trkpt><trkpt lat="43.8108412" lon="12.5652046"><ele>138.33333333333331</ele><time>2026-04-25T13:29:26.449Z</time></trkpt><trkpt lat="43.8107214" lon="12.5653621"><ele>137.0</ele><time>2026-04-25T13:29:27.464Z</time></trkpt><trkpt lat="43.8105931" lon="12.5655164"><ele>136.66666666666666</ele><time>2026-04-25T13:29:28.495Z</time></trkpt><trkpt lat="43.8104775" lon="12.5656624"><ele>136.33333333333334</ele><time>2026-04-25T13:29:29.457Z</time></trkpt><trkpt lat="43.810353" lon="12.5658221"><ele>136.0</ele><time>2026-04-25T13:29:30.452Z</time></trkpt><trkpt lat="43.8102333" lon="12.5659764"><ele>135.75</ele><time>2026-04-25T13:29:31.463Z</time></trkpt><trkpt lat="43.8101252" lon="12.5661176"><ele>135.5</ele><time>2026-04-25T13:29:32.455Z</time></trkpt><trkpt lat="43.8100171" lon="12.5662532"><ele>135.25</ele><time>2026-04-25T13:29:33.478Z</time></trkpt><trkpt lat="43.8099255" lon="12.5663765"><ele>135.0</ele><time>2026-04-25T13:29:34.473Z</time></trkpt><trkpt lat="43.8098398" lon="12.5665062"><ele>135.0</ele><time>2026-04-25T13:29:35.471Z</time></trkpt><trkpt lat="43.8097458" lon="12.5666417"><ele>135.0</ele><time>2026-04-25T13:29:36.488Z</time></trkpt><trkpt lat="43.8096597" lon="12.5667772"><ele>135.0</ele><time>2026-04-25T13:29:37.454Z</time></trkpt><trkpt lat="43.8095707" lon="12.5668998"><ele>135.0</ele><time>2026-04-25T13:29:38.377Z</time></trkpt><trkpt lat="43.8094834" lon="12.5670321"><ele>135.0</ele><time>2026-04-25T13:29:39.388Z</time></trkpt><trkpt lat="43.809397" lon="12.5671646"><ele>135.0</ele><time>2026-04-25T13:29:40.422Z</time></trkpt><trkpt lat="43.8093149" lon="12.5672862"><ele>135.0</ele><time>2026-04-25T13:29:41.431Z</time></trkpt><trkpt lat="43.8092331" lon="12.5674138"><ele>135.0</ele><time>2026-04-25T13:29:42.56Z</time></trkpt><trkpt lat="43.8091564" lon="12.5675264"><ele>134.75</ele><time>2026-04-25T13:29:43.471Z</time></trkpt><trkpt lat="43.8090746" lon="12.5676491"><ele>134.5</ele><time>2026-04-25T13:29:44.476Z</time></trkpt><trkpt lat="43.8089877" lon="12.5677777"><ele>134.25</ele><time>2026-04-25T13:29:45.485Z</time></trkpt><trkpt lat="43.808903" lon="12.5679061"><ele>134.0</ele><time>2026-04-25T13:29:46.471Z</time></trkpt><trkpt lat="43.8088152" lon="12.5680356"><ele>134.0</ele><time>2026-04-25T13:29:47.462Z</time></trkpt><trkpt lat="43.8087215" lon="12.5681653"><ele>134.0</ele><time>2026-04-25T13:29:48.476Z</time></trkpt><trkpt lat="43.8086207" lon="12.5682932"><ele>134.0</ele><time>2026-04-25T13:29:49.511Z</time></trkpt><trkpt lat="43.8085187" lon="12.5684074"><ele>134.0</ele><time>2026-04-25T13:29:50.482Z</time></trkpt><trkpt lat="43.8084187" lon="12.5685237"><ele>135.25</ele><time>2026-04-25T13:29:51.446Z</time></trkpt><trkpt lat="43.8083188" lon="12.568668"><ele>136.5</ele><time>2026-04-25T13:29:52.475Z</time></trkpt><trkpt lat="43.8082342" lon="12.5688079"><ele>137.75</ele><time>2026-04-25T13:29:53.461Z</time></trkpt><trkpt lat="43.80816" lon="12.5689428"><ele>139.0</ele><time>2026-04-25T13:29:54.473Z</time></trkpt><trkpt lat="43.8080953" lon="12.5690698"><ele>139.0</ele><time>2026-04-25T13:29:55.502Z</time></trkpt><trkpt lat="43.8080504" lon="12.5691687"><ele>139.0</ele><time>2026-04-25T13:29:56.436Z</time></trkpt><trkpt lat="43.8080194" lon="12.5692756"><ele>139.0</ele><time>2026-04-25T13:29:57.451Z</time></trkpt><trkpt lat="43.8079795" lon="12.5694054"><ele>139.0</ele><time>2026-04-25T13:29:58.45Z</time></trkpt><trkpt lat="43.8079515" lon="12.5695076"><ele>139.0</ele><time>2026-04-25T13:29:59.38Z</time></trkpt><trkpt lat="43.8079061" lon="12.5696155"><ele>139.0</ele><time>2026-04-25T13:30:00.41Z</time></trkpt><trkpt lat="43.8078442" lon="12.569717"><ele>139.0</ele><time>2026-04-25T13:30:01.511Z</time></trkpt><trkpt lat="43.8077829" lon="12.5697988"><ele>139.0</ele><time>2026-04-25T13:30:02.462Z</time></trkpt><trkpt lat="43.8077271" lon="12.5698923"><ele>139.0</ele><time>2026-04-25T13:30:03.445Z</time></trkpt><trkpt lat="43.8076901" lon="12.5700039"><ele>139.0</ele><time>2026-04-25T13:30:04.489Z</time></trkpt><trkpt lat="43.8076688" lon="12.5701186"><ele>139.0</ele><time>2026-04-25T13:30:05.431Z</time></trkpt><trkpt lat="43.8076414" lon="12.5702866"><ele>145.0</ele><time>2026-04-25T13:30:06.627Z</time></trkpt><trkpt lat="43.8075712" lon="12.5705392"><ele>151.0</ele><time>2026-04-25T13:30:08.446Z</time></trkpt><trkpt lat="43.8075143" lon="12.5706699"><ele>157.0</ele><time>2026-04-25T13:30:09.414Z</time></trkpt><trkpt lat="43.8074278" lon="12.5708299"><ele>157.0</ele><time>2026-04-25T13:30:10.559Z</time></trkpt><trkpt lat="43.8072533" lon="12.5710498"><ele>157.0</ele><time>2026-04-25T13:30:12.483Z</time></trkpt><trkpt lat="43.8071874" lon="12.5711913"><ele>157.0</ele><time>2026-04-25T13:30:13.442Z</time></trkpt><trkpt lat="43.8071492" lon="12.5713349"><ele>158.2</ele><time>2026-04-25T13:30:14.402Z</time></trkpt><trkpt lat="43.8071212" lon="12.5714798"><ele>159.39999999999998</ele><time>2026-04-25T13:30:15.402Z</time></trkpt><trkpt lat="43.8071393" lon="12.5716182"><ele>160.60000000000002</ele><time>2026-04-25T13:30:16.383Z</time></trkpt><trkpt lat="43.8071925" lon="12.5717848"><ele>161.8</ele><time>2026-04-25T13:30:17.616Z</time></trkpt><trkpt lat="43.8072536" lon="12.5719026"><ele>163.0</ele><time>2026-04-25T13:30:18.451Z</time></trkpt><trkpt lat="43.8072995" lon="12.5720641"><ele>165.0</ele><time>2026-04-25T13:30:19.455Z</time></trkpt><trkpt lat="43.8073202" lon="12.5722484"><ele>167.0</ele><time>2026-04-25T13:30:20.422Z</time></trkpt><trkpt lat="43.8073175" lon="12.5724276"><ele>169.0</ele><time>2026-04-25T13:30:21.426Z</time></trkpt><trkpt lat="43.8073106" lon="12.5726284"><ele>171.0</ele><time>2026-04-25T13:30:22.394Z</time></trkpt><trkpt lat="43.8073061" lon="12.5728417"><ele>173.0</ele><time>2026-04-25T13:30:23.482Z</time></trkpt><trkpt lat="43.8072919" lon="12.5730287"><ele>175.0</ele><time>2026-04-25T13:30:24.437Z</time></trkpt><trkpt lat="43.8072587" lon="12.5732323"><ele>177.0</ele><time>2026-04-25T13:30:25.448Z</time></trkpt><trkpt lat="43.8072202" lon="12.573465"><ele>178.0</ele><time>2026-04-25T13:30:26.552Z</time></trkpt><trkpt lat="43.8071697" lon="12.5738559"><ele>179.0</ele><time>2026-04-25T13:30:28.502Z</time></trkpt><trkpt lat="43.8071814" lon="12.5740326"><ele>180.0</ele><time>2026-04-25T13:30:29.418Z</time></trkpt><trkpt lat="43.8072151" lon="12.5742215"><ele>180.0</ele><time>2026-04-25T13:30:30.402Z</time></trkpt><trkpt lat="43.8072612" lon="12.5744069"><ele>180.0</ele><time>2026-04-25T13:30:31.477Z</time></trkpt><trkpt lat="43.8072913" lon="12.5745486"><ele>180.0</ele><time>2026-04-25T13:30:32.523Z</time></trkpt><trkpt lat="43.8072879" lon="12.5746625"><ele>180.0</ele><time>2026-04-25T13:30:33.456Z</time></trkpt><trkpt lat="43.807251" lon="12.5747456"><ele>180.0</ele><time>2026-04-25T13:30:34.438Z</time></trkpt><trkpt lat="43.807178" lon="12.5747798"><ele>181.5</ele><time>2026-04-25T13:30:35.422Z</time></trkpt><trkpt lat="43.8070659" lon="12.5747814"><ele>183.0</ele><time>2026-04-25T13:30:36.437Z</time></trkpt><trkpt lat="43.806929" lon="12.5747464"><ele>184.5</ele><time>2026-04-25T13:30:37.461Z</time></trkpt><trkpt lat="43.8068015" lon="12.5746794"><ele>186.0</ele><time>2026-04-25T13:30:38.467Z</time></trkpt><trkpt lat="43.8066899" lon="12.5746102"><ele>188.5</ele><time>2026-04-25T13:30:39.487Z</time></trkpt><trkpt lat="43.8065957" lon="12.5745717"><ele>191.0</ele><time>2026-04-25T13:30:40.459Z</time></trkpt><trkpt lat="43.806499" lon="12.5745733"><ele>193.5</ele><time>2026-04-25T13:30:41.546Z</time></trkpt><trkpt lat="43.8064426" lon="12.5746205"><ele>196.0</ele><time>2026-04-25T13:30:42.499Z</time></trkpt><trkpt lat="43.8064103" lon="12.5747062"><ele>198.5</ele><time>2026-04-25T13:30:43.47Z</time></trkpt><trkpt lat="43.8063787" lon="12.5748327"><ele>201.0</ele><time>2026-04-25T13:30:44.486Z</time></trkpt><trkpt lat="43.8063687" lon="12.5749665"><ele>201.0</ele><time>2026-04-25T13:30:45.458Z</time></trkpt><trkpt lat="43.8063842" lon="12.5751275"><ele>201.0</ele><time>2026-04-25T13:30:46.705Z</time></trkpt><trkpt lat="43.8063921" lon="12.575364"><ele>201.0</ele><time>2026-04-25T13:30:48.451Z</time></trkpt><trkpt lat="43.8063501" lon="12.5754531"><ele>201.0</ele><time>2026-04-25T13:30:49.478Z</time></trkpt><trkpt lat="43.8062854" lon="12.5755016"><ele>201.0</ele><time>2026-04-25T13:30:50.43Z</time></trkpt><trkpt lat="43.8061201" lon="12.5754712"><ele>201.0</ele><time>2026-04-25T13:30:52.473Z</time></trkpt><trkpt lat="43.8060466" lon="12.5753683"><ele>201.0</ele><time>2026-04-25T13:30:53.483Z</time></trkpt><trkpt lat="43.8060019" lon="12.5752131"><ele>201.0</ele><time>2026-04-25T13:30:54.485Z</time></trkpt><trkpt lat="43.8059694" lon="12.5750474"><ele>201.0</ele><time>2026-04-25T13:30:55.492Z</time></trkpt><trkpt lat="43.8059257" lon="12.5748551"><ele>206.0</ele><time>2026-04-25T13:30:56.527Z</time></trkpt><trkpt lat="43.8058794" lon="12.5746898"><ele>211.0</ele><time>2026-04-25T13:30:57.523Z</time></trkpt><trkpt lat="43.8058285" lon="12.5745421"><ele>216.0</ele><time>2026-04-25T13:30:58.501Z</time></trkpt><trkpt lat="43.8057721" lon="12.5743873"><ele>221.0</ele><time>2026-04-25T13:30:59.478Z</time></trkpt><trkpt lat="43.8056815" lon="12.5742543"><ele>221.0</ele><time>2026-04-25T13:31:00.51Z</time></trkpt><trkpt lat="43.8055825" lon="12.5741232"><ele>221.0</ele><time>2026-04-25T13:31:01.499Z</time></trkpt><trkpt lat="43.80549" lon="12.5740054"><ele>221.0</ele><time>2026-04-25T13:31:02.417Z</time></trkpt><trkpt lat="43.8054026" lon="12.5738662"><ele>221.0</ele><time>2026-04-25T13:31:03.469Z</time></trkpt><trkpt lat="43.8053141" lon="12.5736558"><ele>220.33333333333334</ele><time>2026-04-25T13:31:04.709Z</time></trkpt><trkpt lat="43.8051959" lon="12.5733333"><ele>219.66666666666669</ele><time>2026-04-25T13:31:06.721Z</time></trkpt><trkpt lat="43.8050856" lon="12.5731345"><ele>219.0</ele><time>2026-04-25T13:31:08.524Z</time></trkpt><trkpt lat="43.8049995" lon="12.5730499"><ele>223.0</ele><time>2026-04-25T13:31:09.475Z</time></trkpt><trkpt lat="43.8048963" lon="12.5729701"><ele>227.0</ele><time>2026-04-25T13:31:10.485Z</time></trkpt><trkpt lat="43.8047816" lon="12.5728892"><ele>231.0</ele><time>2026-04-25T13:31:11.547Z</time></trkpt><trkpt lat="43.8046714" lon="12.5728121"><ele>235.0</ele><time>2026-04-25T13:31:12.502Z</time></trkpt><trkpt lat="43.8045595" lon="12.5727392"><ele>235.0</ele><time>2026-04-25T13:31:13.477Z</time></trkpt><trkpt lat="43.8043804" lon="12.5727325"><ele>235.0</ele><time>2026-04-25T13:31:15.479Z</time></trkpt><trkpt lat="43.8042948" lon="12.5726199"><ele>235.0</ele><time>2026-04-25T13:31:17.491Z</time></trkpt><trkpt lat="43.8042242" lon="12.572631"><ele>235.0</ele><time>2026-04-25T13:31:20.614Z</time></trkpt><trkpt lat="43.8042223" lon="12.5728241"><ele>236.6</ele><time>2026-04-25T13:31:23.476Z</time></trkpt><trkpt lat="43.804223" lon="12.5729275"><ele>238.2</ele><time>2026-04-25T13:31:24.452Z</time></trkpt><trkpt lat="43.8042255" lon="12.5730685"><ele>239.8</ele><time>2026-04-25T13:31:25.522Z</time></trkpt><trkpt lat="43.8042305" lon="12.5732118"><ele>241.4</ele><time>2026-04-25T13:31:26.515Z</time></trkpt><trkpt lat="43.8042398" lon="12.5733443"><ele>243.0</ele><time>2026-04-25T13:31:27.552Z</time></trkpt><trkpt lat="43.8042552" lon="12.5734791"><ele>243.0</ele><time>2026-04-25T13:31:28.5Z</time></trkpt><trkpt lat="43.8042707" lon="12.5736201"><ele>243.0</ele><time>2026-04-25T13:31:29.481Z</time></trkpt><trkpt lat="43.8042847" lon="12.5737567"><ele>243.0</ele><time>2026-04-25T13:31:30.471Z</time></trkpt><trkpt lat="43.8043032" lon="12.5738915"><ele>243.0</ele><time>2026-04-25T13:31:31.462Z</time></trkpt><trkpt lat="43.804324" lon="12.574032"><ele>243.0</ele><time>2026-04-25T13:31:32.502Z</time></trkpt><trkpt lat="43.8043532" lon="12.5741715"><ele>242.8</ele><time>2026-04-25T13:31:33.488Z</time></trkpt><trkpt lat="43.8043884" lon="12.5743269"><ele>242.60000000000002</ele><time>2026-04-25T13:31:34.627Z</time></trkpt><trkpt lat="43.8044142" lon="12.5744552"><ele>242.39999999999998</ele><time>2026-04-25T13:31:35.547Z</time></trkpt><trkpt lat="43.8044372" lon="12.5745797"><ele>242.2</ele><time>2026-04-25T13:31:36.49Z</time></trkpt><trkpt lat="43.8044495" lon="12.5747151"><ele>242.0</ele><time>2026-04-25T13:31:37.519Z</time></trkpt><trkpt lat="43.8044475" lon="12.5748398"><ele>242.39999999999998</ele><time>2026-04-25T13:31:38.477Z</time></trkpt><trkpt lat="43.804436" lon="12.5749608"><ele>242.79999999999998</ele><time>2026-04-25T13:31:39.507Z</time></trkpt><trkpt lat="43.8044241" lon="12.5750823"><ele>243.2</ele><time>2026-04-25T13:31:40.549Z</time></trkpt><trkpt lat="43.8044169" lon="12.5752045"><ele>243.6</ele><time>2026-04-25T13:31:41.626Z</time></trkpt><trkpt lat="43.8044308" lon="12.5754246"><ele>244.0</ele><time>2026-04-25T13:31:43.494Z</time></trkpt><trkpt lat="43.8044515" lon="12.5755653"><ele>243.0</ele><time>2026-04-25T13:31:44.52Z</time></trkpt><trkpt lat="43.8044886" lon="12.575728"><ele>242.0</ele><time>2026-04-25T13:31:45.704Z</time></trkpt><trkpt lat="43.8045222" lon="12.5758487"><ele>241.0</ele><time>2026-04-25T13:31:46.488Z</time></trkpt><trkpt lat="43.804562" lon="12.5760083"><ele>240.0</ele><time>2026-04-25T13:31:47.519Z</time></trkpt><trkpt lat="43.8045939" lon="12.5761625"><ele>237.75</ele><time>2026-04-25T13:31:48.475Z</time></trkpt><trkpt lat="43.8046325" lon="12.5763315"><ele>235.5</ele><time>2026-04-25T13:31:49.536Z</time></trkpt><trkpt lat="43.8046691" lon="12.5764959"><ele>233.25</ele><time>2026-04-25T13:31:50.488Z</time></trkpt><trkpt lat="43.8047085" lon="12.5766714"><ele>231.0</ele><time>2026-04-25T13:31:51.52Z</time></trkpt><trkpt lat="43.8047505" lon="12.5768468"><ele>230.5</ele><time>2026-04-25T13:31:52.51Z</time></trkpt><trkpt lat="43.8047995" lon="12.5770327"><ele>230.0</ele><time>2026-04-25T13:31:53.538Z</time></trkpt><trkpt lat="43.804842" lon="12.5771965"><ele>229.5</ele><time>2026-04-25T13:31:54.463Z</time></trkpt><trkpt lat="43.8048961" lon="12.5773887"><ele>229.0</ele><time>2026-04-25T13:31:55.553Z</time></trkpt><trkpt lat="43.8049385" lon="12.5775563"><ele>229.0</ele><time>2026-04-25T13:31:56.488Z</time></trkpt><trkpt lat="43.8049748" lon="12.577738"><ele>229.0</ele><time>2026-04-25T13:31:57.488Z</time></trkpt><trkpt lat="43.805005" lon="12.5779229"><ele>229.0</ele><time>2026-04-25T13:31:58.468Z</time></trkpt><trkpt lat="43.8050287" lon="12.5781171"><ele>229.0</ele><time>2026-04-25T13:31:59.547Z</time></trkpt><trkpt lat="43.8050422" lon="12.5782815"><ele>229.25</ele><time>2026-04-25T13:32:00.471Z</time></trkpt><trkpt lat="43.8050443" lon="12.5784438"><ele>229.5</ele><time>2026-04-25T13:32:01.437Z</time></trkpt><trkpt lat="43.80505" lon="12.578612"><ele>229.75</ele><time>2026-04-25T13:32:02.451Z</time></trkpt><trkpt lat="43.8050497" lon="12.578794"><ele>230.0</ele><time>2026-04-25T13:32:03.444Z</time></trkpt><trkpt lat="43.8050577" lon="12.5789807"><ele>229.33333333333334</ele><time>2026-04-25T13:32:04.502Z</time></trkpt><trkpt lat="43.8050974" lon="12.5791527"><ele>228.66666666666669</ele><time>2026-04-25T13:32:05.626Z</time></trkpt><trkpt lat="43.8052181" lon="12.5794326"><ele>228.0</ele><time>2026-04-25T13:32:07.526Z</time></trkpt><trkpt lat="43.8052967" lon="12.5795449"><ele>228.0</ele><time>2026-04-25T13:32:08.482Z</time></trkpt><trkpt lat="43.8053726" lon="12.5796547"><ele>228.0</ele><time>2026-04-25T13:32:09.487Z</time></trkpt><trkpt lat="43.8054135" lon="12.5797517"><ele>228.0</ele><time>2026-04-25T13:32:10.465Z</time></trkpt><trkpt lat="43.8054484" lon="12.5798543"><ele>228.0</ele><time>2026-04-25T13:32:11.516Z</time></trkpt><trkpt lat="43.8054663" lon="12.5799491"><ele>228.0</ele><time>2026-04-25T13:32:12.488Z</time></trkpt><trkpt lat="43.8054668" lon="12.5800464"><ele>228.0</ele><time>2026-04-25T13:32:13.485Z</time></trkpt><trkpt lat="43.8054515" lon="12.5801441"><ele>228.0</ele><time>2026-04-25T13:32:14.436Z</time></trkpt><trkpt lat="43.8054312" lon="12.5802578"><ele>228.0</ele><time>2026-04-25T13:32:15.498Z</time></trkpt><trkpt lat="43.8054095" lon="12.5803741"><ele>228.0</ele><time>2026-04-25T13:32:16.589Z</time></trkpt><trkpt lat="43.8053967" lon="12.5806211"><ele>228.0</ele><time>2026-04-25T13:32:18.535Z</time></trkpt><trkpt lat="43.8054036" lon="12.5807512"><ele>228.0</ele><time>2026-04-25T13:32:19.493Z</time></trkpt><trkpt lat="43.8054177" lon="12.5808834"><ele>228.2</ele><time>2026-04-25T13:32:20.483Z</time></trkpt><trkpt lat="43.8054426" lon="12.5810133"><ele>228.4</ele><time>2026-04-25T13:32:21.517Z</time></trkpt><trkpt lat="43.8054706" lon="12.5811352"><ele>228.59999999999997</ele><time>2026-04-25T13:32:22.476Z</time></trkpt><trkpt lat="43.8055047" lon="12.5812675"><ele>228.79999999999998</ele><time>2026-04-25T13:32:23.523Z</time></trkpt><trkpt lat="43.8055399" lon="12.5813965"><ele>229.0</ele><time>2026-04-25T13:32:24.519Z</time></trkpt><trkpt lat="43.8055864" lon="12.5815336"><ele>229.79999999999998</ele><time>2026-04-25T13:32:25.502Z</time></trkpt><trkpt lat="43.8056189" lon="12.5816512"><ele>230.59999999999997</ele><time>2026-04-25T13:32:26.474Z</time></trkpt><trkpt lat="43.8056509" lon="12.5817814"><ele>231.4</ele><time>2026-04-25T13:32:27.477Z</time></trkpt><trkpt lat="43.805689" lon="12.5819183"><ele>232.2</ele><time>2026-04-25T13:32:28.491Z</time></trkpt><trkpt lat="43.8057289" lon="12.582043"><ele>233.0</ele><time>2026-04-25T13:32:29.477Z</time></trkpt><trkpt lat="43.8057663" lon="12.5821561"><ele>233.83333333333334</ele><time>2026-04-25T13:32:30.499Z</time></trkpt><trkpt lat="43.8058051" lon="12.5822661"><ele>234.66666666666669</ele><time>2026-04-25T13:32:31.46Z</time></trkpt><trkpt lat="43.8058351" lon="12.5823853"><ele>235.5</ele><time>2026-04-25T13:32:32.429Z</time></trkpt><trkpt lat="43.8058457" lon="12.5825057"><ele>236.33333333333331</ele><time>2026-04-25T13:32:33.475Z</time></trkpt><trkpt lat="43.8058594" lon="12.582624"><ele>237.16666666666666</ele><time>2026-04-25T13:32:34.558Z</time></trkpt><trkpt lat="43.8058679" lon="12.5827306"><ele>238.0</ele><time>2026-04-25T13:32:35.5Z</time></trkpt><trkpt lat="43.8058879" lon="12.5828562"><ele>238.0</ele><time>2026-04-25T13:32:36.5Z</time></trkpt><trkpt lat="43.8059082" lon="12.5829975"><ele>238.0</ele><time>2026-04-25T13:32:37.48Z</time></trkpt><trkpt lat="43.805932" lon="12.5831491"><ele>238.0</ele><time>2026-04-25T13:32:38.473Z</time></trkpt><trkpt lat="43.8059515" lon="12.5833089"><ele>238.0</ele><time>2026-04-25T13:32:39.491Z</time></trkpt><trkpt lat="43.8059683" lon="12.5834702"><ele>238.0</ele><time>2026-04-25T13:32:40.495Z</time></trkpt><trkpt lat="43.8059901" lon="12.5836374"><ele>238.0</ele><time>2026-04-25T13:32:41.495Z</time></trkpt><trkpt lat="43.806012" lon="12.58381"><ele>238.0</ele><time>2026-04-25T13:32:42.499Z</time></trkpt><trkpt lat="43.8060324" lon="12.5839784"><ele>238.0</ele><time>2026-04-25T13:32:43.508Z</time></trkpt><trkpt lat="43.8060486" lon="12.5841356"><ele>234.8</ele><time>2026-04-25T13:32:44.518Z</time></trkpt><trkpt lat="43.8060672" lon="12.5842769"><ele>231.60000000000002</ele><time>2026-04-25T13:32:45.517Z</time></trkpt><trkpt lat="43.8060733" lon="12.5844862"><ele>228.39999999999998</ele><time>2026-04-25T13:32:47.082Z</time></trkpt><trkpt lat="43.8060844" lon="12.5846136"><ele>225.2</ele><time>2026-04-25T13:32:48.082Z</time></trkpt><trkpt lat="43.8060781" lon="12.5847494"><ele>222.0</ele><time>2026-04-25T13:32:49.083Z</time></trkpt><trkpt lat="43.8060599" lon="12.5848731"><ele>222.0</ele><time>2026-04-25T13:32:50.082Z</time></trkpt><trkpt lat="43.8060468" lon="12.5850119"><ele>222.0</ele><time>2026-04-25T13:32:51.418Z</time></trkpt><trkpt lat="43.8060138" lon="12.5851547"><ele>222.0</ele><time>2026-04-25T13:32:52.426Z</time></trkpt><trkpt lat="43.805968" lon="12.5852955"><ele>222.0</ele><time>2026-04-25T13:32:53.437Z</time></trkpt><trkpt lat="43.8059236" lon="12.5854382"><ele>222.0</ele><time>2026-04-25T13:32:54.477Z</time></trkpt><trkpt lat="43.8058807" lon="12.5855675"><ele>226.0</ele><time>2026-04-25T13:32:55.425Z</time></trkpt><trkpt lat="43.805828" lon="12.5857258"><ele>230.0</ele><time>2026-04-25T13:32:56.572Z</time></trkpt><trkpt lat="43.805786" lon="12.5858526"><ele>234.0</ele><time>2026-04-25T13:32:57.5Z</time></trkpt><trkpt lat="43.8057413" lon="12.5859905"><ele>238.0</ele><time>2026-04-25T13:32:58.494Z</time></trkpt><trkpt lat="43.8056998" lon="12.5861192"><ele>242.0</ele><time>2026-04-25T13:32:59.425Z</time></trkpt><trkpt lat="43.8056557" lon="12.5862469"><ele>242.39999999999998</ele><time>2026-04-25T13:33:00.45Z</time></trkpt><trkpt lat="43.8056142" lon="12.5863767"><ele>242.79999999999998</ele><time>2026-04-25T13:33:01.477Z</time></trkpt><trkpt lat="43.8055829" lon="12.5865048"><ele>243.2</ele><time>2026-04-25T13:33:02.474Z</time></trkpt><trkpt lat="43.8055721" lon="12.5866365"><ele>243.6</ele><time>2026-04-25T13:33:03.452Z</time></trkpt><trkpt lat="43.8055878" lon="12.5867596"><ele>244.0</ele><time>2026-04-25T13:33:04.444Z</time></trkpt><trkpt lat="43.8056153" lon="12.5868769"><ele>243.99999999999997</ele><time>2026-04-25T13:33:05.451Z</time></trkpt><trkpt lat="43.8056462" lon="12.5869954"><ele>244.0</ele><time>2026-04-25T13:33:06.461Z</time></trkpt><trkpt lat="43.8056632" lon="12.5870926"><ele>244.0</ele><time>2026-04-25T13:33:07.416Z</time></trkpt><trkpt lat="43.8056736" lon="12.587202"><ele>244.0</ele><time>2026-04-25T13:33:08.458Z</time></trkpt><trkpt lat="43.8056638" lon="12.5873106"><ele>243.99999999999997</ele><time>2026-04-25T13:33:09.502Z</time></trkpt><trkpt lat="43.8056531" lon="12.5874072"><ele>244.0</ele><time>2026-04-25T13:33:10.44Z</time></trkpt><trkpt lat="43.8056228" lon="12.5875189"><ele>243.66666666666666</ele><time>2026-04-25T13:33:11.458Z</time></trkpt><trkpt lat="43.8055838" lon="12.5876247"><ele>243.33333333333331</ele><time>2026-04-25T13:33:12.457Z</time></trkpt><trkpt lat="43.8055545" lon="12.5877433"><ele>243.0</ele><time>2026-04-25T13:33:13.502Z</time></trkpt><trkpt lat="43.8055509" lon="12.5878608"><ele>242.66666666666669</ele><time>2026-04-25T13:33:14.479Z</time></trkpt><trkpt lat="43.8055605" lon="12.5879764"><ele>242.33333333333334</ele><time>2026-04-25T13:33:15.468Z</time></trkpt><trkpt lat="43.8055667" lon="12.5880986"><ele>242.0</ele><time>2026-04-25T13:33:16.475Z</time></trkpt><trkpt lat="43.8055738" lon="12.5882124"><ele>240.33333333333334</ele><time>2026-04-25T13:33:17.487Z</time></trkpt><trkpt lat="43.8055922" lon="12.5883275"><ele>238.66666666666669</ele><time>2026-04-25T13:33:18.511Z</time></trkpt><trkpt lat="43.8056063" lon="12.5884361"><ele>237.0</ele><time>2026-04-25T13:33:19.443Z</time></trkpt><trkpt lat="43.8056355" lon="12.5885715"><ele>235.33333333333331</ele><time>2026-04-25T13:33:20.559Z</time></trkpt><trkpt lat="43.8056487" lon="12.5886725"><ele>233.66666666666666</ele><time>2026-04-25T13:33:21.477Z</time></trkpt><trkpt lat="43.8056765" lon="12.5887932"><ele>232.0</ele><time>2026-04-25T13:33:22.448Z</time></trkpt><trkpt lat="43.805705" lon="12.5889324"><ele>231.0</ele><time>2026-04-25T13:33:23.499Z</time></trkpt><trkpt lat="43.8057263" lon="12.5890673"><ele>230.0</ele><time>2026-04-25T13:33:24.5Z</time></trkpt><trkpt lat="43.8057435" lon="12.5892054"><ele>229.0</ele><time>2026-04-25T13:33:25.475Z</time></trkpt><trkpt lat="43.8057589" lon="12.5893557"><ele>228.0</ele><time>2026-04-25T13:33:26.571Z</time></trkpt><trkpt lat="43.805765" lon="12.5894817"><ele>227.0</ele><time>2026-04-25T13:33:27.49Z</time></trkpt><trkpt lat="43.8057627" lon="12.5896123"><ele>226.2</ele><time>2026-04-25T13:33:28.456Z</time></trkpt><trkpt lat="43.8057569" lon="12.5897773"><ele>225.39999999999998</ele><time>2026-04-25T13:33:29.612Z</time></trkpt><trkpt lat="43.8057521" lon="12.5899045"><ele>224.60000000000002</ele><time>2026-04-25T13:33:30.46Z</time></trkpt><trkpt lat="43.8057496" lon="12.5900644"><ele>223.8</ele><time>2026-04-25T13:33:31.522Z</time></trkpt><trkpt lat="43.8057515" lon="12.590214"><ele>223.0</ele><time>2026-04-25T13:33:32.493Z</time></trkpt><trkpt lat="43.8057525" lon="12.5903624"><ele>222.8</ele><time>2026-04-25T13:33:33.489Z</time></trkpt><trkpt lat="43.8057536" lon="12.5905171"><ele>222.60000000000002</ele><time>2026-04-25T13:33:34.471Z</time></trkpt><trkpt lat="43.8057508" lon="12.5906828"><ele>222.39999999999998</ele><time>2026-04-25T13:33:35.527Z</time></trkpt><trkpt lat="43.8057482" lon="12.5908245"><ele>222.2</ele><time>2026-04-25T13:33:36.469Z</time></trkpt><trkpt lat="43.8057444" lon="12.590985"><ele>222.0</ele><time>2026-04-25T13:33:37.521Z</time></trkpt><trkpt lat="43.8057399" lon="12.5911472"><ele>222.25</ele><time>2026-04-25T13:33:38.546Z</time></trkpt><trkpt lat="43.8057306" lon="12.5913064"><ele>222.5</ele><time>2026-04-25T13:33:39.567Z</time></trkpt><trkpt lat="43.8057224" lon="12.5914666"><ele>222.75</ele><time>2026-04-25T13:33:40.566Z</time></trkpt><trkpt lat="43.8057111" lon="12.5916432"><ele>223.0</ele><time>2026-04-25T13:33:41.685Z</time></trkpt><trkpt lat="43.8056766" lon="12.5919472"><ele>222.75</ele><time>2026-04-25T13:33:43.675Z</time></trkpt><trkpt lat="43.8056392" lon="12.5922302"><ele>222.5</ele><time>2026-04-25T13:33:45.501Z</time></trkpt><trkpt lat="43.8056197" lon="12.5923864"><ele>222.25</ele><time>2026-04-25T13:33:46.507Z</time></trkpt><trkpt lat="43.8055973" lon="12.5925407"><ele>222.0</ele><time>2026-04-25T13:33:47.527Z</time></trkpt><trkpt lat="43.8055758" lon="12.5926805"><ele>222.0</ele><time>2026-04-25T13:33:48.461Z</time></trkpt><trkpt lat="43.8055536" lon="12.5928356"><ele>222.0</ele><time>2026-04-25T13:33:49.516Z</time></trkpt><trkpt lat="43.8055217" lon="12.592981"><ele>222.0</ele><time>2026-04-25T13:33:50.468Z</time></trkpt><trkpt lat="43.8054817" lon="12.5931236"><ele>222.0</ele><time>2026-04-25T13:33:51.463Z</time></trkpt><trkpt lat="43.8054345" lon="12.5932692"><ele>222.0</ele><time>2026-04-25T13:33:52.458Z</time></trkpt><trkpt lat="43.8053769" lon="12.5934121"><ele>221.6</ele><time>2026-04-25T13:33:53.474Z</time></trkpt><trkpt lat="43.8053209" lon="12.5935431"><ele>221.2</ele><time>2026-04-25T13:33:54.482Z</time></trkpt><trkpt lat="43.8052731" lon="12.593664"><ele>220.8</ele><time>2026-04-25T13:33:55.439Z</time></trkpt><trkpt lat="43.8052209" lon="12.5937946"><ele>220.4</ele><time>2026-04-25T13:33:56.567Z</time></trkpt><trkpt lat="43.8051797" lon="12.5938977"><ele>220.0</ele><time>2026-04-25T13:33:57.492Z</time></trkpt><trkpt lat="43.8051424" lon="12.5940225"><ele>220.0</ele><time>2026-04-25T13:33:58.488Z</time></trkpt><trkpt lat="43.805109" lon="12.5941764"><ele>220.0</ele><time>2026-04-25T13:33:59.587Z</time></trkpt><trkpt lat="43.8050904" lon="12.5943088"><ele>220.0</ele><time>2026-04-25T13:34:00.489Z</time></trkpt><trkpt lat="43.8050807" lon="12.5944481"><ele>220.0</ele><time>2026-04-25T13:34:01.456Z</time></trkpt><trkpt lat="43.8050716" lon="12.5946018"><ele>220.0</ele><time>2026-04-25T13:34:02.487Z</time></trkpt><trkpt lat="43.8050642" lon="12.5947557"><ele>220.6</ele><time>2026-04-25T13:34:03.502Z</time></trkpt><trkpt lat="43.8050455" lon="12.5948965"><ele>221.2</ele><time>2026-04-25T13:34:04.515Z</time></trkpt><trkpt lat="43.8050149" lon="12.5950451"><ele>221.8</ele><time>2026-04-25T13:34:05.507Z</time></trkpt><trkpt lat="43.804983" lon="12.595173"><ele>222.4</ele><time>2026-04-25T13:34:06.489Z</time></trkpt><trkpt lat="43.8049546" lon="12.5952997"><ele>223.0</ele><time>2026-04-25T13:34:07.494Z</time></trkpt><trkpt lat="43.8049126" lon="12.595408"><ele>222.14285714285714</ele><time>2026-04-25T13:34:08.457Z</time></trkpt><trkpt lat="43.8048584" lon="12.5954996"><ele>221.28571428571428</ele><time>2026-04-25T13:34:09.482Z</time></trkpt><trkpt lat="43.804797" lon="12.5955502"><ele>220.42857142857144</ele><time>2026-04-25T13:34:10.438Z</time></trkpt><trkpt lat="43.8047281" lon="12.5955823"><ele>219.57142857142856</ele><time>2026-04-25T13:34:11.514Z</time></trkpt><trkpt lat="43.8046651" lon="12.5956017"><ele>218.71428571428572</ele><time>2026-04-25T13:34:12.517Z</time></trkpt><trkpt lat="43.8045957" lon="12.5956262"><ele>217.85714285714286</ele><time>2026-04-25T13:34:13.547Z</time></trkpt><trkpt lat="43.8045374" lon="12.5956684"><ele>217.0</ele><time>2026-04-25T13:34:14.55Z</time></trkpt><trkpt lat="43.8044951" lon="12.5957389"><ele>216.99999999999997</ele><time>2026-04-25T13:34:15.59Z</time></trkpt><trkpt lat="43.8044648" lon="12.595818"><ele>217.0</ele><time>2026-04-25T13:34:16.568Z</time></trkpt><trkpt lat="43.8044271" lon="12.5960094"><ele>217.0</ele><time>2026-04-25T13:34:18.495Z</time></trkpt><trkpt lat="43.8044191" lon="12.5961259"><ele>217.0</ele><time>2026-04-25T13:34:19.567Z</time></trkpt><trkpt lat="43.8044244" lon="12.5962274"><ele>216.99999999999997</ele><time>2026-04-25T13:34:20.486Z</time></trkpt><trkpt lat="43.804433" lon="12.5963394"><ele>217.0</ele><time>2026-04-25T13:34:21.479Z</time></trkpt><trkpt lat="43.8044466" lon="12.5964596"><ele>213.8</ele><time>2026-04-25T13:34:22.494Z</time></trkpt><trkpt lat="43.8044649" lon="12.5965722"><ele>210.6</ele><time>2026-04-25T13:34:23.469Z</time></trkpt><trkpt lat="43.8044767" lon="12.596696"><ele>207.4</ele><time>2026-04-25T13:34:24.498Z</time></trkpt><trkpt lat="43.8044806" lon="12.5968153"><ele>204.20000000000002</ele><time>2026-04-25T13:34:25.502Z</time></trkpt><trkpt lat="43.804479" lon="12.5969463"><ele>201.0</ele><time>2026-04-25T13:34:26.508Z</time></trkpt><trkpt lat="43.8044739" lon="12.597096"><ele>198.25</ele><time>2026-04-25T13:34:27.585Z</time></trkpt><trkpt lat="43.8044616" lon="12.5973987"><ele>195.5</ele><time>2026-04-25T13:34:29.49Z</time></trkpt><trkpt lat="43.8044516" lon="12.5975501"><ele>192.75</ele><time>2026-04-25T13:34:30.461Z</time></trkpt><trkpt lat="43.8044365" lon="12.5977126"><ele>190.0</ele><time>2026-04-25T13:34:31.475Z</time></trkpt><trkpt lat="43.8044045" lon="12.5978814"><ele>190.0</ele><time>2026-04-25T13:34:32.565Z</time></trkpt><trkpt lat="43.804369" lon="12.5980182"><ele>190.0</ele><time>2026-04-25T13:34:33.495Z</time></trkpt><trkpt lat="43.8043068" lon="12.5981676"><ele>190.0</ele><time>2026-04-25T13:34:34.504Z</time></trkpt><trkpt lat="43.8042383" lon="12.5983134"><ele>190.0</ele><time>2026-04-25T13:34:35.519Z</time></trkpt><trkpt lat="43.8041658" lon="12.5984549"><ele>194.0</ele><time>2026-04-25T13:34:36.533Z</time></trkpt><trkpt lat="43.8040889" lon="12.5986021"><ele>198.0</ele><time>2026-04-25T13:34:37.498Z</time></trkpt><trkpt lat="43.8040271" lon="12.5986964"><ele>202.0</ele><time>2026-04-25T13:34:38.455Z</time></trkpt><trkpt lat="43.803941" lon="12.5988509"><ele>206.0</ele><time>2026-04-25T13:34:39.467Z</time></trkpt><trkpt lat="43.8038587" lon="12.5990053"><ele>205.66666666666669</ele><time>2026-04-25T13:34:40.509Z</time></trkpt><trkpt lat="43.8037776" lon="12.5991622"><ele>205.33333333333331</ele><time>2026-04-25T13:34:41.619Z</time></trkpt><trkpt lat="43.8036213" lon="12.5994233"><ele>205.0</ele><time>2026-04-25T13:34:43.515Z</time></trkpt><trkpt lat="43.803536" lon="12.5995382"><ele>207.25</ele><time>2026-04-25T13:34:44.48Z</time></trkpt><trkpt lat="43.8034346" lon="12.5996445"><ele>209.5</ele><time>2026-04-25T13:34:45.492Z</time></trkpt><trkpt lat="43.8033317" lon="12.5997144"><ele>211.75</ele><time>2026-04-25T13:34:46.627Z</time></trkpt><trkpt lat="43.8031766" lon="12.59983"><ele>214.0</ele><time>2026-04-25T13:34:48.447Z</time></trkpt><trkpt lat="43.8030999" lon="12.5999004"><ele>214.0</ele><time>2026-04-25T13:34:49.445Z</time></trkpt><trkpt lat="43.8030142" lon="12.5999887"><ele>213.99999999999997</ele><time>2026-04-25T13:34:50.508Z</time></trkpt><trkpt lat="43.8029284" lon="12.6000746"><ele>213.99999999999997</ele><time>2026-04-25T13:34:51.486Z</time></trkpt><trkpt lat="43.8028417" lon="12.6001498"><ele>214.0</ele><time>2026-04-25T13:34:52.481Z</time></trkpt><trkpt lat="43.8027557" lon="12.6002112"><ele>214.0</ele><time>2026-04-25T13:34:53.462Z</time></trkpt><trkpt lat="43.8026682" lon="12.6002697"><ele>213.39999999999998</ele><time>2026-04-25T13:34:54.49Z</time></trkpt><trkpt lat="43.8025735" lon="12.6003179"><ele>212.79999999999998</ele><time>2026-04-25T13:34:55.53Z</time></trkpt><trkpt lat="43.8024876" lon="12.6003531"><ele>212.2</ele><time>2026-04-25T13:34:56.463Z</time></trkpt><trkpt lat="43.8023944" lon="12.6003895"><ele>211.60000000000002</ele><time>2026-04-25T13:34:57.487Z</time></trkpt><trkpt lat="43.802306" lon="12.600421"><ele>211.0</ele><time>2026-04-25T13:34:58.486Z</time></trkpt><trkpt lat="43.8022153" lon="12.6004566"><ele>211.0</ele><time>2026-04-25T13:34:59.521Z</time></trkpt><trkpt lat="43.8021242" lon="12.600491"><ele>211.0</ele><time>2026-04-25T13:35:00.51Z</time></trkpt><trkpt lat="43.8020345" lon="12.6005218"><ele>211.0</ele><time>2026-04-25T13:35:01.498Z</time></trkpt><trkpt lat="43.801943" lon="12.6005527"><ele>211.0</ele><time>2026-04-25T13:35:02.481Z</time></trkpt><trkpt lat="43.8018523" lon="12.6005843"><ele>211.0</ele><time>2026-04-25T13:35:03.491Z</time></trkpt><trkpt lat="43.801766" lon="12.600621"><ele>208.16666666666666</ele><time>2026-04-25T13:35:04.499Z</time></trkpt><trkpt lat="43.801685" lon="12.6006629"><ele>205.33333333333331</ele><time>2026-04-25T13:35:05.514Z</time></trkpt><trkpt lat="43.8016127" lon="12.6007196"><ele>202.5</ele><time>2026-04-25T13:35:06.501Z</time></trkpt><trkpt lat="43.801555" lon="12.6007825"><ele>199.66666666666669</ele><time>2026-04-25T13:35:07.481Z</time></trkpt><trkpt lat="43.8015187" lon="12.6008539"><ele>196.83333333333334</ele><time>2026-04-25T13:35:08.462Z</time></trkpt><trkpt lat="43.8014791" lon="12.6010169"><ele>194.0</ele><time>2026-04-25T13:35:10.507Z</time></trkpt><trkpt lat="43.8014622" lon="12.6011016"><ele>193.66666666666669</ele><time>2026-04-25T13:35:11.485Z</time></trkpt><trkpt lat="43.8014388" lon="12.6011859"><ele>193.33333333333334</ele><time>2026-04-25T13:35:12.489Z</time></trkpt><trkpt lat="43.8014116" lon="12.6012727"><ele>193.0</ele><time>2026-04-25T13:35:13.497Z</time></trkpt><trkpt lat="43.8013306" lon="12.601423"><ele>192.66666666666669</ele><time>2026-04-25T13:35:15.501Z</time></trkpt><trkpt lat="43.801278" lon="12.601482"><ele>192.33333333333334</ele><time>2026-04-25T13:35:16.465Z</time></trkpt><trkpt lat="43.8012186" lon="12.601533"><ele>192.0</ele><time>2026-04-25T13:35:17.464Z</time></trkpt><trkpt lat="43.8011498" lon="12.6015802"><ele>192.0</ele><time>2026-04-25T13:35:18.47Z</time></trkpt><trkpt lat="43.8010487" lon="12.6016461"><ele>192.0</ele><time>2026-04-25T13:35:20.453Z</time></trkpt><trkpt lat="43.8009825" lon="12.6018128"><ele>192.0</ele><time>2026-04-25T13:35:22.639Z</time></trkpt><trkpt lat="43.80098" lon="12.6020036"><ele>192.0</ele><time>2026-04-25T13:35:24.488Z</time></trkpt><trkpt lat="43.8009997" lon="12.6021097"><ele>189.2</ele><time>2026-04-25T13:35:25.437Z</time></trkpt><trkpt lat="43.8010273" lon="12.6022295"><ele>186.39999999999998</ele><time>2026-04-25T13:35:26.395Z</time></trkpt><trkpt lat="43.8010657" lon="12.6023762"><ele>183.60000000000002</ele><time>2026-04-25T13:35:27.493Z</time></trkpt><trkpt lat="43.8010946" lon="12.6025068"><ele>180.8</ele><time>2026-04-25T13:35:28.484Z</time></trkpt><trkpt lat="43.8011176" lon="12.6026329"><ele>178.0</ele><time>2026-04-25T13:35:29.465Z</time></trkpt><trkpt lat="43.8011246" lon="12.602769"><ele>175.4</ele><time>2026-04-25T13:35:30.482Z</time></trkpt><trkpt lat="43.8011185" lon="12.6029197"><ele>172.8</ele><time>2026-04-25T13:35:31.67Z</time></trkpt><trkpt lat="43.8010908" lon="12.6030141"><ele>170.2</ele><time>2026-04-25T13:35:32.462Z</time></trkpt><trkpt lat="43.8010523" lon="12.6031418"><ele>167.6</ele><time>2026-04-25T13:35:33.494Z</time></trkpt><trkpt lat="43.8009893" lon="12.6032681"><ele>165.0</ele><time>2026-04-25T13:35:34.551Z</time></trkpt><trkpt lat="43.8009287" lon="12.6033807"><ele>165.0</ele><time>2026-04-25T13:35:35.474Z</time></trkpt><trkpt lat="43.8008641" lon="12.6034982"><ele>165.0</ele><time>2026-04-25T13:35:36.473Z</time></trkpt><trkpt lat="43.8007969" lon="12.6036071"><ele>165.0</ele><time>2026-04-25T13:35:37.48Z</time></trkpt><trkpt lat="43.8007244" lon="12.6037216"><ele>165.0</ele><time>2026-04-25T13:35:38.485Z</time></trkpt><trkpt lat="43.8006414" lon="12.603844"><ele>165.0</ele><time>2026-04-25T13:35:39.476Z</time></trkpt><trkpt lat="43.8005536" lon="12.6039742"><ele>163.0</ele><time>2026-04-25T13:35:40.477Z</time></trkpt><trkpt lat="43.8004789" lon="12.6040926"><ele>161.0</ele><time>2026-04-25T13:35:41.519Z</time></trkpt><trkpt lat="43.8003997" lon="12.6042101"><ele>159.0</ele><time>2026-04-25T13:35:42.506Z</time></trkpt><trkpt lat="43.8003139" lon="12.604327"><ele>157.0</ele><time>2026-04-25T13:35:43.493Z</time></trkpt><trkpt lat="43.8002183" lon="12.6044377"><ele>158.25</ele><time>2026-04-25T13:35:44.5Z</time></trkpt><trkpt lat="43.8001159" lon="12.6045559"><ele>159.5</ele><time>2026-04-25T13:35:45.55Z</time></trkpt><trkpt lat="43.8000223" lon="12.6046625"><ele>160.75</ele><time>2026-04-25T13:35:46.486Z</time></trkpt><trkpt lat="43.7999237" lon="12.6047805"><ele>162.0</ele><time>2026-04-25T13:35:47.506Z</time></trkpt><trkpt lat="43.7998433" lon="12.6048834"><ele>162.0</ele><time>2026-04-25T13:35:48.47Z</time></trkpt><trkpt lat="43.7997595" lon="12.6049895"><ele>162.0</ele><time>2026-04-25T13:35:49.531Z</time></trkpt><trkpt lat="43.7996842" lon="12.6050872"><ele>162.0</ele><time>2026-04-25T13:35:50.511Z</time></trkpt><trkpt lat="43.7996199" lon="12.6051823"><ele>162.0</ele><time>2026-04-25T13:35:51.558Z</time></trkpt><trkpt lat="43.7995679" lon="12.6052745"><ele>162.0</ele><time>2026-04-25T13:35:52.527Z</time></trkpt><trkpt lat="43.7995205" lon="12.6053823"><ele>162.39999999999998</ele><time>2026-04-25T13:35:53.518Z</time></trkpt><trkpt lat="43.7994758" lon="12.6055061"><ele>162.79999999999998</ele><time>2026-04-25T13:35:54.506Z</time></trkpt><trkpt lat="43.799434" lon="12.6056361"><ele>163.2</ele><time>2026-04-25T13:35:55.466Z</time></trkpt><trkpt lat="43.7993863" lon="12.6057771"><ele>163.6</ele><time>2026-04-25T13:35:56.491Z</time></trkpt><trkpt lat="43.7993399" lon="12.6059196"><ele>164.0</ele><time>2026-04-25T13:35:57.52Z</time></trkpt><trkpt lat="43.7992945" lon="12.6060591"><ele>163.39999999999998</ele><time>2026-04-25T13:35:58.542Z</time></trkpt><trkpt lat="43.7992537" lon="12.6061844"><ele>162.8</ele><time>2026-04-25T13:35:59.495Z</time></trkpt><trkpt lat="43.7992162" lon="12.6063094"><ele>162.2</ele><time>2026-04-25T13:36:00.48Z</time></trkpt><trkpt lat="43.7991813" lon="12.6064306"><ele>161.60000000000002</ele><time>2026-04-25T13:36:01.47Z</time></trkpt><trkpt lat="43.7991487" lon="12.6065464"><ele>161.0</ele><time>2026-04-25T13:36:02.51Z</time></trkpt><trkpt lat="43.7991139" lon="12.6066496"><ele>161.0</ele><time>2026-04-25T13:36:03.524Z</time></trkpt><trkpt lat="43.7990758" lon="12.6067324"><ele>161.0</ele><time>2026-04-25T13:36:04.488Z</time></trkpt><trkpt lat="43.7990243" lon="12.6068291"><ele>161.0</ele><time>2026-04-25T13:36:05.547Z</time></trkpt><trkpt lat="43.7989579" lon="12.6069196"><ele>161.0</ele><time>2026-04-25T13:36:06.557Z</time></trkpt><trkpt lat="43.7988779" lon="12.6070079"><ele>161.0</ele><time>2026-04-25T13:36:07.58Z</time></trkpt><trkpt lat="43.7987134" lon="12.6071381"><ele>159.8</ele><time>2026-04-25T13:36:09.514Z</time></trkpt><trkpt lat="43.7986243" lon="12.6072079"><ele>158.60000000000002</ele><time>2026-04-25T13:36:10.548Z</time></trkpt><trkpt lat="43.7985461" lon="12.6072753"><ele>157.4</ele><time>2026-04-25T13:36:11.585Z</time></trkpt><trkpt lat="43.7984745" lon="12.6073306"><ele>156.2</ele><time>2026-04-25T13:36:12.492Z</time></trkpt><trkpt lat="43.7983997" lon="12.6073928"><ele>155.0</ele><time>2026-04-25T13:36:13.475Z</time></trkpt><trkpt lat="43.7983244" lon="12.6074714"><ele>154.5</ele><time>2026-04-25T13:36:14.526Z</time></trkpt><trkpt lat="43.7982549" lon="12.6075504"><ele>154.0</ele><time>2026-04-25T13:36:15.529Z</time></trkpt><trkpt lat="43.7981876" lon="12.6076341"><ele>153.5</ele><time>2026-04-25T13:36:16.513Z</time></trkpt><trkpt lat="43.798127" lon="12.6077166"><ele>153.0</ele><time>2026-04-25T13:36:17.485Z</time></trkpt><trkpt lat="43.7980671" lon="12.6078034"><ele>152.5</ele><time>2026-04-25T13:36:18.487Z</time></trkpt><trkpt lat="43.7980097" lon="12.6078932"><ele>152.0</ele><time>2026-04-25T13:36:19.486Z</time></trkpt><trkpt lat="43.7979572" lon="12.6079902"><ele>151.6</ele><time>2026-04-25T13:36:20.509Z</time></trkpt><trkpt lat="43.797909" lon="12.6080986"><ele>151.2</ele><time>2026-04-25T13:36:21.555Z</time></trkpt><trkpt lat="43.7978567" lon="12.6082146"><ele>150.8</ele><time>2026-04-25T13:36:22.527Z</time></trkpt><trkpt lat="43.7978014" lon="12.6083606"><ele>150.4</ele><time>2026-04-25T13:36:23.518Z</time></trkpt><trkpt lat="43.797752" lon="12.6085084"><ele>150.0</ele><time>2026-04-25T13:36:24.492Z</time></trkpt><trkpt lat="43.7977081" lon="12.6086575"><ele>147.0</ele><time>2026-04-25T13:36:25.49Z</time></trkpt><trkpt lat="43.7976669" lon="12.6087992"><ele>144.0</ele><time>2026-04-25T13:36:26.464Z</time></trkpt><trkpt lat="43.7976263" lon="12.6089485"><ele>141.0</ele><time>2026-04-25T13:36:27.508Z</time></trkpt><trkpt lat="43.7975875" lon="12.6090835"><ele>138.0</ele><time>2026-04-25T13:36:28.482Z</time></trkpt><trkpt lat="43.7975471" lon="12.6092162"><ele>135.0</ele><time>2026-04-25T13:36:29.456Z</time></trkpt><trkpt lat="43.7974953" lon="12.609345"><ele>135.0</ele><time>2026-04-25T13:36:30.471Z</time></trkpt><trkpt lat="43.7974394" lon="12.6094664"><ele>135.0</ele><time>2026-04-25T13:36:31.49Z</time></trkpt><trkpt lat="43.7973724" lon="12.6095656"><ele>135.0</ele><time>2026-04-25T13:36:32.468Z</time></trkpt><trkpt lat="43.7972915" lon="12.6096525"><ele>135.0</ele><time>2026-04-25T13:36:33.489Z</time></trkpt><trkpt lat="43.7972108" lon="12.609723"><ele>135.0</ele><time>2026-04-25T13:36:34.523Z</time></trkpt><trkpt lat="43.7971396" lon="12.6097763"><ele>134.16666666666666</ele><time>2026-04-25T13:36:35.48Z</time></trkpt><trkpt lat="43.7970721" lon="12.6098147"><ele>133.33333333333334</ele><time>2026-04-25T13:36:36.503Z</time></trkpt><trkpt lat="43.7970059" lon="12.6098341"><ele>132.5</ele><time>2026-04-25T13:36:37.496Z</time></trkpt><trkpt lat="43.7969377" lon="12.6098538"><ele>131.66666666666669</ele><time>2026-04-25T13:36:38.461Z</time></trkpt><trkpt lat="43.7968658" lon="12.6098854"><ele>130.83333333333334</ele><time>2026-04-25T13:36:39.52Z</time></trkpt><trkpt lat="43.7967614" lon="12.6099588"><ele>130.0</ele><time>2026-04-25T13:36:41.453Z</time></trkpt><trkpt lat="43.7966303" lon="12.6099974"><ele>130.0</ele><time>2026-04-25T13:36:43.476Z</time></trkpt><trkpt lat="43.796554" lon="12.60998"><ele>130.0</ele><time>2026-04-25T13:36:44.494Z</time></trkpt><trkpt lat="43.7964662" lon="12.6099637"><ele>130.0</ele><time>2026-04-25T13:36:45.456Z</time></trkpt><trkpt lat="43.7963846" lon="12.6099342"><ele>130.0</ele><time>2026-04-25T13:36:46.517Z</time></trkpt><trkpt lat="43.7963079" lon="12.6099249"><ele>130.0</ele><time>2026-04-25T13:36:47.532Z</time></trkpt><trkpt lat="43.7962365" lon="12.6099243"><ele>130.0</ele><time>2026-04-25T13:36:48.486Z</time></trkpt><trkpt lat="43.7961692" lon="12.6099679"><ele>130.0</ele><time>2026-04-25T13:36:49.489Z</time></trkpt><trkpt lat="43.7960678" lon="12.6100753"><ele>130.0</ele><time>2026-04-25T13:36:50.654Z</time></trkpt><trkpt lat="43.7959043" lon="12.6103312"><ele>130.0</ele><time>2026-04-25T13:36:52.569Z</time></trkpt><trkpt lat="43.7958248" lon="12.6104413"><ele>129.2</ele><time>2026-04-25T13:36:53.499Z</time></trkpt><trkpt lat="43.7957354" lon="12.6105331"><ele>128.4</ele><time>2026-04-25T13:36:54.466Z</time></trkpt><trkpt lat="43.7956275" lon="12.6106304"><ele>127.6</ele><time>2026-04-25T13:36:55.531Z</time></trkpt><trkpt lat="43.7955419" lon="12.610703"><ele>126.8</ele><time>2026-04-25T13:36:56.498Z</time></trkpt><trkpt lat="43.7954584" lon="12.6107743"><ele>126.0</ele><time>2026-04-25T13:36:57.49Z</time></trkpt><trkpt lat="43.7953895" lon="12.6108457"><ele>126.0</ele><time>2026-04-25T13:36:58.475Z</time></trkpt><trkpt lat="43.7953331" lon="12.61089"><ele>126.0</ele><time>2026-04-25T13:36:59.498Z</time></trkpt><trkpt lat="43.7952687" lon="12.6109275"><ele>126.0</ele><time>2026-04-25T13:37:00.565Z</time></trkpt><trkpt lat="43.7952084" lon="12.6109651"><ele>126.0</ele><time>2026-04-25T13:37:01.497Z</time></trkpt></trkseg></trk></gpx>